<?xml version="1.0" encoding="UTF-8" standalone="no" ?>
<gpx xmlns="http://www.topografix.com/GPX/1/1" xmlns:xsi="http://www.w3.org/2001/XMLSchema-instance" xsi:schemaLocation="http://www.topografix.com/GPX/1/1 http://www.topografix.com/GPX/1/1/gpx.xsd" version="1.1" creator="VisuGPX - https://www.visugpx.com">
  <metadata>
    <name>2023-12-02 BELBEZE EN COMMINGES BOUCLE</name>
    <desc><![CDATA[#31 #09 #BELBEZE-EN-COMMINGES  CERIZOLS  PENTECOTE  TOUR-D-AUSSEING / CARRIERES-DE-MARBRE-DE-PEDEGAS
#RANDOX 

#RANDO-FAVORITE]]></desc>
  </metadata>
  <trk>
    <name><![CDATA[2023-12-02 08:59:13]]></name>
    <extensions>
      <line xmlns="http://www.topografix.com/GPX/gpx_style/0/2">
        <color>0000FF</color>
        <width>4</width>
      </line>
    </extensions>
    <trkseg>
      <trkpt lat="43.13423" lon="1.02215">
        <ele>368.20001220703</ele>
        <time>2023-12-02T07:59:13Z</time>
      </trkpt>
      <trkpt lat="43.13423" lon="1.02215">
        <ele>368.20001220703</ele>
        <time>2023-12-02T07:59:14Z</time>
      </trkpt>
      <trkpt lat="43.13425" lon="1.02218">
        <ele>368.79998779297</ele>
        <time>2023-12-02T07:59:43Z</time>
      </trkpt>
      <trkpt lat="43.13426" lon="1.02213">
        <ele>368.20001220703</ele>
        <time>2023-12-02T08:00:33Z</time>
      </trkpt>
      <trkpt lat="43.13423" lon="1.02215">
        <ele>368</ele>
        <time>2023-12-02T08:01:04Z</time>
      </trkpt>
      <trkpt lat="43.13418" lon="1.02218">
        <ele>368.20001220703</ele>
        <time>2023-12-02T08:01:25Z</time>
      </trkpt>
      <trkpt lat="43.13419" lon="1.02221">
        <ele>368</ele>
        <time>2023-12-02T08:01:56Z</time>
      </trkpt>
      <trkpt lat="43.13417" lon="1.02219">
        <ele>367.79998779297</ele>
        <time>2023-12-02T08:02:19Z</time>
      </trkpt>
      <trkpt lat="43.13418" lon="1.0222">
        <ele>367.79998779297</ele>
        <time>2023-12-02T08:02:38Z</time>
      </trkpt>
      <trkpt lat="43.13415" lon="1.02215">
        <ele>368</ele>
        <time>2023-12-02T08:02:55Z</time>
      </trkpt>
      <trkpt lat="43.13414" lon="1.02212">
        <ele>368</ele>
        <time>2023-12-02T08:03:19Z</time>
      </trkpt>
      <trkpt lat="43.13407" lon="1.02203">
        <ele>368</ele>
        <time>2023-12-02T08:03:38Z</time>
      </trkpt>
      <trkpt lat="43.13404" lon="1.02203">
        <ele>368</ele>
        <time>2023-12-02T08:03:40Z</time>
      </trkpt>
      <trkpt lat="43.13387" lon="1.02204">
        <ele>369</ele>
        <time>2023-12-02T08:03:56Z</time>
      </trkpt>
      <trkpt lat="43.13381" lon="1.02202">
        <ele>369.79998779297</ele>
        <time>2023-12-02T08:04:07Z</time>
      </trkpt>
      <trkpt lat="43.13374" lon="1.022">
        <ele>370.39999389648</ele>
        <time>2023-12-02T08:04:12Z</time>
      </trkpt>
      <trkpt lat="43.13371" lon="1.02199">
        <ele>370.39999389648</ele>
        <time>2023-12-02T08:04:14Z</time>
      </trkpt>
      <trkpt lat="43.13356" lon="1.02214">
        <ele>372</ele>
        <time>2023-12-02T08:04:29Z</time>
      </trkpt>
      <trkpt lat="43.13349" lon="1.02231">
        <ele>372.79998779297</ele>
        <time>2023-12-02T08:04:39Z</time>
      </trkpt>
      <trkpt lat="43.13346" lon="1.02249">
        <ele>374</ele>
        <time>2023-12-02T08:04:53Z</time>
      </trkpt>
      <trkpt lat="43.1335" lon="1.02274">
        <ele>375.20001220703</ele>
        <time>2023-12-02T08:05:11Z</time>
      </trkpt>
      <trkpt lat="43.13362" lon="1.02298">
        <ele>376.79998779297</ele>
        <time>2023-12-02T08:05:28Z</time>
      </trkpt>
      <trkpt lat="43.1337" lon="1.02322">
        <ele>377.60000610352</ele>
        <time>2023-12-02T08:05:45Z</time>
      </trkpt>
      <trkpt lat="43.13385" lon="1.02348">
        <ele>379</ele>
        <time>2023-12-02T08:06:02Z</time>
      </trkpt>
      <trkpt lat="43.13389" lon="1.02373">
        <ele>380.39999389648</ele>
        <time>2023-12-02T08:06:19Z</time>
      </trkpt>
      <trkpt lat="43.13387" lon="1.02408">
        <ele>382</ele>
        <time>2023-12-02T08:06:39Z</time>
      </trkpt>
      <trkpt lat="43.13379" lon="1.02435">
        <ele>383.39999389648</ele>
        <time>2023-12-02T08:06:55Z</time>
      </trkpt>
      <trkpt lat="43.13376" lon="1.02459">
        <ele>385</ele>
        <time>2023-12-02T08:07:11Z</time>
      </trkpt>
      <trkpt lat="43.13377" lon="1.02477">
        <ele>386.20001220703</ele>
        <time>2023-12-02T08:07:28Z</time>
      </trkpt>
      <trkpt lat="43.13375" lon="1.0252">
        <ele>385.60000610352</ele>
        <time>2023-12-02T08:07:56Z</time>
      </trkpt>
      <trkpt lat="43.13374" lon="1.02538">
        <ele>385.60000610352</ele>
        <time>2023-12-02T08:08:07Z</time>
      </trkpt>
      <trkpt lat="43.13374" lon="1.02541">
        <ele>385.60000610352</ele>
        <time>2023-12-02T08:08:09Z</time>
      </trkpt>
      <trkpt lat="43.1337" lon="1.02563">
        <ele>385.79998779297</ele>
        <time>2023-12-02T08:08:23Z</time>
      </trkpt>
      <trkpt lat="43.13369" lon="1.02569">
        <ele>385.79998779297</ele>
        <time>2023-12-02T08:08:25Z</time>
      </trkpt>
      <trkpt lat="43.13366" lon="1.02595">
        <ele>386.39999389648</ele>
        <time>2023-12-02T08:08:40Z</time>
      </trkpt>
      <trkpt lat="43.1336" lon="1.02622">
        <ele>387.20001220703</ele>
        <time>2023-12-02T08:08:57Z</time>
      </trkpt>
      <trkpt lat="43.13356" lon="1.0264">
        <ele>387.39999389648</ele>
        <time>2023-12-02T08:09:08Z</time>
      </trkpt>
      <trkpt lat="43.13354" lon="1.02655">
        <ele>387.79998779297</ele>
        <time>2023-12-02T08:09:17Z</time>
      </trkpt>
      <trkpt lat="43.13353" lon="1.02687">
        <ele>388.20001220703</ele>
        <time>2023-12-02T08:09:37Z</time>
      </trkpt>
      <trkpt lat="43.13353" lon="1.02688">
        <ele>388.39999389648</ele>
        <time>2023-12-02T08:09:38Z</time>
      </trkpt>
      <trkpt lat="43.13353" lon="1.02694">
        <ele>388.39999389648</ele>
        <time>2023-12-02T08:09:42Z</time>
      </trkpt>
      <trkpt lat="43.13353" lon="1.02697">
        <ele>388.39999389648</ele>
        <time>2023-12-02T08:09:44Z</time>
      </trkpt>
      <trkpt lat="43.13353" lon="1.02718">
        <ele>388.79998779297</ele>
        <time>2023-12-02T08:09:57Z</time>
      </trkpt>
      <trkpt lat="43.13355" lon="1.02741">
        <ele>388.79998779297</ele>
        <time>2023-12-02T08:10:10Z</time>
      </trkpt>
      <trkpt lat="43.13356" lon="1.02767">
        <ele>389.60000610352</ele>
        <time>2023-12-02T08:10:27Z</time>
      </trkpt>
      <trkpt lat="43.13356" lon="1.02778">
        <ele>390</ele>
        <time>2023-12-02T08:10:33Z</time>
      </trkpt>
      <trkpt lat="43.13357" lon="1.02784">
        <ele>390.20001220703</ele>
        <time>2023-12-02T08:10:36Z</time>
      </trkpt>
      <trkpt lat="43.13358" lon="1.02792">
        <ele>390.20001220703</ele>
        <time>2023-12-02T08:10:41Z</time>
      </trkpt>
      <trkpt lat="43.13354" lon="1.02825">
        <ele>391.20001220703</ele>
        <time>2023-12-02T08:11:00Z</time>
      </trkpt>
      <trkpt lat="43.13349" lon="1.02853">
        <ele>392.20001220703</ele>
        <time>2023-12-02T08:11:19Z</time>
      </trkpt>
      <trkpt lat="43.13344" lon="1.02873">
        <ele>392.39999389648</ele>
        <time>2023-12-02T08:11:32Z</time>
      </trkpt>
      <trkpt lat="43.13338" lon="1.02896">
        <ele>392.60000610352</ele>
        <time>2023-12-02T08:11:46Z</time>
      </trkpt>
      <trkpt lat="43.13337" lon="1.02901">
        <ele>392.60000610352</ele>
        <time>2023-12-02T08:11:49Z</time>
      </trkpt>
      <trkpt lat="43.13334" lon="1.02935">
        <ele>392.39999389648</ele>
        <time>2023-12-02T08:12:09Z</time>
      </trkpt>
      <trkpt lat="43.13333" lon="1.02942">
        <ele>392.60000610352</ele>
        <time>2023-12-02T08:12:13Z</time>
      </trkpt>
      <trkpt lat="43.13328" lon="1.02956">
        <ele>392.60000610352</ele>
        <time>2023-12-02T08:12:22Z</time>
      </trkpt>
      <trkpt lat="43.13325" lon="1.0299">
        <ele>392.60000610352</ele>
        <time>2023-12-02T08:12:42Z</time>
      </trkpt>
      <trkpt lat="43.1332" lon="1.03015">
        <ele>392.60000610352</ele>
        <time>2023-12-02T08:12:57Z</time>
      </trkpt>
      <trkpt lat="43.13319" lon="1.03043">
        <ele>392.79998779297</ele>
        <time>2023-12-02T08:13:14Z</time>
      </trkpt>
      <trkpt lat="43.13314" lon="1.03058">
        <ele>393</ele>
        <time>2023-12-02T08:13:23Z</time>
      </trkpt>
      <trkpt lat="43.13311" lon="1.03068">
        <ele>393.20001220703</ele>
        <time>2023-12-02T08:13:29Z</time>
      </trkpt>
      <trkpt lat="43.13307" lon="1.03095">
        <ele>393.79998779297</ele>
        <time>2023-12-02T08:13:47Z</time>
      </trkpt>
      <trkpt lat="43.13302" lon="1.0312">
        <ele>393.79998779297</ele>
        <time>2023-12-02T08:14:03Z</time>
      </trkpt>
      <trkpt lat="43.13295" lon="1.03151">
        <ele>394.79998779297</ele>
        <time>2023-12-02T08:14:23Z</time>
      </trkpt>
      <trkpt lat="43.13293" lon="1.03156">
        <ele>395</ele>
        <time>2023-12-02T08:14:27Z</time>
      </trkpt>
      <trkpt lat="43.133" lon="1.03168">
        <ele>396.20001220703</ele>
        <time>2023-12-02T08:14:39Z</time>
      </trkpt>
      <trkpt lat="43.13303" lon="1.03172">
        <ele>396.79998779297</ele>
        <time>2023-12-02T08:14:56Z</time>
      </trkpt>
      <trkpt lat="43.13297" lon="1.03172">
        <ele>396.79998779297</ele>
        <time>2023-12-02T08:15:12Z</time>
      </trkpt>
      <trkpt lat="43.13297" lon="1.03172">
        <ele>396.39999389648</ele>
        <time>2023-12-02T08:15:33Z</time>
      </trkpt>
      <trkpt lat="43.13305" lon="1.03174">
        <ele>396.39999389648</ele>
        <time>2023-12-02T08:15:51Z</time>
      </trkpt>
      <trkpt lat="43.13302" lon="1.03172">
        <ele>396.60000610352</ele>
        <time>2023-12-02T08:16:18Z</time>
      </trkpt>
      <trkpt lat="43.13302" lon="1.03172">
        <ele>396.39999389648</ele>
        <time>2023-12-02T08:16:40Z</time>
      </trkpt>
      <trkpt lat="43.133" lon="1.03175">
        <ele>396.39999389648</ele>
        <time>2023-12-02T08:16:47Z</time>
      </trkpt>
      <trkpt lat="43.13305" lon="1.03179">
        <ele>396.39999389648</ele>
        <time>2023-12-02T08:16:51Z</time>
      </trkpt>
      <trkpt lat="43.13323" lon="1.03198">
        <ele>396.60000610352</ele>
        <time>2023-12-02T08:17:07Z</time>
      </trkpt>
      <trkpt lat="43.13337" lon="1.03214">
        <ele>397.20001220703</ele>
        <time>2023-12-02T08:17:24Z</time>
      </trkpt>
      <trkpt lat="43.1335" lon="1.03231">
        <ele>398.39999389648</ele>
        <time>2023-12-02T08:17:42Z</time>
      </trkpt>
      <trkpt lat="43.13365" lon="1.03249">
        <ele>400</ele>
        <time>2023-12-02T08:18:00Z</time>
      </trkpt>
      <trkpt lat="43.13379" lon="1.03262">
        <ele>401.39999389648</ele>
        <time>2023-12-02T08:18:17Z</time>
      </trkpt>
      <trkpt lat="43.13399" lon="1.03277">
        <ele>403.39999389648</ele>
        <time>2023-12-02T08:18:37Z</time>
      </trkpt>
      <trkpt lat="43.13425" lon="1.03283">
        <ele>405.20001220703</ele>
        <time>2023-12-02T08:19:02Z</time>
      </trkpt>
      <trkpt lat="43.13448" lon="1.03279">
        <ele>403</ele>
        <time>2023-12-02T08:19:21Z</time>
      </trkpt>
      <trkpt lat="43.13468" lon="1.03283">
        <ele>402.79998779297</ele>
        <time>2023-12-02T08:19:39Z</time>
      </trkpt>
      <trkpt lat="43.13484" lon="1.03293">
        <ele>403</ele>
        <time>2023-12-02T08:19:54Z</time>
      </trkpt>
      <trkpt lat="43.13489" lon="1.03297">
        <ele>403.20001220703</ele>
        <time>2023-12-02T08:19:59Z</time>
      </trkpt>
      <trkpt lat="43.13504" lon="1.03316">
        <ele>403.79998779297</ele>
        <time>2023-12-02T08:20:18Z</time>
      </trkpt>
      <trkpt lat="43.1352" lon="1.03337">
        <ele>403.20001220703</ele>
        <time>2023-12-02T08:20:38Z</time>
      </trkpt>
      <trkpt lat="43.13532" lon="1.0335">
        <ele>403</ele>
        <time>2023-12-02T08:20:52Z</time>
      </trkpt>
      <trkpt lat="43.13538" lon="1.03354">
        <ele>402.79998779297</ele>
        <time>2023-12-02T08:20:57Z</time>
      </trkpt>
      <trkpt lat="43.13555" lon="1.03369">
        <ele>401.39999389648</ele>
        <time>2023-12-02T08:21:15Z</time>
      </trkpt>
      <trkpt lat="43.13569" lon="1.03383">
        <ele>398.20001220703</ele>
        <time>2023-12-02T08:21:31Z</time>
      </trkpt>
      <trkpt lat="43.13571" lon="1.03385">
        <ele>398</ele>
        <time>2023-12-02T08:21:33Z</time>
      </trkpt>
      <trkpt lat="43.13583" lon="1.03399">
        <ele>395.39999389648</ele>
        <time>2023-12-02T08:21:49Z</time>
      </trkpt>
      <trkpt lat="43.13598" lon="1.03423">
        <ele>393</ele>
        <time>2023-12-02T08:22:11Z</time>
      </trkpt>
      <trkpt lat="43.13606" lon="1.03445">
        <ele>392</ele>
        <time>2023-12-02T08:22:26Z</time>
      </trkpt>
      <trkpt lat="43.13615" lon="1.03473">
        <ele>391.20001220703</ele>
        <time>2023-12-02T08:22:44Z</time>
      </trkpt>
      <trkpt lat="43.1362" lon="1.03491">
        <ele>390.60000610352</ele>
        <time>2023-12-02T08:22:56Z</time>
      </trkpt>
      <trkpt lat="43.13621" lon="1.03494">
        <ele>390.60000610352</ele>
        <time>2023-12-02T08:22:59Z</time>
      </trkpt>
      <trkpt lat="43.13627" lon="1.03519">
        <ele>390</ele>
        <time>2023-12-02T08:23:15Z</time>
      </trkpt>
      <trkpt lat="43.1363" lon="1.03532">
        <ele>389.79998779297</ele>
        <time>2023-12-02T08:23:24Z</time>
      </trkpt>
      <trkpt lat="43.13632" lon="1.03561">
        <ele>389.79998779297</ele>
        <time>2023-12-02T08:23:42Z</time>
      </trkpt>
      <trkpt lat="43.13629" lon="1.03583">
        <ele>389.60000610352</ele>
        <time>2023-12-02T08:23:57Z</time>
      </trkpt>
      <trkpt lat="43.13626" lon="1.03601">
        <ele>387.79998779297</ele>
        <time>2023-12-02T08:24:14Z</time>
      </trkpt>
      <trkpt lat="43.13625" lon="1.03622">
        <ele>386.39999389648</ele>
        <time>2023-12-02T08:24:40Z</time>
      </trkpt>
      <trkpt lat="43.13621" lon="1.0364">
        <ele>384.79998779297</ele>
        <time>2023-12-02T08:25:06Z</time>
      </trkpt>
      <trkpt lat="43.13622" lon="1.03648">
        <ele>384</ele>
        <time>2023-12-02T08:25:36Z</time>
      </trkpt>
      <trkpt lat="43.13619" lon="1.03656">
        <ele>383.39999389648</ele>
        <time>2023-12-02T08:26:09Z</time>
      </trkpt>
      <trkpt lat="43.13619" lon="1.03661">
        <ele>383.20001220703</ele>
        <time>2023-12-02T08:26:29Z</time>
      </trkpt>
      <trkpt lat="43.13618" lon="1.03662">
        <ele>383.20001220703</ele>
        <time>2023-12-02T08:26:55Z</time>
      </trkpt>
      <trkpt lat="43.13615" lon="1.03671">
        <ele>382.79998779297</ele>
        <time>2023-12-02T08:27:23Z</time>
      </trkpt>
      <trkpt lat="43.13615" lon="1.03672">
        <ele>382.60000610352</ele>
        <time>2023-12-02T08:27:52Z</time>
      </trkpt>
      <trkpt lat="43.13619" lon="1.03679">
        <ele>382.79998779297</ele>
        <time>2023-12-02T08:28:15Z</time>
      </trkpt>
      <trkpt lat="43.13619" lon="1.03681">
        <ele>382.79998779297</ele>
        <time>2023-12-02T08:28:45Z</time>
      </trkpt>
      <trkpt lat="43.13619" lon="1.03684">
        <ele>382.60000610352</ele>
        <time>2023-12-02T08:29:18Z</time>
      </trkpt>
      <trkpt lat="43.13619" lon="1.03692">
        <ele>382.39999389648</ele>
        <time>2023-12-02T08:29:43Z</time>
      </trkpt>
      <trkpt lat="43.13621" lon="1.03696">
        <ele>382.20001220703</ele>
        <time>2023-12-02T08:30:18Z</time>
      </trkpt>
      <trkpt lat="43.13616" lon="1.03697">
        <ele>382</ele>
        <time>2023-12-02T08:31:01Z</time>
      </trkpt>
      <trkpt lat="43.13618" lon="1.03706">
        <ele>382</ele>
        <time>2023-12-02T08:31:20Z</time>
      </trkpt>
      <trkpt lat="43.1362" lon="1.03719">
        <ele>382</ele>
        <time>2023-12-02T08:31:40Z</time>
      </trkpt>
      <trkpt lat="43.1362" lon="1.03718">
        <ele>381.60000610352</ele>
        <time>2023-12-02T08:32:37Z</time>
      </trkpt>
      <trkpt lat="43.13619" lon="1.0372">
        <ele>381.39999389648</ele>
        <time>2023-12-02T08:33:10Z</time>
      </trkpt>
      <trkpt lat="43.13618" lon="1.03726">
        <ele>381.39999389648</ele>
        <time>2023-12-02T08:33:26Z</time>
      </trkpt>
      <trkpt lat="43.13623" lon="1.03736">
        <ele>381.39999389648</ele>
        <time>2023-12-02T08:33:54Z</time>
      </trkpt>
      <trkpt lat="43.13619" lon="1.03759">
        <ele>381.60000610352</ele>
        <time>2023-12-02T08:34:17Z</time>
      </trkpt>
      <trkpt lat="43.13619" lon="1.03762">
        <ele>382.20001220703</ele>
        <time>2023-12-02T08:34:41Z</time>
      </trkpt>
      <trkpt lat="43.13618" lon="1.03779">
        <ele>382.60000610352</ele>
        <time>2023-12-02T08:35:03Z</time>
      </trkpt>
      <trkpt lat="43.13617" lon="1.03783">
        <ele>382.79998779297</ele>
        <time>2023-12-02T08:35:06Z</time>
      </trkpt>
      <trkpt lat="43.13612" lon="1.03819">
        <ele>383.79998779297</ele>
        <time>2023-12-02T08:35:30Z</time>
      </trkpt>
      <trkpt lat="43.136" lon="1.03834">
        <ele>385.20001220703</ele>
        <time>2023-12-02T08:35:48Z</time>
      </trkpt>
      <trkpt lat="43.13588" lon="1.03853">
        <ele>386.60000610352</ele>
        <time>2023-12-02T08:36:09Z</time>
      </trkpt>
      <trkpt lat="43.13576" lon="1.03886">
        <ele>387.60000610352</ele>
        <time>2023-12-02T08:36:33Z</time>
      </trkpt>
      <trkpt lat="43.13575" lon="1.03908">
        <ele>388.20001220703</ele>
        <time>2023-12-02T08:36:47Z</time>
      </trkpt>
      <trkpt lat="43.13575" lon="1.03928">
        <ele>389</ele>
        <time>2023-12-02T08:37:00Z</time>
      </trkpt>
      <trkpt lat="43.13576" lon="1.03952">
        <ele>390.20001220703</ele>
        <time>2023-12-02T08:37:16Z</time>
      </trkpt>
      <trkpt lat="43.13578" lon="1.03974">
        <ele>391</ele>
        <time>2023-12-02T08:37:34Z</time>
      </trkpt>
      <trkpt lat="43.13575" lon="1.04">
        <ele>392</ele>
        <time>2023-12-02T08:37:51Z</time>
      </trkpt>
      <trkpt lat="43.13577" lon="1.04022">
        <ele>393.20001220703</ele>
        <time>2023-12-02T08:38:10Z</time>
      </trkpt>
      <trkpt lat="43.13578" lon="1.04051">
        <ele>395</ele>
        <time>2023-12-02T08:38:35Z</time>
      </trkpt>
      <trkpt lat="43.13582" lon="1.04077">
        <ele>396.20001220703</ele>
        <time>2023-12-02T08:38:59Z</time>
      </trkpt>
      <trkpt lat="43.13583" lon="1.04112">
        <ele>397.79998779297</ele>
        <time>2023-12-02T08:39:26Z</time>
      </trkpt>
      <trkpt lat="43.13584" lon="1.04143">
        <ele>400</ele>
        <time>2023-12-02T08:39:53Z</time>
      </trkpt>
      <trkpt lat="43.13584" lon="1.04165">
        <ele>401.20001220703</ele>
        <time>2023-12-02T08:40:14Z</time>
      </trkpt>
      <trkpt lat="43.13586" lon="1.04199">
        <ele>403</ele>
        <time>2023-12-02T08:40:40Z</time>
      </trkpt>
      <trkpt lat="43.13586" lon="1.04223">
        <ele>404.79998779297</ele>
        <time>2023-12-02T08:40:59Z</time>
      </trkpt>
      <trkpt lat="43.13589" lon="1.04251">
        <ele>406.20001220703</ele>
        <time>2023-12-02T08:41:19Z</time>
      </trkpt>
      <trkpt lat="43.13586" lon="1.04269">
        <ele>407.39999389648</ele>
        <time>2023-12-02T08:41:34Z</time>
      </trkpt>
      <trkpt lat="43.13589" lon="1.04288">
        <ele>408.60000610352</ele>
        <time>2023-12-02T08:41:50Z</time>
      </trkpt>
      <trkpt lat="43.13585" lon="1.0431">
        <ele>409.79998779297</ele>
        <time>2023-12-02T08:42:09Z</time>
      </trkpt>
      <trkpt lat="43.13582" lon="1.04338">
        <ele>411.20001220703</ele>
        <time>2023-12-02T08:42:31Z</time>
      </trkpt>
      <trkpt lat="43.13583" lon="1.04352">
        <ele>412</ele>
        <time>2023-12-02T08:42:43Z</time>
      </trkpt>
      <trkpt lat="43.13583" lon="1.04382">
        <ele>414.39999389648</ele>
        <time>2023-12-02T08:43:05Z</time>
      </trkpt>
      <trkpt lat="43.13582" lon="1.04395">
        <ele>415</ele>
        <time>2023-12-02T08:43:14Z</time>
      </trkpt>
      <trkpt lat="43.13583" lon="1.04415">
        <ele>416.39999389648</ele>
        <time>2023-12-02T08:43:28Z</time>
      </trkpt>
      <trkpt lat="43.13582" lon="1.04416">
        <ele>416.60000610352</ele>
        <time>2023-12-02T08:43:29Z</time>
      </trkpt>
      <trkpt lat="43.13577" lon="1.04446">
        <ele>417.79998779297</ele>
        <time>2023-12-02T08:43:53Z</time>
      </trkpt>
      <trkpt lat="43.13572" lon="1.04454">
        <ele>417.60000610352</ele>
        <time>2023-12-02T08:43:59Z</time>
      </trkpt>
      <trkpt lat="43.13556" lon="1.04488">
        <ele>416</ele>
        <time>2023-12-02T08:44:26Z</time>
      </trkpt>
      <trkpt lat="43.13544" lon="1.04513">
        <ele>413.39999389648</ele>
        <time>2023-12-02T08:44:49Z</time>
      </trkpt>
      <trkpt lat="43.13529" lon="1.0453">
        <ele>412</ele>
        <time>2023-12-02T08:45:03Z</time>
      </trkpt>
      <trkpt lat="43.13519" lon="1.04542">
        <ele>411.60000610352</ele>
        <time>2023-12-02T08:45:13Z</time>
      </trkpt>
      <trkpt lat="43.13504" lon="1.04568">
        <ele>411.79998779297</ele>
        <time>2023-12-02T08:45:33Z</time>
      </trkpt>
      <trkpt lat="43.13491" lon="1.04591">
        <ele>412.60000610352</ele>
        <time>2023-12-02T08:45:52Z</time>
      </trkpt>
      <trkpt lat="43.13484" lon="1.04608">
        <ele>412.79998779297</ele>
        <time>2023-12-02T08:46:05Z</time>
      </trkpt>
      <trkpt lat="43.13478" lon="1.04635">
        <ele>414.60000610352</ele>
        <time>2023-12-02T08:46:23Z</time>
      </trkpt>
      <trkpt lat="43.13476" lon="1.04662">
        <ele>416.20001220703</ele>
        <time>2023-12-02T08:46:42Z</time>
      </trkpt>
      <trkpt lat="43.13471" lon="1.04691">
        <ele>418.20001220703</ele>
        <time>2023-12-02T08:47:03Z</time>
      </trkpt>
      <trkpt lat="43.13467" lon="1.04721">
        <ele>419.60000610352</ele>
        <time>2023-12-02T08:47:24Z</time>
      </trkpt>
      <trkpt lat="43.13464" lon="1.04744">
        <ele>420.39999389648</ele>
        <time>2023-12-02T08:47:39Z</time>
      </trkpt>
      <trkpt lat="43.13463" lon="1.04764">
        <ele>420.79998779297</ele>
        <time>2023-12-02T08:47:54Z</time>
      </trkpt>
      <trkpt lat="43.1346" lon="1.04784">
        <ele>421.79998779297</ele>
        <time>2023-12-02T08:48:08Z</time>
      </trkpt>
      <trkpt lat="43.13456" lon="1.04806">
        <ele>422.60000610352</ele>
        <time>2023-12-02T08:48:23Z</time>
      </trkpt>
      <trkpt lat="43.1345" lon="1.04832">
        <ele>423.39999389648</ele>
        <time>2023-12-02T08:48:39Z</time>
      </trkpt>
      <trkpt lat="43.13449" lon="1.04843">
        <ele>423.20001220703</ele>
        <time>2023-12-02T08:48:46Z</time>
      </trkpt>
      <trkpt lat="43.1345" lon="1.04848">
        <ele>423.20001220703</ele>
        <time>2023-12-02T08:48:49Z</time>
      </trkpt>
      <trkpt lat="43.13446" lon="1.04875">
        <ele>423.20001220703</ele>
        <time>2023-12-02T08:49:07Z</time>
      </trkpt>
      <trkpt lat="43.13444" lon="1.04883">
        <ele>423.20001220703</ele>
        <time>2023-12-02T08:49:12Z</time>
      </trkpt>
      <trkpt lat="43.13445" lon="1.04894">
        <ele>423.20001220703</ele>
        <time>2023-12-02T08:49:19Z</time>
      </trkpt>
      <trkpt lat="43.13438" lon="1.04938">
        <ele>423.20001220703</ele>
        <time>2023-12-02T08:49:47Z</time>
      </trkpt>
      <trkpt lat="43.13427" lon="1.04973">
        <ele>423</ele>
        <time>2023-12-02T08:50:07Z</time>
      </trkpt>
      <trkpt lat="43.1342" lon="1.05001">
        <ele>423.20001220703</ele>
        <time>2023-12-02T08:50:25Z</time>
      </trkpt>
      <trkpt lat="43.13418" lon="1.05031">
        <ele>422.39999389648</ele>
        <time>2023-12-02T08:50:42Z</time>
      </trkpt>
      <trkpt lat="43.13414" lon="1.05065">
        <ele>420.60000610352</ele>
        <time>2023-12-02T08:51:02Z</time>
      </trkpt>
      <trkpt lat="43.13411" lon="1.05086">
        <ele>419</ele>
        <time>2023-12-02T08:51:17Z</time>
      </trkpt>
      <trkpt lat="43.13405" lon="1.05108">
        <ele>418.39999389648</ele>
        <time>2023-12-02T08:51:31Z</time>
      </trkpt>
      <trkpt lat="43.13399" lon="1.05137">
        <ele>416.79998779297</ele>
        <time>2023-12-02T08:51:48Z</time>
      </trkpt>
      <trkpt lat="43.13389" lon="1.05165">
        <ele>415</ele>
        <time>2023-12-02T08:52:05Z</time>
      </trkpt>
      <trkpt lat="43.13377" lon="1.05194">
        <ele>414</ele>
        <time>2023-12-02T08:52:25Z</time>
      </trkpt>
      <trkpt lat="43.13368" lon="1.05225">
        <ele>412.39999389648</ele>
        <time>2023-12-02T08:52:45Z</time>
      </trkpt>
      <trkpt lat="43.13356" lon="1.05261">
        <ele>411.79998779297</ele>
        <time>2023-12-02T08:53:08Z</time>
      </trkpt>
      <trkpt lat="43.13347" lon="1.05293">
        <ele>410</ele>
        <time>2023-12-02T08:53:28Z</time>
      </trkpt>
      <trkpt lat="43.13341" lon="1.05317">
        <ele>408.79998779297</ele>
        <time>2023-12-02T08:53:43Z</time>
      </trkpt>
      <trkpt lat="43.13334" lon="1.05341">
        <ele>407.79998779297</ele>
        <time>2023-12-02T08:53:59Z</time>
      </trkpt>
      <trkpt lat="43.13327" lon="1.05362">
        <ele>407.39999389648</ele>
        <time>2023-12-02T08:54:13Z</time>
      </trkpt>
      <trkpt lat="43.1332" lon="1.05383">
        <ele>406.39999389648</ele>
        <time>2023-12-02T08:54:28Z</time>
      </trkpt>
      <trkpt lat="43.1331" lon="1.05412">
        <ele>405</ele>
        <time>2023-12-02T08:54:46Z</time>
      </trkpt>
      <trkpt lat="43.13298" lon="1.05442">
        <ele>403</ele>
        <time>2023-12-02T08:55:06Z</time>
      </trkpt>
      <trkpt lat="43.13283" lon="1.05474">
        <ele>402.20001220703</ele>
        <time>2023-12-02T08:55:28Z</time>
      </trkpt>
      <trkpt lat="43.13269" lon="1.05501">
        <ele>402</ele>
        <time>2023-12-02T08:55:46Z</time>
      </trkpt>
      <trkpt lat="43.13263" lon="1.05512">
        <ele>401.39999389648</ele>
        <time>2023-12-02T08:56:04Z</time>
      </trkpt>
      <trkpt lat="43.13263" lon="1.05514">
        <ele>401.20001220703</ele>
        <time>2023-12-02T08:56:30Z</time>
      </trkpt>
      <trkpt lat="43.13261" lon="1.05517">
        <ele>401.20001220703</ele>
        <time>2023-12-02T08:56:32Z</time>
      </trkpt>
      <trkpt lat="43.13257" lon="1.05524">
        <ele>401.20001220703</ele>
        <time>2023-12-02T08:56:37Z</time>
      </trkpt>
      <trkpt lat="43.13239" lon="1.05554">
        <ele>400.79998779297</ele>
        <time>2023-12-02T08:56:58Z</time>
      </trkpt>
      <trkpt lat="43.13223" lon="1.05577">
        <ele>400.39999389648</ele>
        <time>2023-12-02T08:57:15Z</time>
      </trkpt>
      <trkpt lat="43.13204" lon="1.05603">
        <ele>399.60000610352</ele>
        <time>2023-12-02T08:57:35Z</time>
      </trkpt>
      <trkpt lat="43.13186" lon="1.05626">
        <ele>397.79998779297</ele>
        <time>2023-12-02T08:57:53Z</time>
      </trkpt>
      <trkpt lat="43.13177" lon="1.05636">
        <ele>396.20001220703</ele>
        <time>2023-12-02T08:58:04Z</time>
      </trkpt>
      <trkpt lat="43.13175" lon="1.05638">
        <ele>396</ele>
        <time>2023-12-02T08:58:06Z</time>
      </trkpt>
      <trkpt lat="43.13168" lon="1.05637">
        <ele>394.39999389648</ele>
        <time>2023-12-02T08:58:27Z</time>
      </trkpt>
      <trkpt lat="43.13167" lon="1.0565">
        <ele>393.79998779297</ele>
        <time>2023-12-02T08:58:58Z</time>
      </trkpt>
      <trkpt lat="43.13164" lon="1.05655">
        <ele>393.60000610352</ele>
        <time>2023-12-02T08:59:00Z</time>
      </trkpt>
      <trkpt lat="43.13142" lon="1.05697">
        <ele>390.60000610352</ele>
        <time>2023-12-02T08:59:21Z</time>
      </trkpt>
      <trkpt lat="43.1312" lon="1.05736">
        <ele>387.79998779297</ele>
        <time>2023-12-02T08:59:42Z</time>
      </trkpt>
      <trkpt lat="43.13104" lon="1.05762">
        <ele>385.79998779297</ele>
        <time>2023-12-02T08:59:59Z</time>
      </trkpt>
      <trkpt lat="43.13089" lon="1.05787">
        <ele>382.79998779297</ele>
        <time>2023-12-02T09:00:13Z</time>
      </trkpt>
      <trkpt lat="43.13072" lon="1.05824">
        <ele>379.60000610352</ele>
        <time>2023-12-02T09:00:29Z</time>
      </trkpt>
      <trkpt lat="43.13065" lon="1.05853">
        <ele>376.39999389648</ele>
        <time>2023-12-02T09:00:41Z</time>
      </trkpt>
      <trkpt lat="43.13053" lon="1.05879">
        <ele>374.39999389648</ele>
        <time>2023-12-02T09:00:57Z</time>
      </trkpt>
      <trkpt lat="43.13052" lon="1.05881">
        <ele>374.20001220703</ele>
        <time>2023-12-02T09:00:59Z</time>
      </trkpt>
      <trkpt lat="43.13042" lon="1.05906">
        <ele>374</ele>
        <time>2023-12-02T09:01:15Z</time>
      </trkpt>
      <trkpt lat="43.13033" lon="1.05931">
        <ele>374.20001220703</ele>
        <time>2023-12-02T09:01:32Z</time>
      </trkpt>
      <trkpt lat="43.13024" lon="1.05959">
        <ele>375</ele>
        <time>2023-12-02T09:01:49Z</time>
      </trkpt>
      <trkpt lat="43.13015" lon="1.05984">
        <ele>376.60000610352</ele>
        <time>2023-12-02T09:02:05Z</time>
      </trkpt>
      <trkpt lat="43.1301" lon="1.06009">
        <ele>378.60000610352</ele>
        <time>2023-12-02T09:02:22Z</time>
      </trkpt>
      <trkpt lat="43.13002" lon="1.06028">
        <ele>379.79998779297</ele>
        <time>2023-12-02T09:02:35Z</time>
      </trkpt>
      <trkpt lat="43.12992" lon="1.0605">
        <ele>381.20001220703</ele>
        <time>2023-12-02T09:02:52Z</time>
      </trkpt>
      <trkpt lat="43.12984" lon="1.06065">
        <ele>382.39999389648</ele>
        <time>2023-12-02T09:03:08Z</time>
      </trkpt>
      <trkpt lat="43.1298" lon="1.06068">
        <ele>382.39999389648</ele>
        <time>2023-12-02T09:03:15Z</time>
      </trkpt>
      <trkpt lat="43.12976" lon="1.06068">
        <ele>382.60000610352</ele>
        <time>2023-12-02T09:03:18Z</time>
      </trkpt>
      <trkpt lat="43.12974" lon="1.06068">
        <ele>382.60000610352</ele>
        <time>2023-12-02T09:03:19Z</time>
      </trkpt>
      <trkpt lat="43.12973" lon="1.06068">
        <ele>382.60000610352</ele>
        <time>2023-12-02T09:03:20Z</time>
      </trkpt>
      <trkpt lat="43.12972" lon="1.06069">
        <ele>382.60000610352</ele>
        <time>2023-12-02T09:03:21Z</time>
      </trkpt>
      <trkpt lat="43.1297" lon="1.06068">
        <ele>382.60000610352</ele>
        <time>2023-12-02T09:03:22Z</time>
      </trkpt>
      <trkpt lat="43.12968" lon="1.06068">
        <ele>382.60000610352</ele>
        <time>2023-12-02T09:03:23Z</time>
      </trkpt>
      <trkpt lat="43.12967" lon="1.06068">
        <ele>382.60000610352</ele>
        <time>2023-12-02T09:03:24Z</time>
      </trkpt>
      <trkpt lat="43.12953" lon="1.0606">
        <ele>384.20001220703</ele>
        <time>2023-12-02T09:03:39Z</time>
      </trkpt>
      <trkpt lat="43.12958" lon="1.06062">
        <ele>385.20001220703</ele>
        <time>2023-12-02T09:03:56Z</time>
      </trkpt>
      <trkpt lat="43.12961" lon="1.06063">
        <ele>385</ele>
        <time>2023-12-02T09:03:59Z</time>
      </trkpt>
      <trkpt lat="43.12977" lon="1.06071">
        <ele>383.39999389648</ele>
        <time>2023-12-02T09:04:18Z</time>
      </trkpt>
      <trkpt lat="43.12977" lon="1.06075">
        <ele>383</ele>
        <time>2023-12-02T09:04:21Z</time>
      </trkpt>
      <trkpt lat="43.12977" lon="1.06078">
        <ele>382.79998779297</ele>
        <time>2023-12-02T09:04:23Z</time>
      </trkpt>
      <trkpt lat="43.12977" lon="1.0608">
        <ele>382.60000610352</ele>
        <time>2023-12-02T09:04:24Z</time>
      </trkpt>
      <trkpt lat="43.12976" lon="1.06082">
        <ele>382.60000610352</ele>
        <time>2023-12-02T09:04:26Z</time>
      </trkpt>
      <trkpt lat="43.12976" lon="1.06085">
        <ele>382.60000610352</ele>
        <time>2023-12-02T09:04:28Z</time>
      </trkpt>
      <trkpt lat="43.12968" lon="1.06109">
        <ele>383.20001220703</ele>
        <time>2023-12-02T09:04:47Z</time>
      </trkpt>
      <trkpt lat="43.12965" lon="1.0612">
        <ele>383.60000610352</ele>
        <time>2023-12-02T09:04:55Z</time>
      </trkpt>
      <trkpt lat="43.12964" lon="1.06122">
        <ele>383.60000610352</ele>
        <time>2023-12-02T09:04:57Z</time>
      </trkpt>
      <trkpt lat="43.12958" lon="1.0614">
        <ele>384.39999389648</ele>
        <time>2023-12-02T09:05:11Z</time>
      </trkpt>
      <trkpt lat="43.12952" lon="1.06159">
        <ele>385</ele>
        <time>2023-12-02T09:05:25Z</time>
      </trkpt>
      <trkpt lat="43.12948" lon="1.06174">
        <ele>385.39999389648</ele>
        <time>2023-12-02T09:05:37Z</time>
      </trkpt>
      <trkpt lat="43.12947" lon="1.06176">
        <ele>385.39999389648</ele>
        <time>2023-12-02T09:05:38Z</time>
      </trkpt>
      <trkpt lat="43.12946" lon="1.06178">
        <ele>385.39999389648</ele>
        <time>2023-12-02T09:05:39Z</time>
      </trkpt>
      <trkpt lat="43.12936" lon="1.06207">
        <ele>386.20001220703</ele>
        <time>2023-12-02T09:05:59Z</time>
      </trkpt>
      <trkpt lat="43.12928" lon="1.06229">
        <ele>387.60000610352</ele>
        <time>2023-12-02T09:06:16Z</time>
      </trkpt>
      <trkpt lat="43.12919" lon="1.0625">
        <ele>388.79998779297</ele>
        <time>2023-12-02T09:06:33Z</time>
      </trkpt>
      <trkpt lat="43.12918" lon="1.06252">
        <ele>389</ele>
        <time>2023-12-02T09:06:34Z</time>
      </trkpt>
      <trkpt lat="43.12906" lon="1.06271">
        <ele>390.20001220703</ele>
        <time>2023-12-02T09:06:51Z</time>
      </trkpt>
      <trkpt lat="43.12894" lon="1.06272">
        <ele>390.60000610352</ele>
        <time>2023-12-02T09:07:09Z</time>
      </trkpt>
      <trkpt lat="43.12889" lon="1.06271">
        <ele>391</ele>
        <time>2023-12-02T09:07:23Z</time>
      </trkpt>
      <trkpt lat="43.1289" lon="1.06274">
        <ele>391</ele>
        <time>2023-12-02T09:07:40Z</time>
      </trkpt>
      <trkpt lat="43.1289" lon="1.06276">
        <ele>391</ele>
        <time>2023-12-02T09:08:15Z</time>
      </trkpt>
      <trkpt lat="43.12888" lon="1.06275">
        <ele>390.79998779297</ele>
        <time>2023-12-02T09:08:48Z</time>
      </trkpt>
      <trkpt lat="43.12928" lon="1.06375">
        <ele>395.15234375</ele>
        <time>2023-12-02T09:13:05.281Z</time>
      </trkpt>
      <trkpt lat="43.12945" lon="1.06477">
        <ele>399.328125</ele>
        <time>2023-12-02T09:17:01.332Z</time>
      </trkpt>
      <trkpt lat="43.13001" lon="1.0657">
        <ele>411.01171875</ele>
        <time>2023-12-02T09:21:33.352Z</time>
      </trkpt>
      <trkpt lat="43.13035" lon="1.06607">
        <ele>417.4375</ele>
        <time>2023-12-02T09:23:47.576Z</time>
      </trkpt>
      <trkpt lat="43.13065" lon="1.06673">
        <ele>413.20001220703</ele>
        <time>2023-12-02T09:26:43Z</time>
      </trkpt>
      <trkpt lat="43.13066" lon="1.06674">
        <ele>413.20001220703</ele>
        <time>2023-12-02T09:26:45Z</time>
      </trkpt>
      <trkpt lat="43.13067" lon="1.06676">
        <ele>413.20001220703</ele>
        <time>2023-12-02T09:26:46Z</time>
      </trkpt>
      <trkpt lat="43.13068" lon="1.06679">
        <ele>413.39999389648</ele>
        <time>2023-12-02T09:26:48Z</time>
      </trkpt>
      <trkpt lat="43.13068" lon="1.0668">
        <ele>413.60000610352</ele>
        <time>2023-12-02T09:26:49Z</time>
      </trkpt>
      <trkpt lat="43.13073" lon="1.06694">
        <ele>414.60000610352</ele>
        <time>2023-12-02T09:27:00Z</time>
      </trkpt>
      <trkpt lat="43.13074" lon="1.06703">
        <ele>415.60000610352</ele>
        <time>2023-12-02T09:27:07Z</time>
      </trkpt>
      <trkpt lat="43.13075" lon="1.06713">
        <ele>415.79998779297</ele>
        <time>2023-12-02T09:27:13Z</time>
      </trkpt>
      <trkpt lat="43.13075" lon="1.06715">
        <ele>415.79998779297</ele>
        <time>2023-12-02T09:27:14Z</time>
      </trkpt>
      <trkpt lat="43.13076" lon="1.06717">
        <ele>415.79998779297</ele>
        <time>2023-12-02T09:27:15Z</time>
      </trkpt>
      <trkpt lat="43.13078" lon="1.06744">
        <ele>415.79998779297</ele>
        <time>2023-12-02T09:27:31Z</time>
      </trkpt>
      <trkpt lat="43.13078" lon="1.06772">
        <ele>416.20001220703</ele>
        <time>2023-12-02T09:27:47Z</time>
      </trkpt>
      <trkpt lat="43.13078" lon="1.06781">
        <ele>416.20001220703</ele>
        <time>2023-12-02T09:27:52Z</time>
      </trkpt>
      <trkpt lat="43.13079" lon="1.06782">
        <ele>416.20001220703</ele>
        <time>2023-12-02T09:27:53Z</time>
      </trkpt>
      <trkpt lat="43.13083" lon="1.06804">
        <ele>416.20001220703</ele>
        <time>2023-12-02T09:28:07Z</time>
      </trkpt>
      <trkpt lat="43.13086" lon="1.06826">
        <ele>416</ele>
        <time>2023-12-02T09:28:21Z</time>
      </trkpt>
      <trkpt lat="43.13088" lon="1.06849">
        <ele>415.39999389648</ele>
        <time>2023-12-02T09:28:35Z</time>
      </trkpt>
      <trkpt lat="43.1309" lon="1.06871">
        <ele>415.39999389648</ele>
        <time>2023-12-02T09:28:50Z</time>
      </trkpt>
      <trkpt lat="43.13091" lon="1.0688">
        <ele>415</ele>
        <time>2023-12-02T09:28:55Z</time>
      </trkpt>
      <trkpt lat="43.13091" lon="1.06882">
        <ele>414.79998779297</ele>
        <time>2023-12-02T09:28:56Z</time>
      </trkpt>
      <trkpt lat="43.13092" lon="1.06912">
        <ele>413.39999389648</ele>
        <time>2023-12-02T09:29:15Z</time>
      </trkpt>
      <trkpt lat="43.13102" lon="1.06937">
        <ele>413</ele>
        <time>2023-12-02T09:29:31Z</time>
      </trkpt>
      <trkpt lat="43.13103" lon="1.0694">
        <ele>412.79998779297</ele>
        <time>2023-12-02T09:29:33Z</time>
      </trkpt>
      <trkpt lat="43.13104" lon="1.06941">
        <ele>412.79998779297</ele>
        <time>2023-12-02T09:29:34Z</time>
      </trkpt>
      <trkpt lat="43.13105" lon="1.06942">
        <ele>412.60000610352</ele>
        <time>2023-12-02T09:29:35Z</time>
      </trkpt>
      <trkpt lat="43.13106" lon="1.06944">
        <ele>412.60000610352</ele>
        <time>2023-12-02T09:29:36Z</time>
      </trkpt>
      <trkpt lat="43.13107" lon="1.06945">
        <ele>412.60000610352</ele>
        <time>2023-12-02T09:29:37Z</time>
      </trkpt>
      <trkpt lat="43.13108" lon="1.06946">
        <ele>412.60000610352</ele>
        <time>2023-12-02T09:29:38Z</time>
      </trkpt>
      <trkpt lat="43.13116" lon="1.06962">
        <ele>412.20001220703</ele>
        <time>2023-12-02T09:29:50Z</time>
      </trkpt>
      <trkpt lat="43.13133" lon="1.06987">
        <ele>411.79998779297</ele>
        <time>2023-12-02T09:30:09Z</time>
      </trkpt>
      <trkpt lat="43.13143" lon="1.07005">
        <ele>411.39999389648</ele>
        <time>2023-12-02T09:30:25Z</time>
      </trkpt>
      <trkpt lat="43.13156" lon="1.07027">
        <ele>412.20001220703</ele>
        <time>2023-12-02T09:30:43Z</time>
      </trkpt>
      <trkpt lat="43.13158" lon="1.07031">
        <ele>412.39999389648</ele>
        <time>2023-12-02T09:30:47Z</time>
      </trkpt>
      <trkpt lat="43.13158" lon="1.07032">
        <ele>412.39999389648</ele>
        <time>2023-12-02T09:30:48Z</time>
      </trkpt>
      <trkpt lat="43.13159" lon="1.07033">
        <ele>412.60000610352</ele>
        <time>2023-12-02T09:30:49Z</time>
      </trkpt>
      <trkpt lat="43.1316" lon="1.07034">
        <ele>412.60000610352</ele>
        <time>2023-12-02T09:30:50Z</time>
      </trkpt>
      <trkpt lat="43.13161" lon="1.07035">
        <ele>412.60000610352</ele>
        <time>2023-12-02T09:30:51Z</time>
      </trkpt>
      <trkpt lat="43.13175" lon="1.07056">
        <ele>414</ele>
        <time>2023-12-02T09:31:09Z</time>
      </trkpt>
      <trkpt lat="43.13186" lon="1.07077">
        <ele>415.60000610352</ele>
        <time>2023-12-02T09:31:26Z</time>
      </trkpt>
      <trkpt lat="43.13194" lon="1.07092">
        <ele>416.60000610352</ele>
        <time>2023-12-02T09:31:39Z</time>
      </trkpt>
      <trkpt lat="43.13204" lon="1.07109">
        <ele>418.39999389648</ele>
        <time>2023-12-02T09:31:59Z</time>
      </trkpt>
      <trkpt lat="43.13207" lon="1.07135">
        <ele>421.20001220703</ele>
        <time>2023-12-02T09:32:20Z</time>
      </trkpt>
      <trkpt lat="43.13207" lon="1.07139">
        <ele>421.79998779297</ele>
        <time>2023-12-02T09:32:23Z</time>
      </trkpt>
      <trkpt lat="43.13206" lon="1.0714">
        <ele>421.79998779297</ele>
        <time>2023-12-02T09:32:24Z</time>
      </trkpt>
      <trkpt lat="43.13206" lon="1.07142">
        <ele>422</ele>
        <time>2023-12-02T09:32:25Z</time>
      </trkpt>
      <trkpt lat="43.13207" lon="1.07143">
        <ele>422</ele>
        <time>2023-12-02T09:32:26Z</time>
      </trkpt>
      <trkpt lat="43.13207" lon="1.07145">
        <ele>422.20001220703</ele>
        <time>2023-12-02T09:32:27Z</time>
      </trkpt>
      <trkpt lat="43.1321" lon="1.07155">
        <ele>423</ele>
        <time>2023-12-02T09:32:36Z</time>
      </trkpt>
      <trkpt lat="43.1321" lon="1.07172">
        <ele>424.60000610352</ele>
        <time>2023-12-02T09:32:51Z</time>
      </trkpt>
      <trkpt lat="43.13213" lon="1.07188">
        <ele>426</ele>
        <time>2023-12-02T09:33:06Z</time>
      </trkpt>
      <trkpt lat="43.13211" lon="1.07211">
        <ele>428.60000610352</ele>
        <time>2023-12-02T09:33:26Z</time>
      </trkpt>
      <trkpt lat="43.13208" lon="1.07227">
        <ele>429.60000610352</ele>
        <time>2023-12-02T09:33:37Z</time>
      </trkpt>
      <trkpt lat="43.13199" lon="1.07254">
        <ele>431.20001220703</ele>
        <time>2023-12-02T09:33:57Z</time>
      </trkpt>
      <trkpt lat="43.1319" lon="1.07278">
        <ele>432.60000610352</ele>
        <time>2023-12-02T09:34:15Z</time>
      </trkpt>
      <trkpt lat="43.13183" lon="1.073">
        <ele>433.60000610352</ele>
        <time>2023-12-02T09:34:32Z</time>
      </trkpt>
      <trkpt lat="43.13182" lon="1.07303">
        <ele>433.60000610352</ele>
        <time>2023-12-02T09:34:34Z</time>
      </trkpt>
      <trkpt lat="43.1318" lon="1.0733">
        <ele>435.20001220703</ele>
        <time>2023-12-02T09:34:54Z</time>
      </trkpt>
      <trkpt lat="43.1318" lon="1.07348">
        <ele>438</ele>
        <time>2023-12-02T09:35:16Z</time>
      </trkpt>
      <trkpt lat="43.13183" lon="1.07371">
        <ele>440.60000610352</ele>
        <time>2023-12-02T09:35:39Z</time>
      </trkpt>
      <trkpt lat="43.13184" lon="1.07395">
        <ele>443.60000610352</ele>
        <time>2023-12-02T09:36:03Z</time>
      </trkpt>
      <trkpt lat="43.13187" lon="1.07414">
        <ele>446.60000610352</ele>
        <time>2023-12-02T09:36:26Z</time>
      </trkpt>
      <trkpt lat="43.13193" lon="1.07437">
        <ele>449.60000610352</ele>
        <time>2023-12-02T09:36:50Z</time>
      </trkpt>
      <trkpt lat="43.13198" lon="1.07455">
        <ele>452.79998779297</ele>
        <time>2023-12-02T09:37:12Z</time>
      </trkpt>
      <trkpt lat="43.13207" lon="1.07475">
        <ele>455.79998779297</ele>
        <time>2023-12-02T09:37:38Z</time>
      </trkpt>
      <trkpt lat="43.13212" lon="1.075">
        <ele>458.20001220703</ele>
        <time>2023-12-02T09:38:08Z</time>
      </trkpt>
      <trkpt lat="43.13223" lon="1.07527">
        <ele>461</ele>
        <time>2023-12-02T09:38:36Z</time>
      </trkpt>
      <trkpt lat="43.13231" lon="1.07549">
        <ele>463.20001220703</ele>
        <time>2023-12-02T09:39:01Z</time>
      </trkpt>
      <trkpt lat="43.13235" lon="1.07564">
        <ele>465</ele>
        <time>2023-12-02T09:39:19Z</time>
      </trkpt>
      <trkpt lat="43.13241" lon="1.07592">
        <ele>467.60000610352</ele>
        <time>2023-12-02T09:39:44Z</time>
      </trkpt>
      <trkpt lat="43.13249" lon="1.07617">
        <ele>470.60000610352</ele>
        <time>2023-12-02T09:40:11Z</time>
      </trkpt>
      <trkpt lat="43.13248" lon="1.07636">
        <ele>473.79998779297</ele>
        <time>2023-12-02T09:40:28Z</time>
      </trkpt>
      <trkpt lat="43.13238" lon="1.07653">
        <ele>475.20001220703</ele>
        <time>2023-12-02T09:40:43Z</time>
      </trkpt>
      <trkpt lat="43.13234" lon="1.07666">
        <ele>475</ele>
        <time>2023-12-02T09:40:51Z</time>
      </trkpt>
      <trkpt lat="43.13223" lon="1.07683">
        <ele>475.20001220703</ele>
        <time>2023-12-02T09:41:08Z</time>
      </trkpt>
      <trkpt lat="43.13197" lon="1.07713">
        <ele>476.79998779297</ele>
        <time>2023-12-02T09:41:38Z</time>
      </trkpt>
      <trkpt lat="43.13205" lon="1.07718">
        <ele>479</ele>
        <time>2023-12-02T09:41:56Z</time>
      </trkpt>
      <trkpt lat="43.13212" lon="1.07714">
        <ele>480</ele>
        <time>2023-12-02T09:42:05Z</time>
      </trkpt>
      <trkpt lat="43.13219" lon="1.07712">
        <ele>480.39999389648</ele>
        <time>2023-12-02T09:42:13Z</time>
      </trkpt>
      <trkpt lat="43.13235" lon="1.07711">
        <ele>482.20001220703</ele>
        <time>2023-12-02T09:42:33Z</time>
      </trkpt>
      <trkpt lat="43.13252" lon="1.07712">
        <ele>485.20001220703</ele>
        <time>2023-12-02T09:42:57Z</time>
      </trkpt>
      <trkpt lat="43.13269" lon="1.07718">
        <ele>488.39999389648</ele>
        <time>2023-12-02T09:43:19Z</time>
      </trkpt>
      <trkpt lat="43.13282" lon="1.07715">
        <ele>491.60000610352</ele>
        <time>2023-12-02T09:43:39Z</time>
      </trkpt>
      <trkpt lat="43.13293" lon="1.07701">
        <ele>494.39999389648</ele>
        <time>2023-12-02T09:44:01Z</time>
      </trkpt>
      <trkpt lat="43.13307" lon="1.07683">
        <ele>497.60000610352</ele>
        <time>2023-12-02T09:44:27Z</time>
      </trkpt>
      <trkpt lat="43.13317" lon="1.07677">
        <ele>500</ele>
        <time>2023-12-02T09:44:47Z</time>
      </trkpt>
      <trkpt lat="43.13333" lon="1.07666">
        <ele>502</ele>
        <time>2023-12-02T09:45:11Z</time>
      </trkpt>
      <trkpt lat="43.13338" lon="1.07669">
        <ele>504</ele>
        <time>2023-12-02T09:45:34Z</time>
      </trkpt>
      <trkpt lat="43.13337" lon="1.0767">
        <ele>504</ele>
        <time>2023-12-02T09:46:10Z</time>
      </trkpt>
      <trkpt lat="43.13339" lon="1.07669">
        <ele>501.79998779297</ele>
        <time>2023-12-02T09:51:39Z</time>
      </trkpt>
      <trkpt lat="43.13338" lon="1.07668">
        <ele>501.79998779297</ele>
        <time>2023-12-02T09:52:13Z</time>
      </trkpt>
      <trkpt lat="43.13338" lon="1.07653">
        <ele>501.20001220703</ele>
        <time>2023-12-02T09:52:32Z</time>
      </trkpt>
      <trkpt lat="43.13332" lon="1.07634">
        <ele>499.20001220703</ele>
        <time>2023-12-02T09:52:55Z</time>
      </trkpt>
      <trkpt lat="43.1333" lon="1.07621">
        <ele>498.60000610352</ele>
        <time>2023-12-02T09:53:14Z</time>
      </trkpt>
      <trkpt lat="43.13327" lon="1.07595">
        <ele>497.39999389648</ele>
        <time>2023-12-02T09:53:32Z</time>
      </trkpt>
      <trkpt lat="43.13327" lon="1.07586">
        <ele>496.79998779297</ele>
        <time>2023-12-02T09:53:39Z</time>
      </trkpt>
      <trkpt lat="43.13328" lon="1.07563">
        <ele>495.39999389648</ele>
        <time>2023-12-02T09:53:57Z</time>
      </trkpt>
      <trkpt lat="43.13327" lon="1.07562">
        <ele>495.39999389648</ele>
        <time>2023-12-02T09:53:58Z</time>
      </trkpt>
      <trkpt lat="43.13326" lon="1.07557">
        <ele>495</ele>
        <time>2023-12-02T09:54:02Z</time>
      </trkpt>
      <trkpt lat="43.13322" lon="1.07542">
        <ele>493.60000610352</ele>
        <time>2023-12-02T09:54:15Z</time>
      </trkpt>
      <trkpt lat="43.1332" lon="1.07528">
        <ele>492.20001220703</ele>
        <time>2023-12-02T09:54:30Z</time>
      </trkpt>
      <trkpt lat="43.13322" lon="1.07519">
        <ele>491.20001220703</ele>
        <time>2023-12-02T09:54:52Z</time>
      </trkpt>
      <trkpt lat="43.1332" lon="1.0751">
        <ele>490.79998779297</ele>
        <time>2023-12-02T09:55:14Z</time>
      </trkpt>
      <trkpt lat="43.13317" lon="1.07505">
        <ele>490.39999389648</ele>
        <time>2023-12-02T09:55:31Z</time>
      </trkpt>
      <trkpt lat="43.13316" lon="1.075">
        <ele>490</ele>
        <time>2023-12-02T09:55:46Z</time>
      </trkpt>
      <trkpt lat="43.13316" lon="1.07499">
        <ele>490</ele>
        <time>2023-12-02T09:55:49Z</time>
      </trkpt>
      <trkpt lat="43.13318" lon="1.07496">
        <ele>489.79998779297</ele>
        <time>2023-12-02T09:56:04Z</time>
      </trkpt>
      <trkpt lat="43.13318" lon="1.07495">
        <ele>489.79998779297</ele>
        <time>2023-12-02T09:56:05Z</time>
      </trkpt>
      <trkpt lat="43.13316" lon="1.07491">
        <ele>489.79998779297</ele>
        <time>2023-12-02T09:56:08Z</time>
      </trkpt>
      <trkpt lat="43.13315" lon="1.07467">
        <ele>489.39999389648</ele>
        <time>2023-12-02T09:56:23Z</time>
      </trkpt>
      <trkpt lat="43.13315" lon="1.07461">
        <ele>489</ele>
        <time>2023-12-02T09:56:30Z</time>
      </trkpt>
      <trkpt lat="43.13317" lon="1.07452">
        <ele>488.39999389648</ele>
        <time>2023-12-02T09:56:41Z</time>
      </trkpt>
      <trkpt lat="43.13318" lon="1.07444">
        <ele>487.39999389648</ele>
        <time>2023-12-02T09:57:02Z</time>
      </trkpt>
      <trkpt lat="43.13319" lon="1.07437">
        <ele>487.39999389648</ele>
        <time>2023-12-02T09:57:17Z</time>
      </trkpt>
      <trkpt lat="43.13322" lon="1.07409">
        <ele>486.20001220703</ele>
        <time>2023-12-02T09:57:38Z</time>
      </trkpt>
      <trkpt lat="43.13322" lon="1.07406">
        <ele>485.79998779297</ele>
        <time>2023-12-02T09:57:41Z</time>
      </trkpt>
      <trkpt lat="43.13323" lon="1.07402">
        <ele>485.39999389648</ele>
        <time>2023-12-02T09:57:44Z</time>
      </trkpt>
      <trkpt lat="43.13325" lon="1.07394">
        <ele>484.79998779297</ele>
        <time>2023-12-02T09:57:50Z</time>
      </trkpt>
      <trkpt lat="43.13325" lon="1.07392">
        <ele>484.60000610352</ele>
        <time>2023-12-02T09:57:52Z</time>
      </trkpt>
      <trkpt lat="43.1333" lon="1.07373">
        <ele>482.60000610352</ele>
        <time>2023-12-02T09:58:07Z</time>
      </trkpt>
      <trkpt lat="43.13332" lon="1.07369">
        <ele>482.60000610352</ele>
        <time>2023-12-02T09:58:10Z</time>
      </trkpt>
      <trkpt lat="43.13336" lon="1.07347">
        <ele>480.39999389648</ele>
        <time>2023-12-02T09:58:26Z</time>
      </trkpt>
      <trkpt lat="43.13336" lon="1.07345">
        <ele>480</ele>
        <time>2023-12-02T09:58:30Z</time>
      </trkpt>
      <trkpt lat="43.13337" lon="1.07341">
        <ele>479.60000610352</ele>
        <time>2023-12-02T09:58:33Z</time>
      </trkpt>
      <trkpt lat="43.13344" lon="1.07316">
        <ele>477.60000610352</ele>
        <time>2023-12-02T09:58:49Z</time>
      </trkpt>
      <trkpt lat="43.13347" lon="1.07311">
        <ele>476.79998779297</ele>
        <time>2023-12-02T09:58:54Z</time>
      </trkpt>
      <trkpt lat="43.13358" lon="1.07283">
        <ele>475</ele>
        <time>2023-12-02T09:59:13Z</time>
      </trkpt>
      <trkpt lat="43.13368" lon="1.07256">
        <ele>473.79998779297</ele>
        <time>2023-12-02T09:59:33Z</time>
      </trkpt>
      <trkpt lat="43.13374" lon="1.07231">
        <ele>472.39999389648</ele>
        <time>2023-12-02T09:59:53Z</time>
      </trkpt>
      <trkpt lat="43.13374" lon="1.0723">
        <ele>472.39999389648</ele>
        <time>2023-12-02T09:59:54Z</time>
      </trkpt>
      <trkpt lat="43.1338" lon="1.07208">
        <ele>470.60000610352</ele>
        <time>2023-12-02T10:00:13Z</time>
      </trkpt>
      <trkpt lat="43.13382" lon="1.07203">
        <ele>470</ele>
        <time>2023-12-02T10:00:21Z</time>
      </trkpt>
      <trkpt lat="43.13383" lon="1.07197">
        <ele>469.79998779297</ele>
        <time>2023-12-02T10:00:26Z</time>
      </trkpt>
      <trkpt lat="43.13386" lon="1.07187">
        <ele>469.39999389648</ele>
        <time>2023-12-02T10:00:33Z</time>
      </trkpt>
      <trkpt lat="43.1339" lon="1.07168">
        <ele>468.39999389648</ele>
        <time>2023-12-02T10:00:47Z</time>
      </trkpt>
      <trkpt lat="43.13391" lon="1.07166">
        <ele>468.20001220703</ele>
        <time>2023-12-02T10:00:49Z</time>
      </trkpt>
      <trkpt lat="43.13397" lon="1.07141">
        <ele>467.39999389648</ele>
        <time>2023-12-02T10:01:08Z</time>
      </trkpt>
      <trkpt lat="43.13406" lon="1.07113">
        <ele>466</ele>
        <time>2023-12-02T10:01:31Z</time>
      </trkpt>
      <trkpt lat="43.13409" lon="1.07099">
        <ele>465.39999389648</ele>
        <time>2023-12-02T10:01:46Z</time>
      </trkpt>
      <trkpt lat="43.13415" lon="1.07074">
        <ele>464.60000610352</ele>
        <time>2023-12-02T10:02:05Z</time>
      </trkpt>
      <trkpt lat="43.13416" lon="1.07066">
        <ele>464.39999389648</ele>
        <time>2023-12-02T10:02:10Z</time>
      </trkpt>
      <trkpt lat="43.1342" lon="1.07044">
        <ele>463.39999389648</ele>
        <time>2023-12-02T10:02:28Z</time>
      </trkpt>
      <trkpt lat="43.13423" lon="1.07028">
        <ele>463</ele>
        <time>2023-12-02T10:02:44Z</time>
      </trkpt>
      <trkpt lat="43.13423" lon="1.07025">
        <ele>463</ele>
        <time>2023-12-02T10:02:48Z</time>
      </trkpt>
      <trkpt lat="43.13424" lon="1.07014">
        <ele>463</ele>
        <time>2023-12-02T10:02:58Z</time>
      </trkpt>
      <trkpt lat="43.13429" lon="1.06981">
        <ele>461.60000610352</ele>
        <time>2023-12-02T10:03:22Z</time>
      </trkpt>
      <trkpt lat="43.13431" lon="1.06957">
        <ele>460.39999389648</ele>
        <time>2023-12-02T10:03:40Z</time>
      </trkpt>
      <trkpt lat="43.13433" lon="1.06944">
        <ele>459.60000610352</ele>
        <time>2023-12-02T10:03:50Z</time>
      </trkpt>
      <trkpt lat="43.13439" lon="1.06915">
        <ele>457.79998779297</ele>
        <time>2023-12-02T10:04:12Z</time>
      </trkpt>
      <trkpt lat="43.13447" lon="1.06887">
        <ele>456.60000610352</ele>
        <time>2023-12-02T10:04:33Z</time>
      </trkpt>
      <trkpt lat="43.13454" lon="1.0686">
        <ele>455.60000610352</ele>
        <time>2023-12-02T10:04:53Z</time>
      </trkpt>
      <trkpt lat="43.13463" lon="1.06832">
        <ele>454.39999389648</ele>
        <time>2023-12-02T10:05:14Z</time>
      </trkpt>
      <trkpt lat="43.13465" lon="1.06825">
        <ele>454.20001220703</ele>
        <time>2023-12-02T10:05:19Z</time>
      </trkpt>
      <trkpt lat="43.13466" lon="1.06817">
        <ele>453.79998779297</ele>
        <time>2023-12-02T10:05:24Z</time>
      </trkpt>
      <trkpt lat="43.13467" lon="1.06816">
        <ele>453.60000610352</ele>
        <time>2023-12-02T10:05:26Z</time>
      </trkpt>
      <trkpt lat="43.13472" lon="1.06794">
        <ele>452.20001220703</ele>
        <time>2023-12-02T10:05:42Z</time>
      </trkpt>
      <trkpt lat="43.13473" lon="1.06783">
        <ele>451.39999389648</ele>
        <time>2023-12-02T10:05:51Z</time>
      </trkpt>
      <trkpt lat="43.13483" lon="1.06754">
        <ele>449.60000610352</ele>
        <time>2023-12-02T10:06:15Z</time>
      </trkpt>
      <trkpt lat="43.1349" lon="1.06733">
        <ele>448.20001220703</ele>
        <time>2023-12-02T10:06:33Z</time>
      </trkpt>
      <trkpt lat="43.13495" lon="1.06709">
        <ele>446.39999389648</ele>
        <time>2023-12-02T10:06:54Z</time>
      </trkpt>
      <trkpt lat="43.13501" lon="1.06686">
        <ele>445</ele>
        <time>2023-12-02T10:07:12Z</time>
      </trkpt>
      <trkpt lat="43.13509" lon="1.06667">
        <ele>444</ele>
        <time>2023-12-02T10:07:27Z</time>
      </trkpt>
      <trkpt lat="43.13515" lon="1.06649">
        <ele>443.39999389648</ele>
        <time>2023-12-02T10:07:41Z</time>
      </trkpt>
      <trkpt lat="43.1352" lon="1.06633">
        <ele>442.39999389648</ele>
        <time>2023-12-02T10:07:57Z</time>
      </trkpt>
      <trkpt lat="43.13523" lon="1.06618">
        <ele>440.79998779297</ele>
        <time>2023-12-02T10:08:11Z</time>
      </trkpt>
      <trkpt lat="43.13528" lon="1.06599">
        <ele>439</ele>
        <time>2023-12-02T10:08:28Z</time>
      </trkpt>
      <trkpt lat="43.13531" lon="1.0658">
        <ele>436.60000610352</ele>
        <time>2023-12-02T10:08:46Z</time>
      </trkpt>
      <trkpt lat="43.13534" lon="1.06557">
        <ele>433.79998779297</ele>
        <time>2023-12-02T10:09:07Z</time>
      </trkpt>
      <trkpt lat="43.13539" lon="1.06535">
        <ele>431.60000610352</ele>
        <time>2023-12-02T10:09:25Z</time>
      </trkpt>
      <trkpt lat="43.13545" lon="1.06518">
        <ele>429.60000610352</ele>
        <time>2023-12-02T10:09:42Z</time>
      </trkpt>
      <trkpt lat="43.13545" lon="1.06503">
        <ele>427.60000610352</ele>
        <time>2023-12-02T10:09:55Z</time>
      </trkpt>
      <trkpt lat="43.13546" lon="1.06482">
        <ele>426</ele>
        <time>2023-12-02T10:10:09Z</time>
      </trkpt>
      <trkpt lat="43.13546" lon="1.0648">
        <ele>425.79998779297</ele>
        <time>2023-12-02T10:10:10Z</time>
      </trkpt>
      <trkpt lat="43.13548" lon="1.06476">
        <ele>425.60000610352</ele>
        <time>2023-12-02T10:10:14Z</time>
      </trkpt>
      <trkpt lat="43.13553" lon="1.06458">
        <ele>423.79998779297</ele>
        <time>2023-12-02T10:10:30Z</time>
      </trkpt>
      <trkpt lat="43.13557" lon="1.06435">
        <ele>422</ele>
        <time>2023-12-02T10:10:47Z</time>
      </trkpt>
      <trkpt lat="43.1356" lon="1.06423">
        <ele>420.79998779297</ele>
        <time>2023-12-02T10:10:57Z</time>
      </trkpt>
      <trkpt lat="43.13565" lon="1.06402">
        <ele>419.20001220703</ele>
        <time>2023-12-02T10:11:13Z</time>
      </trkpt>
      <trkpt lat="43.13573" lon="1.06378">
        <ele>418.20001220703</ele>
        <time>2023-12-02T10:11:31Z</time>
      </trkpt>
      <trkpt lat="43.13578" lon="1.06364">
        <ele>417.39999389648</ele>
        <time>2023-12-02T10:11:42Z</time>
      </trkpt>
      <trkpt lat="43.13579" lon="1.06361">
        <ele>417.39999389648</ele>
        <time>2023-12-02T10:11:44Z</time>
      </trkpt>
      <trkpt lat="43.13584" lon="1.06347">
        <ele>416.60000610352</ele>
        <time>2023-12-02T10:11:58Z</time>
      </trkpt>
      <trkpt lat="43.13587" lon="1.06349">
        <ele>416.60000610352</ele>
        <time>2023-12-02T10:12:22Z</time>
      </trkpt>
      <trkpt lat="43.13589" lon="1.06343">
        <ele>416.20001220703</ele>
        <time>2023-12-02T10:12:41Z</time>
      </trkpt>
      <trkpt lat="43.13593" lon="1.06336">
        <ele>416.20001220703</ele>
        <time>2023-12-02T10:12:45Z</time>
      </trkpt>
      <trkpt lat="43.13595" lon="1.06331">
        <ele>416.20001220703</ele>
        <time>2023-12-02T10:12:50Z</time>
      </trkpt>
      <trkpt lat="43.13599" lon="1.06321">
        <ele>416</ele>
        <time>2023-12-02T10:12:57Z</time>
      </trkpt>
      <trkpt lat="43.13608" lon="1.06296">
        <ele>415.39999389648</ele>
        <time>2023-12-02T10:13:16Z</time>
      </trkpt>
      <trkpt lat="43.13614" lon="1.06272">
        <ele>414</ele>
        <time>2023-12-02T10:13:33Z</time>
      </trkpt>
      <trkpt lat="43.13623" lon="1.06248">
        <ele>412.20001220703</ele>
        <time>2023-12-02T10:13:50Z</time>
      </trkpt>
      <trkpt lat="43.13631" lon="1.06231">
        <ele>411.20001220703</ele>
        <time>2023-12-02T10:14:03Z</time>
      </trkpt>
      <trkpt lat="43.13633" lon="1.06228">
        <ele>411.20001220703</ele>
        <time>2023-12-02T10:14:05Z</time>
      </trkpt>
      <trkpt lat="43.13635" lon="1.06222">
        <ele>411</ele>
        <time>2023-12-02T10:14:09Z</time>
      </trkpt>
      <trkpt lat="43.13657" lon="1.06196">
        <ele>409.79998779297</ele>
        <time>2023-12-02T10:14:32Z</time>
      </trkpt>
      <trkpt lat="43.13667" lon="1.06182">
        <ele>409.20001220703</ele>
        <time>2023-12-02T10:14:45Z</time>
      </trkpt>
      <trkpt lat="43.13676" lon="1.0616">
        <ele>407.39999389648</ele>
        <time>2023-12-02T10:15:02Z</time>
      </trkpt>
      <trkpt lat="43.13679" lon="1.06143">
        <ele>405.20001220703</ele>
        <time>2023-12-02T10:15:21Z</time>
      </trkpt>
      <trkpt lat="43.13682" lon="1.06132">
        <ele>404.39999389648</ele>
        <time>2023-12-02T10:15:38Z</time>
      </trkpt>
      <trkpt lat="43.13687" lon="1.06114">
        <ele>403</ele>
        <time>2023-12-02T10:15:53Z</time>
      </trkpt>
      <trkpt lat="43.1369" lon="1.06099">
        <ele>400.79998779297</ele>
        <time>2023-12-02T10:16:10Z</time>
      </trkpt>
      <trkpt lat="43.13692" lon="1.06097">
        <ele>399.79998779297</ele>
        <time>2023-12-02T10:16:29Z</time>
      </trkpt>
      <trkpt lat="43.13692" lon="1.06097">
        <ele>399.79998779297</ele>
        <time>2023-12-02T10:16:33Z</time>
      </trkpt>
      <trkpt lat="43.13695" lon="1.06078">
        <ele>398.79998779297</ele>
        <time>2023-12-02T10:16:50Z</time>
      </trkpt>
      <trkpt lat="43.13706" lon="1.06054">
        <ele>397</ele>
        <time>2023-12-02T10:17:10Z</time>
      </trkpt>
      <trkpt lat="43.13712" lon="1.06038">
        <ele>395.20001220703</ele>
        <time>2023-12-02T10:17:27Z</time>
      </trkpt>
      <trkpt lat="43.13711" lon="1.0603">
        <ele>393.79998779297</ele>
        <time>2023-12-02T10:17:47Z</time>
      </trkpt>
      <trkpt lat="43.13713" lon="1.06031">
        <ele>394.39999389648</ele>
        <time>2023-12-02T10:18:09Z</time>
      </trkpt>
      <trkpt lat="43.1372" lon="1.06031">
        <ele>394.20001220703</ele>
        <time>2023-12-02T10:18:52Z</time>
      </trkpt>
      <trkpt lat="43.13718" lon="1.06027">
        <ele>394</ele>
        <time>2023-12-02T10:19:28Z</time>
      </trkpt>
      <trkpt lat="43.13719" lon="1.0602">
        <ele>394</ele>
        <time>2023-12-02T10:19:33Z</time>
      </trkpt>
      <trkpt lat="43.13734" lon="1.06009">
        <ele>393.79998779297</ele>
        <time>2023-12-02T10:19:51Z</time>
      </trkpt>
      <trkpt lat="43.13749" lon="1.06003">
        <ele>395</ele>
        <time>2023-12-02T10:20:09Z</time>
      </trkpt>
      <trkpt lat="43.13761" lon="1.06003">
        <ele>395.79998779297</ele>
        <time>2023-12-02T10:20:19Z</time>
      </trkpt>
      <trkpt lat="43.13779" lon="1.06007">
        <ele>397</ele>
        <time>2023-12-02T10:20:32Z</time>
      </trkpt>
      <trkpt lat="43.13792" lon="1.06015">
        <ele>398</ele>
        <time>2023-12-02T10:20:45Z</time>
      </trkpt>
      <trkpt lat="43.13798" lon="1.06021">
        <ele>398.20001220703</ele>
        <time>2023-12-02T10:20:50Z</time>
      </trkpt>
      <trkpt lat="43.13801" lon="1.06022">
        <ele>398.39999389648</ele>
        <time>2023-12-02T10:20:52Z</time>
      </trkpt>
      <trkpt lat="43.13816" lon="1.0604">
        <ele>399.20001220703</ele>
        <time>2023-12-02T10:21:08Z</time>
      </trkpt>
      <trkpt lat="43.13834" lon="1.06063">
        <ele>400.79998779297</ele>
        <time>2023-12-02T10:21:28Z</time>
      </trkpt>
      <trkpt lat="43.13845" lon="1.06071">
        <ele>401.60000610352</ele>
        <time>2023-12-02T10:21:42Z</time>
      </trkpt>
      <trkpt lat="43.13859" lon="1.06071">
        <ele>402.79998779297</ele>
        <time>2023-12-02T10:21:57Z</time>
      </trkpt>
      <trkpt lat="43.13885" lon="1.0607">
        <ele>404.79998779297</ele>
        <time>2023-12-02T10:22:19Z</time>
      </trkpt>
      <trkpt lat="43.13902" lon="1.06071">
        <ele>406.39999389648</ele>
        <time>2023-12-02T10:22:35Z</time>
      </trkpt>
      <trkpt lat="43.13925" lon="1.06076">
        <ele>408.39999389648</ele>
        <time>2023-12-02T10:22:55Z</time>
      </trkpt>
      <trkpt lat="43.13942" lon="1.0608">
        <ele>409.79998779297</ele>
        <time>2023-12-02T10:23:09Z</time>
      </trkpt>
      <trkpt lat="43.13946" lon="1.06081">
        <ele>410.20001220703</ele>
        <time>2023-12-02T10:23:13Z</time>
      </trkpt>
      <trkpt lat="43.13959" lon="1.06084">
        <ele>411.39999389648</ele>
        <time>2023-12-02T10:23:26Z</time>
      </trkpt>
      <trkpt lat="43.13976" lon="1.06086">
        <ele>413</ele>
        <time>2023-12-02T10:23:44Z</time>
      </trkpt>
      <trkpt lat="43.13978" lon="1.06086">
        <ele>413.20001220703</ele>
        <time>2023-12-02T10:23:46Z</time>
      </trkpt>
      <trkpt lat="43.13981" lon="1.06086">
        <ele>413.60000610352</ele>
        <time>2023-12-02T10:23:49Z</time>
      </trkpt>
      <trkpt lat="43.14003" lon="1.06087">
        <ele>415</ele>
        <time>2023-12-02T10:24:09Z</time>
      </trkpt>
      <trkpt lat="43.14022" lon="1.06086">
        <ele>417.20001220703</ele>
        <time>2023-12-02T10:24:26Z</time>
      </trkpt>
      <trkpt lat="43.14034" lon="1.06088">
        <ele>418.39999389648</ele>
        <time>2023-12-02T10:24:39Z</time>
      </trkpt>
      <trkpt lat="43.14036" lon="1.06089">
        <ele>418.60000610352</ele>
        <time>2023-12-02T10:24:41Z</time>
      </trkpt>
      <trkpt lat="43.14037" lon="1.0609">
        <ele>418.79998779297</ele>
        <time>2023-12-02T10:24:43Z</time>
      </trkpt>
      <trkpt lat="43.14041" lon="1.0609">
        <ele>419</ele>
        <time>2023-12-02T10:24:47Z</time>
      </trkpt>
      <trkpt lat="43.14059" lon="1.06103">
        <ele>420.60000610352</ele>
        <time>2023-12-02T10:25:05Z</time>
      </trkpt>
      <trkpt lat="43.14073" lon="1.06122">
        <ele>422.20001220703</ele>
        <time>2023-12-02T10:25:22Z</time>
      </trkpt>
      <trkpt lat="43.14089" lon="1.06145">
        <ele>424</ele>
        <time>2023-12-02T10:25:43Z</time>
      </trkpt>
      <trkpt lat="43.14103" lon="1.06162">
        <ele>425.60000610352</ele>
        <time>2023-12-02T10:25:59Z</time>
      </trkpt>
      <trkpt lat="43.14118" lon="1.06173">
        <ele>426.79998779297</ele>
        <time>2023-12-02T10:26:15Z</time>
      </trkpt>
      <trkpt lat="43.14131" lon="1.06173">
        <ele>428.20001220703</ele>
        <time>2023-12-02T10:26:28Z</time>
      </trkpt>
      <trkpt lat="43.14145" lon="1.06164">
        <ele>429.60000610352</ele>
        <time>2023-12-02T10:26:44Z</time>
      </trkpt>
      <trkpt lat="43.14155" lon="1.06151">
        <ele>431</ele>
        <time>2023-12-02T10:27:00Z</time>
      </trkpt>
      <trkpt lat="43.14167" lon="1.06133">
        <ele>432.39999389648</ele>
        <time>2023-12-02T10:27:20Z</time>
      </trkpt>
      <trkpt lat="43.14177" lon="1.06119">
        <ele>434</ele>
        <time>2023-12-02T10:27:37Z</time>
      </trkpt>
      <trkpt lat="43.1418" lon="1.06112">
        <ele>434.60000610352</ele>
        <time>2023-12-02T10:27:45Z</time>
      </trkpt>
      <trkpt lat="43.14182" lon="1.0611">
        <ele>434.79998779297</ele>
        <time>2023-12-02T10:27:47Z</time>
      </trkpt>
      <trkpt lat="43.14197" lon="1.06094">
        <ele>436.39999389648</ele>
        <time>2023-12-02T10:28:05Z</time>
      </trkpt>
      <trkpt lat="43.14214" lon="1.06071">
        <ele>438.79998779297</ele>
        <time>2023-12-02T10:28:29Z</time>
      </trkpt>
      <trkpt lat="43.14227" lon="1.06055">
        <ele>440.20001220703</ele>
        <time>2023-12-02T10:28:47Z</time>
      </trkpt>
      <trkpt lat="43.1424" lon="1.06037">
        <ele>441.79998779297</ele>
        <time>2023-12-02T10:29:05Z</time>
      </trkpt>
      <trkpt lat="43.14252" lon="1.06025">
        <ele>443.20001220703</ele>
        <time>2023-12-02T10:29:19Z</time>
      </trkpt>
      <trkpt lat="43.14267" lon="1.06016">
        <ele>444.39999389648</ele>
        <time>2023-12-02T10:29:35Z</time>
      </trkpt>
      <trkpt lat="43.14269" lon="1.06015">
        <ele>444.60000610352</ele>
        <time>2023-12-02T10:29:38Z</time>
      </trkpt>
      <trkpt lat="43.14287" lon="1.06014">
        <ele>446</ele>
        <time>2023-12-02T10:29:57Z</time>
      </trkpt>
      <trkpt lat="43.14303" lon="1.06015">
        <ele>447.39999389648</ele>
        <time>2023-12-02T10:30:14Z</time>
      </trkpt>
      <trkpt lat="43.14308" lon="1.06015">
        <ele>447.79998779297</ele>
        <time>2023-12-02T10:30:19Z</time>
      </trkpt>
      <trkpt lat="43.14321" lon="1.06017">
        <ele>449</ele>
        <time>2023-12-02T10:30:31Z</time>
      </trkpt>
      <trkpt lat="43.14334" lon="1.06019">
        <ele>450</ele>
        <time>2023-12-02T10:30:44Z</time>
      </trkpt>
      <trkpt lat="43.14347" lon="1.06014">
        <ele>450.79998779297</ele>
        <time>2023-12-02T10:30:57Z</time>
      </trkpt>
      <trkpt lat="43.14361" lon="1.06">
        <ele>452</ele>
        <time>2023-12-02T10:31:14Z</time>
      </trkpt>
      <trkpt lat="43.1437" lon="1.05981">
        <ele>453.79998779297</ele>
        <time>2023-12-02T10:31:32Z</time>
      </trkpt>
      <trkpt lat="43.14371" lon="1.05978">
        <ele>454.20001220703</ele>
        <time>2023-12-02T10:31:35Z</time>
      </trkpt>
      <trkpt lat="43.14379" lon="1.05953">
        <ele>455.79998779297</ele>
        <time>2023-12-02T10:31:55Z</time>
      </trkpt>
      <trkpt lat="43.14388" lon="1.05932">
        <ele>457.39999389648</ele>
        <time>2023-12-02T10:32:12Z</time>
      </trkpt>
      <trkpt lat="43.144" lon="1.05905">
        <ele>459.79998779297</ele>
        <time>2023-12-02T10:32:34Z</time>
      </trkpt>
      <trkpt lat="43.14411" lon="1.05886">
        <ele>461.20001220703</ele>
        <time>2023-12-02T10:32:52Z</time>
      </trkpt>
      <trkpt lat="43.14424" lon="1.05861">
        <ele>463.20001220703</ele>
        <time>2023-12-02T10:33:13Z</time>
      </trkpt>
      <trkpt lat="43.14433" lon="1.05843">
        <ele>464.60000610352</ele>
        <time>2023-12-02T10:33:28Z</time>
      </trkpt>
      <trkpt lat="43.1444" lon="1.0583">
        <ele>465.60000610352</ele>
        <time>2023-12-02T10:33:39Z</time>
      </trkpt>
      <trkpt lat="43.14442" lon="1.05826">
        <ele>466</ele>
        <time>2023-12-02T10:33:43Z</time>
      </trkpt>
      <trkpt lat="43.14451" lon="1.05802">
        <ele>468.20001220703</ele>
        <time>2023-12-02T10:34:01Z</time>
      </trkpt>
      <trkpt lat="43.14459" lon="1.05785">
        <ele>469.60000610352</ele>
        <time>2023-12-02T10:34:15Z</time>
      </trkpt>
      <trkpt lat="43.14466" lon="1.05762">
        <ele>471</ele>
        <time>2023-12-02T10:34:32Z</time>
      </trkpt>
      <trkpt lat="43.14467" lon="1.05758">
        <ele>471.39999389648</ele>
        <time>2023-12-02T10:34:35Z</time>
      </trkpt>
      <trkpt lat="43.14477" lon="1.05732">
        <ele>473.39999389648</ele>
        <time>2023-12-02T10:34:57Z</time>
      </trkpt>
      <trkpt lat="43.14486" lon="1.05703">
        <ele>475.60000610352</ele>
        <time>2023-12-02T10:35:19Z</time>
      </trkpt>
      <trkpt lat="43.14496" lon="1.05682">
        <ele>477.39999389648</ele>
        <time>2023-12-02T10:35:37Z</time>
      </trkpt>
      <trkpt lat="43.145" lon="1.0566">
        <ele>478.79998779297</ele>
        <time>2023-12-02T10:35:51Z</time>
      </trkpt>
      <trkpt lat="43.14506" lon="1.05649">
        <ele>479.79998779297</ele>
        <time>2023-12-02T10:36:01Z</time>
      </trkpt>
      <trkpt lat="43.14513" lon="1.05634">
        <ele>480.60000610352</ele>
        <time>2023-12-02T10:36:14Z</time>
      </trkpt>
      <trkpt lat="43.14524" lon="1.05612">
        <ele>482</ele>
        <time>2023-12-02T10:36:38Z</time>
      </trkpt>
      <trkpt lat="43.14522" lon="1.05582">
        <ele>484.20001220703</ele>
        <time>2023-12-02T10:37:02Z</time>
      </trkpt>
      <trkpt lat="43.14522" lon="1.0558">
        <ele>484.39999389648</ele>
        <time>2023-12-02T10:37:05Z</time>
      </trkpt>
      <trkpt lat="43.14521" lon="1.05575">
        <ele>485.20001220703</ele>
        <time>2023-12-02T10:37:43Z</time>
      </trkpt>
      <trkpt lat="43.14522" lon="1.05572">
        <ele>485.20001220703</ele>
        <time>2023-12-02T10:38:13Z</time>
      </trkpt>
      <trkpt lat="43.14524" lon="1.05557">
        <ele>485.79998779297</ele>
        <time>2023-12-02T10:38:30Z</time>
      </trkpt>
      <trkpt lat="43.14524" lon="1.05541">
        <ele>487.60000610352</ele>
        <time>2023-12-02T10:38:56Z</time>
      </trkpt>
      <trkpt lat="43.14531" lon="1.0552">
        <ele>490.39999389648</ele>
        <time>2023-12-02T10:39:21Z</time>
      </trkpt>
      <trkpt lat="43.14537" lon="1.05501">
        <ele>493.20001220703</ele>
        <time>2023-12-02T10:39:47Z</time>
      </trkpt>
      <trkpt lat="43.14542" lon="1.05483">
        <ele>495.79998779297</ele>
        <time>2023-12-02T10:40:13Z</time>
      </trkpt>
      <trkpt lat="43.14546" lon="1.0546">
        <ele>498.79998779297</ele>
        <time>2023-12-02T10:40:37Z</time>
      </trkpt>
      <trkpt lat="43.14551" lon="1.05438">
        <ele>502</ele>
        <time>2023-12-02T10:41:01Z</time>
      </trkpt>
      <trkpt lat="43.14555" lon="1.05421">
        <ele>505</ele>
        <time>2023-12-02T10:41:22Z</time>
      </trkpt>
      <trkpt lat="43.14559" lon="1.05402">
        <ele>508</ele>
        <time>2023-12-02T10:41:43Z</time>
      </trkpt>
      <trkpt lat="43.14564" lon="1.05379">
        <ele>510.60000610352</ele>
        <time>2023-12-02T10:42:05Z</time>
      </trkpt>
      <trkpt lat="43.14572" lon="1.0536">
        <ele>513.79998779297</ele>
        <time>2023-12-02T10:42:27Z</time>
      </trkpt>
      <trkpt lat="43.14583" lon="1.05356">
        <ele>516.59997558594</ele>
        <time>2023-12-02T10:42:49Z</time>
      </trkpt>
      <trkpt lat="43.14598" lon="1.05354">
        <ele>519.59997558594</ele>
        <time>2023-12-02T10:43:10Z</time>
      </trkpt>
      <trkpt lat="43.1461" lon="1.05337">
        <ele>522.59997558594</ele>
        <time>2023-12-02T10:43:32Z</time>
      </trkpt>
      <trkpt lat="43.14619" lon="1.05314">
        <ele>525.59997558594</ele>
        <time>2023-12-02T10:43:54Z</time>
      </trkpt>
      <trkpt lat="43.14623" lon="1.05292">
        <ele>527.40002441406</ele>
        <time>2023-12-02T10:44:15Z</time>
      </trkpt>
      <trkpt lat="43.14624" lon="1.05279">
        <ele>528.20001220703</ele>
        <time>2023-12-02T10:44:24Z</time>
      </trkpt>
      <trkpt lat="43.14624" lon="1.05269">
        <ele>528.40002441406</ele>
        <time>2023-12-02T10:44:30Z</time>
      </trkpt>
      <trkpt lat="43.14625" lon="1.05265">
        <ele>528.40002441406</ele>
        <time>2023-12-02T10:44:33Z</time>
      </trkpt>
      <trkpt lat="43.14626" lon="1.05253">
        <ele>528.40002441406</ele>
        <time>2023-12-02T10:44:40Z</time>
      </trkpt>
      <trkpt lat="43.14632" lon="1.05232">
        <ele>528.59997558594</ele>
        <time>2023-12-02T10:44:59Z</time>
      </trkpt>
      <trkpt lat="43.14632" lon="1.05225">
        <ele>528.79998779297</ele>
        <time>2023-12-02T10:45:20Z</time>
      </trkpt>
      <trkpt lat="43.14635" lon="1.05221">
        <ele>528.59997558594</ele>
        <time>2023-12-02T10:46:03Z</time>
      </trkpt>
      <trkpt lat="43.14642" lon="1.05204">
        <ele>528.40002441406</ele>
        <time>2023-12-02T10:46:20Z</time>
      </trkpt>
      <trkpt lat="43.14648" lon="1.05185">
        <ele>527.59997558594</ele>
        <time>2023-12-02T10:46:38Z</time>
      </trkpt>
      <trkpt lat="43.14657" lon="1.05157">
        <ele>526.20001220703</ele>
        <time>2023-12-02T10:47:03Z</time>
      </trkpt>
      <trkpt lat="43.14662" lon="1.05135">
        <ele>525.20001220703</ele>
        <time>2023-12-02T10:47:20Z</time>
      </trkpt>
      <trkpt lat="43.14668" lon="1.05116">
        <ele>524</ele>
        <time>2023-12-02T10:47:36Z</time>
      </trkpt>
      <trkpt lat="43.14675" lon="1.05096">
        <ele>523</ele>
        <time>2023-12-02T10:47:54Z</time>
      </trkpt>
      <trkpt lat="43.14681" lon="1.05078">
        <ele>521.59997558594</ele>
        <time>2023-12-02T10:48:10Z</time>
      </trkpt>
      <trkpt lat="43.14684" lon="1.05063">
        <ele>520.20001220703</ele>
        <time>2023-12-02T10:48:22Z</time>
      </trkpt>
      <trkpt lat="43.14687" lon="1.05047">
        <ele>518.59997558594</ele>
        <time>2023-12-02T10:48:35Z</time>
      </trkpt>
      <trkpt lat="43.14693" lon="1.05026">
        <ele>517</ele>
        <time>2023-12-02T10:48:53Z</time>
      </trkpt>
      <trkpt lat="43.14698" lon="1.05009">
        <ele>514.79998779297</ele>
        <time>2023-12-02T10:49:08Z</time>
      </trkpt>
      <trkpt lat="43.14702" lon="1.04989">
        <ele>513</ele>
        <time>2023-12-02T10:49:24Z</time>
      </trkpt>
      <trkpt lat="43.14709" lon="1.04962">
        <ele>510.79998779297</ele>
        <time>2023-12-02T10:49:45Z</time>
      </trkpt>
      <trkpt lat="43.14714" lon="1.04947">
        <ele>510</ele>
        <time>2023-12-02T10:49:57Z</time>
      </trkpt>
      <trkpt lat="43.14719" lon="1.04927">
        <ele>509.20001220703</ele>
        <time>2023-12-02T10:50:12Z</time>
      </trkpt>
      <trkpt lat="43.14726" lon="1.04908">
        <ele>508.20001220703</ele>
        <time>2023-12-02T10:50:27Z</time>
      </trkpt>
      <trkpt lat="43.14727" lon="1.04903">
        <ele>507.79998779297</ele>
        <time>2023-12-02T10:50:32Z</time>
      </trkpt>
      <trkpt lat="43.14731" lon="1.04887">
        <ele>505.20001220703</ele>
        <time>2023-12-02T10:50:47Z</time>
      </trkpt>
      <trkpt lat="43.14737" lon="1.04865">
        <ele>502.20001220703</ele>
        <time>2023-12-02T10:51:07Z</time>
      </trkpt>
      <trkpt lat="43.14741" lon="1.04842">
        <ele>499.20001220703</ele>
        <time>2023-12-02T10:51:25Z</time>
      </trkpt>
      <trkpt lat="43.14748" lon="1.04819">
        <ele>496.60000610352</ele>
        <time>2023-12-02T10:51:45Z</time>
      </trkpt>
      <trkpt lat="43.14755" lon="1.04796">
        <ele>494.60000610352</ele>
        <time>2023-12-02T10:51:57Z</time>
      </trkpt>
      <trkpt lat="43.14771" lon="1.04763">
        <ele>492.39999389648</ele>
        <time>2023-12-02T10:52:23Z</time>
      </trkpt>
      <trkpt lat="43.14779" lon="1.04743">
        <ele>490.79998779297</ele>
        <time>2023-12-02T10:52:39Z</time>
      </trkpt>
      <trkpt lat="43.14783" lon="1.04735">
        <ele>490.20001220703</ele>
        <time>2023-12-02T10:52:46Z</time>
      </trkpt>
      <trkpt lat="43.14786" lon="1.04726">
        <ele>489.79998779297</ele>
        <time>2023-12-02T10:52:52Z</time>
      </trkpt>
      <trkpt lat="43.14788" lon="1.04723">
        <ele>489.60000610352</ele>
        <time>2023-12-02T10:52:54Z</time>
      </trkpt>
      <trkpt lat="43.14797" lon="1.04701">
        <ele>489.20001220703</ele>
        <time>2023-12-02T10:53:09Z</time>
      </trkpt>
      <trkpt lat="43.14797" lon="1.04699">
        <ele>489.20001220703</ele>
        <time>2023-12-02T10:53:10Z</time>
      </trkpt>
      <trkpt lat="43.14799" lon="1.04694">
        <ele>489</ele>
        <time>2023-12-02T10:53:14Z</time>
      </trkpt>
      <trkpt lat="43.14806" lon="1.04681">
        <ele>488.79998779297</ele>
        <time>2023-12-02T10:53:25Z</time>
      </trkpt>
      <trkpt lat="43.14814" lon="1.04664">
        <ele>488.39999389648</ele>
        <time>2023-12-02T10:53:38Z</time>
      </trkpt>
      <trkpt lat="43.14821" lon="1.04647">
        <ele>488.20001220703</ele>
        <time>2023-12-02T10:53:51Z</time>
      </trkpt>
      <trkpt lat="43.14826" lon="1.04632">
        <ele>487.79998779297</ele>
        <time>2023-12-02T10:54:01Z</time>
      </trkpt>
      <trkpt lat="43.14827" lon="1.04626">
        <ele>487.60000610352</ele>
        <time>2023-12-02T10:54:05Z</time>
      </trkpt>
      <trkpt lat="43.14832" lon="1.04618">
        <ele>487.39999389648</ele>
        <time>2023-12-02T10:54:12Z</time>
      </trkpt>
      <trkpt lat="43.14837" lon="1.04599">
        <ele>487</ele>
        <time>2023-12-02T10:54:25Z</time>
      </trkpt>
      <trkpt lat="43.14846" lon="1.04575">
        <ele>486.79998779297</ele>
        <time>2023-12-02T10:54:42Z</time>
      </trkpt>
      <trkpt lat="43.1486" lon="1.04545">
        <ele>485.79998779297</ele>
        <time>2023-12-02T10:55:07Z</time>
      </trkpt>
      <trkpt lat="43.14863" lon="1.04534">
        <ele>485.39999389648</ele>
        <time>2023-12-02T10:55:13Z</time>
      </trkpt>
      <trkpt lat="43.14871" lon="1.04512">
        <ele>484.39999389648</ele>
        <time>2023-12-02T10:55:29Z</time>
      </trkpt>
      <trkpt lat="43.14877" lon="1.04487">
        <ele>483.20001220703</ele>
        <time>2023-12-02T10:55:45Z</time>
      </trkpt>
      <trkpt lat="43.14881" lon="1.04466">
        <ele>481.79998779297</ele>
        <time>2023-12-02T10:56:00Z</time>
      </trkpt>
      <trkpt lat="43.14887" lon="1.04446">
        <ele>480.39999389648</ele>
        <time>2023-12-02T10:56:11Z</time>
      </trkpt>
      <trkpt lat="43.14894" lon="1.04422">
        <ele>479</ele>
        <time>2023-12-02T10:56:26Z</time>
      </trkpt>
      <trkpt lat="43.14899" lon="1.04408">
        <ele>478.20001220703</ele>
        <time>2023-12-02T10:56:36Z</time>
      </trkpt>
      <trkpt lat="43.14903" lon="1.04387">
        <ele>477</ele>
        <time>2023-12-02T10:56:52Z</time>
      </trkpt>
      <trkpt lat="43.14904" lon="1.04378">
        <ele>476.60000610352</ele>
        <time>2023-12-02T10:56:58Z</time>
      </trkpt>
      <trkpt lat="43.14911" lon="1.04336">
        <ele>474.20001220703</ele>
        <time>2023-12-02T10:57:25Z</time>
      </trkpt>
      <trkpt lat="43.14914" lon="1.04317">
        <ele>473.60000610352</ele>
        <time>2023-12-02T10:57:36Z</time>
      </trkpt>
      <trkpt lat="43.14921" lon="1.04289">
        <ele>472.20001220703</ele>
        <time>2023-12-02T10:57:54Z</time>
      </trkpt>
      <trkpt lat="43.1492" lon="1.04286">
        <ele>471.39999389648</ele>
        <time>2023-12-02T10:58:18Z</time>
      </trkpt>
      <trkpt lat="43.14919" lon="1.04284">
        <ele>471.39999389648</ele>
        <time>2023-12-02T10:58:42Z</time>
      </trkpt>
      <trkpt lat="43.14924" lon="1.0428">
        <ele>471.20001220703</ele>
        <time>2023-12-02T10:59:07Z</time>
      </trkpt>
      <trkpt lat="43.14925" lon="1.04275">
        <ele>471</ele>
        <time>2023-12-02T10:59:15Z</time>
      </trkpt>
      <trkpt lat="43.14922" lon="1.04269">
        <ele>470.60000610352</ele>
        <time>2023-12-02T10:59:31Z</time>
      </trkpt>
      <trkpt lat="43.14922" lon="1.04268">
        <ele>470.39999389648</ele>
        <time>2023-12-02T11:00:12Z</time>
      </trkpt>
      <trkpt lat="43.14926" lon="1.04268">
        <ele>470.60000610352</ele>
        <time>2023-12-02T11:00:35Z</time>
      </trkpt>
      <trkpt lat="43.14926" lon="1.0427">
        <ele>470.79998779297</ele>
        <time>2023-12-02T11:01:10Z</time>
      </trkpt>
      <trkpt lat="43.14926" lon="1.04266">
        <ele>470.79998779297</ele>
        <time>2023-12-02T11:01:14Z</time>
      </trkpt>
      <trkpt lat="43.14937" lon="1.04228">
        <ele>469.79998779297</ele>
        <time>2023-12-02T11:01:42Z</time>
      </trkpt>
      <trkpt lat="43.14939" lon="1.04221">
        <ele>469.20001220703</ele>
        <time>2023-12-02T11:01:48Z</time>
      </trkpt>
      <trkpt lat="43.14943" lon="1.04197">
        <ele>469</ele>
        <time>2023-12-02T11:02:05Z</time>
      </trkpt>
      <trkpt lat="43.14945" lon="1.04175">
        <ele>469.20001220703</ele>
        <time>2023-12-02T11:02:21Z</time>
      </trkpt>
      <trkpt lat="43.14946" lon="1.04151">
        <ele>469</ele>
        <time>2023-12-02T11:02:36Z</time>
      </trkpt>
      <trkpt lat="43.14949" lon="1.04127">
        <ele>468.79998779297</ele>
        <time>2023-12-02T11:02:52Z</time>
      </trkpt>
      <trkpt lat="43.1495" lon="1.04105">
        <ele>468.39999389648</ele>
        <time>2023-12-02T11:03:06Z</time>
      </trkpt>
      <trkpt lat="43.14957" lon="1.04087">
        <ele>468.60000610352</ele>
        <time>2023-12-02T11:03:21Z</time>
      </trkpt>
      <trkpt lat="43.14961" lon="1.04051">
        <ele>469.60000610352</ele>
        <time>2023-12-02T11:03:41Z</time>
      </trkpt>
      <trkpt lat="43.14963" lon="1.04045">
        <ele>470</ele>
        <time>2023-12-02T11:03:46Z</time>
      </trkpt>
      <trkpt lat="43.14964" lon="1.04033">
        <ele>470.60000610352</ele>
        <time>2023-12-02T11:03:56Z</time>
      </trkpt>
      <trkpt lat="43.14964" lon="1.04031">
        <ele>471</ele>
        <time>2023-12-02T11:03:59Z</time>
      </trkpt>
      <trkpt lat="43.14967" lon="1.04002">
        <ele>473.39999389648</ele>
        <time>2023-12-02T11:04:27Z</time>
      </trkpt>
      <trkpt lat="43.14972" lon="1.03972">
        <ele>475.39999389648</ele>
        <time>2023-12-02T11:04:45Z</time>
      </trkpt>
      <trkpt lat="43.14977" lon="1.03949">
        <ele>477.60000610352</ele>
        <time>2023-12-02T11:05:04Z</time>
      </trkpt>
      <trkpt lat="43.14981" lon="1.03926">
        <ele>479</ele>
        <time>2023-12-02T11:05:23Z</time>
      </trkpt>
      <trkpt lat="43.14985" lon="1.0389">
        <ele>482</ele>
        <time>2023-12-02T11:05:50Z</time>
      </trkpt>
      <trkpt lat="43.14992" lon="1.03862">
        <ele>484.60000610352</ele>
        <time>2023-12-02T11:06:14Z</time>
      </trkpt>
      <trkpt lat="43.14998" lon="1.03834">
        <ele>487.20001220703</ele>
        <time>2023-12-02T11:06:37Z</time>
      </trkpt>
      <trkpt lat="43.15003" lon="1.03812">
        <ele>489</ele>
        <time>2023-12-02T11:06:54Z</time>
      </trkpt>
      <trkpt lat="43.15008" lon="1.03802">
        <ele>490</ele>
        <time>2023-12-02T11:07:04Z</time>
      </trkpt>
      <trkpt lat="43.15013" lon="1.03774">
        <ele>491.60000610352</ele>
        <time>2023-12-02T11:07:25Z</time>
      </trkpt>
      <trkpt lat="43.15018" lon="1.03757">
        <ele>492.79998779297</ele>
        <time>2023-12-02T11:07:42Z</time>
      </trkpt>
      <trkpt lat="43.15016" lon="1.0375">
        <ele>493.20001220703</ele>
        <time>2023-12-02T11:07:51Z</time>
      </trkpt>
      <trkpt lat="43.15023" lon="1.03739">
        <ele>493</ele>
        <time>2023-12-02T11:08:09Z</time>
      </trkpt>
      <trkpt lat="43.15026" lon="1.03726">
        <ele>493.20001220703</ele>
        <time>2023-12-02T11:08:32Z</time>
      </trkpt>
      <trkpt lat="43.15031" lon="1.03715">
        <ele>493.20001220703</ele>
        <time>2023-12-02T11:08:56Z</time>
      </trkpt>
      <trkpt lat="43.15041" lon="1.03688">
        <ele>494.60000610352</ele>
        <time>2023-12-02T11:09:24Z</time>
      </trkpt>
      <trkpt lat="43.15047" lon="1.03671">
        <ele>495.79998779297</ele>
        <time>2023-12-02T11:09:44Z</time>
      </trkpt>
      <trkpt lat="43.15044" lon="1.03679">
        <ele>496.60000610352</ele>
        <time>2023-12-02T11:10:00Z</time>
      </trkpt>
      <trkpt lat="43.15048" lon="1.03664">
        <ele>496.20001220703</ele>
        <time>2023-12-02T11:10:29Z</time>
      </trkpt>
      <trkpt lat="43.15063" lon="1.03642">
        <ele>498.20001220703</ele>
        <time>2023-12-02T11:10:56Z</time>
      </trkpt>
      <trkpt lat="43.15076" lon="1.03621">
        <ele>499.60000610352</ele>
        <time>2023-12-02T11:11:20Z</time>
      </trkpt>
      <trkpt lat="43.15081" lon="1.03611">
        <ele>500.20001220703</ele>
        <time>2023-12-02T11:11:41Z</time>
      </trkpt>
      <trkpt lat="43.15093" lon="1.03595">
        <ele>500.79998779297</ele>
        <time>2023-12-02T11:11:55Z</time>
      </trkpt>
      <trkpt lat="43.15111" lon="1.03565">
        <ele>502.79998779297</ele>
        <time>2023-12-02T11:12:22Z</time>
      </trkpt>
      <trkpt lat="43.15127" lon="1.03546">
        <ele>505</ele>
        <time>2023-12-02T11:12:45Z</time>
      </trkpt>
      <trkpt lat="43.15146" lon="1.03522">
        <ele>506.79998779297</ele>
        <time>2023-12-02T11:13:09Z</time>
      </trkpt>
      <trkpt lat="43.15149" lon="1.03519">
        <ele>507.20001220703</ele>
        <time>2023-12-02T11:13:13Z</time>
      </trkpt>
      <trkpt lat="43.15165" lon="1.03508">
        <ele>509.39999389648</ele>
        <time>2023-12-02T11:13:31Z</time>
      </trkpt>
      <trkpt lat="43.15184" lon="1.03489">
        <ele>511.79998779297</ele>
        <time>2023-12-02T11:13:58Z</time>
      </trkpt>
      <trkpt lat="43.15194" lon="1.03483">
        <ele>511.60000610352</ele>
        <time>2023-12-02T11:14:10Z</time>
      </trkpt>
      <trkpt lat="43.15208" lon="1.03466">
        <ele>511.39999389648</ele>
        <time>2023-12-02T11:14:29Z</time>
      </trkpt>
      <trkpt lat="43.15219" lon="1.03449">
        <ele>511.60000610352</ele>
        <time>2023-12-02T11:14:45Z</time>
      </trkpt>
      <trkpt lat="43.15228" lon="1.03431">
        <ele>513</ele>
        <time>2023-12-02T11:15:02Z</time>
      </trkpt>
      <trkpt lat="43.1524" lon="1.03416">
        <ele>514.20001220703</ele>
        <time>2023-12-02T11:15:18Z</time>
      </trkpt>
      <trkpt lat="43.15248" lon="1.03401">
        <ele>513.79998779297</ele>
        <time>2023-12-02T11:15:32Z</time>
      </trkpt>
      <trkpt lat="43.1526" lon="1.0338">
        <ele>513.20001220703</ele>
        <time>2023-12-02T11:15:53Z</time>
      </trkpt>
      <trkpt lat="43.15277" lon="1.03366">
        <ele>512.59997558594</ele>
        <time>2023-12-02T11:16:15Z</time>
      </trkpt>
      <trkpt lat="43.15295" lon="1.0335">
        <ele>512.59997558594</ele>
        <time>2023-12-02T11:16:39Z</time>
      </trkpt>
      <trkpt lat="43.1531" lon="1.03335">
        <ele>510.79998779297</ele>
        <time>2023-12-02T11:17:04Z</time>
      </trkpt>
      <trkpt lat="43.15313" lon="1.03318">
        <ele>507.79998779297</ele>
        <time>2023-12-02T11:17:23Z</time>
      </trkpt>
      <trkpt lat="43.15321" lon="1.0329">
        <ele>504.79998779297</ele>
        <time>2023-12-02T11:17:47Z</time>
      </trkpt>
      <trkpt lat="43.15327" lon="1.03261">
        <ele>503.79998779297</ele>
        <time>2023-12-02T11:18:10Z</time>
      </trkpt>
      <trkpt lat="43.15326" lon="1.03244">
        <ele>503</ele>
        <time>2023-12-02T11:18:31Z</time>
      </trkpt>
      <trkpt lat="43.15328" lon="1.03232">
        <ele>503</ele>
        <time>2023-12-02T11:18:57Z</time>
      </trkpt>
      <trkpt lat="43.15338" lon="1.03212">
        <ele>501</ele>
        <time>2023-12-02T11:19:21Z</time>
      </trkpt>
      <trkpt lat="43.15341" lon="1.03203">
        <ele>500.60000610352</ele>
        <time>2023-12-02T11:19:43Z</time>
      </trkpt>
      <trkpt lat="43.15348" lon="1.03185">
        <ele>499.79998779297</ele>
        <time>2023-12-02T11:20:09Z</time>
      </trkpt>
      <trkpt lat="43.1535" lon="1.03178">
        <ele>499.20001220703</ele>
        <time>2023-12-02T11:20:28Z</time>
      </trkpt>
      <trkpt lat="43.15352" lon="1.03175">
        <ele>498.79998779297</ele>
        <time>2023-12-02T11:21:16Z</time>
      </trkpt>
      <trkpt lat="43.15365" lon="1.03184">
        <ele>514.37890625</ele>
        <time>2023-12-02T11:25:17.107Z</time>
      </trkpt>
      <trkpt lat="43.15371" lon="1.03151">
        <ele>512.3203125</ele>
        <time>2023-12-02T11:32:07.850Z</time>
      </trkpt>
      <trkpt lat="43.15395" lon="1.03126">
        <ele>509.20703125</ele>
        <time>2023-12-02T11:40:26.877Z</time>
      </trkpt>
      <trkpt lat="43.15403" lon="1.03125">
        <ele>508.7421875</ele>
        <time>2023-12-02T11:42:39.867Z</time>
      </trkpt>
      <trkpt lat="43.15415" lon="1.03103">
        <ele>507.91015625</ele>
        <time>2023-12-02T11:48:11.624Z</time>
      </trkpt>
      <trkpt lat="43.15426" lon="1.03115">
        <ele>507.57421875</ele>
        <time>2023-12-02T11:52:04.361Z</time>
      </trkpt>
      <trkpt lat="43.15475" lon="1.03111">
        <ele>488.39999389648</ele>
        <time>2023-12-02T12:05:37Z</time>
      </trkpt>
      <trkpt lat="43.15493" lon="1.03111">
        <ele>487</ele>
        <time>2023-12-02T12:05:52Z</time>
      </trkpt>
      <trkpt lat="43.15509" lon="1.0311">
        <ele>486.39999389648</ele>
        <time>2023-12-02T12:06:05Z</time>
      </trkpt>
      <trkpt lat="43.15527" lon="1.0311">
        <ele>485.79998779297</ele>
        <time>2023-12-02T12:06:20Z</time>
      </trkpt>
      <trkpt lat="43.1554" lon="1.03114">
        <ele>485.60000610352</ele>
        <time>2023-12-02T12:06:31Z</time>
      </trkpt>
      <trkpt lat="43.15549" lon="1.03119">
        <ele>485.39999389648</ele>
        <time>2023-12-02T12:06:39Z</time>
      </trkpt>
      <trkpt lat="43.15559" lon="1.03137">
        <ele>485.39999389648</ele>
        <time>2023-12-02T12:06:58Z</time>
      </trkpt>
      <trkpt lat="43.1557" lon="1.03139">
        <ele>486.79998779297</ele>
        <time>2023-12-02T12:07:34Z</time>
      </trkpt>
      <trkpt lat="43.1557" lon="1.03125">
        <ele>489.79998779297</ele>
        <time>2023-12-02T12:07:50Z</time>
      </trkpt>
      <trkpt lat="43.15572" lon="1.03097">
        <ele>491.60000610352</ele>
        <time>2023-12-02T12:08:15Z</time>
      </trkpt>
      <trkpt lat="43.15575" lon="1.03076">
        <ele>494.20001220703</ele>
        <time>2023-12-02T12:08:43Z</time>
      </trkpt>
      <trkpt lat="43.15577" lon="1.03061">
        <ele>496.39999389648</ele>
        <time>2023-12-02T12:09:06Z</time>
      </trkpt>
      <trkpt lat="43.15581" lon="1.03047">
        <ele>498.60000610352</ele>
        <time>2023-12-02T12:09:33Z</time>
      </trkpt>
      <trkpt lat="43.15582" lon="1.03041">
        <ele>500.20001220703</ele>
        <time>2023-12-02T12:09:54Z</time>
      </trkpt>
      <trkpt lat="43.15581" lon="1.03031">
        <ele>502.60000610352</ele>
        <time>2023-12-02T12:10:19Z</time>
      </trkpt>
      <trkpt lat="43.15577" lon="1.03022">
        <ele>504.79998779297</ele>
        <time>2023-12-02T12:10:38Z</time>
      </trkpt>
      <trkpt lat="43.15568" lon="1.03012">
        <ele>507.60000610352</ele>
        <time>2023-12-02T12:11:01Z</time>
      </trkpt>
      <trkpt lat="43.15553" lon="1.02996">
        <ele>509.79998779297</ele>
        <time>2023-12-02T12:11:25Z</time>
      </trkpt>
      <trkpt lat="43.15546" lon="1.02974">
        <ele>510.39999389648</ele>
        <time>2023-12-02T12:11:50Z</time>
      </trkpt>
      <trkpt lat="43.15545" lon="1.02945">
        <ele>511.39999389648</ele>
        <time>2023-12-02T12:12:15Z</time>
      </trkpt>
      <trkpt lat="43.15538" lon="1.02933">
        <ele>513.40002441406</ele>
        <time>2023-12-02T12:12:36Z</time>
      </trkpt>
      <trkpt lat="43.1554" lon="1.02914">
        <ele>515.59997558594</ele>
        <time>2023-12-02T12:12:58Z</time>
      </trkpt>
      <trkpt lat="43.15539" lon="1.02904">
        <ele>517.79998779297</ele>
        <time>2023-12-02T12:13:14Z</time>
      </trkpt>
      <trkpt lat="43.15539" lon="1.029">
        <ele>518.59997558594</ele>
        <time>2023-12-02T12:14:09Z</time>
      </trkpt>
      <trkpt lat="43.15536" lon="1.02899">
        <ele>518.59997558594</ele>
        <time>2023-12-02T12:14:54Z</time>
      </trkpt>
      <trkpt lat="43.15538" lon="1.02895">
        <ele>518.79998779297</ele>
        <time>2023-12-02T12:15:23Z</time>
      </trkpt>
      <trkpt lat="43.1554" lon="1.02889">
        <ele>518.79998779297</ele>
        <time>2023-12-02T12:15:29Z</time>
      </trkpt>
      <trkpt lat="43.1555" lon="1.02869">
        <ele>521</ele>
        <time>2023-12-02T12:15:49Z</time>
      </trkpt>
      <trkpt lat="43.15557" lon="1.02854">
        <ele>523.20001220703</ele>
        <time>2023-12-02T12:16:04Z</time>
      </trkpt>
      <trkpt lat="43.15572" lon="1.0283">
        <ele>526</ele>
        <time>2023-12-02T12:16:25Z</time>
      </trkpt>
      <trkpt lat="43.15581" lon="1.02819">
        <ele>529</ele>
        <time>2023-12-02T12:16:44Z</time>
      </trkpt>
      <trkpt lat="43.15589" lon="1.02804">
        <ele>532</ele>
        <time>2023-12-02T12:17:01Z</time>
      </trkpt>
      <trkpt lat="43.15605" lon="1.0278">
        <ele>535.20001220703</ele>
        <time>2023-12-02T12:17:27Z</time>
      </trkpt>
      <trkpt lat="43.15621" lon="1.0276">
        <ele>538.20001220703</ele>
        <time>2023-12-02T12:17:51Z</time>
      </trkpt>
      <trkpt lat="43.15631" lon="1.02747">
        <ele>541.20001220703</ele>
        <time>2023-12-02T12:18:14Z</time>
      </trkpt>
      <trkpt lat="43.15638" lon="1.02742">
        <ele>544</ele>
        <time>2023-12-02T12:18:33Z</time>
      </trkpt>
      <trkpt lat="43.15634" lon="1.02744">
        <ele>544.20001220703</ele>
        <time>2023-12-02T12:19:32Z</time>
      </trkpt>
      <trkpt lat="43.15647" lon="1.02732">
        <ele>545.20001220703</ele>
        <time>2023-12-02T12:20:12Z</time>
      </trkpt>
      <trkpt lat="43.15663" lon="1.02716">
        <ele>548.40002441406</ele>
        <time>2023-12-02T12:20:37Z</time>
      </trkpt>
      <trkpt lat="43.15678" lon="1.027">
        <ele>551.59997558594</ele>
        <time>2023-12-02T12:21:00Z</time>
      </trkpt>
      <trkpt lat="43.15691" lon="1.02687">
        <ele>554.59997558594</ele>
        <time>2023-12-02T12:21:21Z</time>
      </trkpt>
      <trkpt lat="43.15702" lon="1.02677">
        <ele>557.79998779297</ele>
        <time>2023-12-02T12:21:41Z</time>
      </trkpt>
      <trkpt lat="43.15709" lon="1.0267">
        <ele>560.79998779297</ele>
        <time>2023-12-02T12:22:07Z</time>
      </trkpt>
      <trkpt lat="43.15722" lon="1.02659">
        <ele>562.20001220703</ele>
        <time>2023-12-02T12:22:38Z</time>
      </trkpt>
      <trkpt lat="43.15736" lon="1.02648">
        <ele>565.20001220703</ele>
        <time>2023-12-02T12:22:55Z</time>
      </trkpt>
      <trkpt lat="43.15747" lon="1.02636">
        <ele>567.79998779297</ele>
        <time>2023-12-02T12:23:13Z</time>
      </trkpt>
      <trkpt lat="43.15759" lon="1.02627">
        <ele>570.79998779297</ele>
        <time>2023-12-02T12:23:31Z</time>
      </trkpt>
      <trkpt lat="43.15772" lon="1.02609">
        <ele>573.79998779297</ele>
        <time>2023-12-02T12:23:56Z</time>
      </trkpt>
      <trkpt lat="43.15783" lon="1.02581">
        <ele>576.40002441406</ele>
        <time>2023-12-02T12:24:23Z</time>
      </trkpt>
      <trkpt lat="43.15793" lon="1.02558">
        <ele>579.59997558594</ele>
        <time>2023-12-02T12:24:47Z</time>
      </trkpt>
      <trkpt lat="43.15803" lon="1.02541">
        <ele>582.20001220703</ele>
        <time>2023-12-02T12:25:09Z</time>
      </trkpt>
      <trkpt lat="43.15815" lon="1.02531">
        <ele>585.40002441406</ele>
        <time>2023-12-02T12:25:28Z</time>
      </trkpt>
      <trkpt lat="43.15824" lon="1.02518">
        <ele>588.40002441406</ele>
        <time>2023-12-02T12:25:48Z</time>
      </trkpt>
      <trkpt lat="43.15835" lon="1.02506">
        <ele>591.40002441406</ele>
        <time>2023-12-02T12:26:08Z</time>
      </trkpt>
      <trkpt lat="43.15841" lon="1.02492">
        <ele>594.20001220703</ele>
        <time>2023-12-02T12:26:37Z</time>
      </trkpt>
      <trkpt lat="43.15849" lon="1.02487">
        <ele>595.20001220703</ele>
        <time>2023-12-02T12:26:59Z</time>
      </trkpt>
      <trkpt lat="43.15859" lon="1.02477">
        <ele>598</ele>
        <time>2023-12-02T12:27:18Z</time>
      </trkpt>
      <trkpt lat="43.1587" lon="1.02471">
        <ele>601</ele>
        <time>2023-12-02T12:27:34Z</time>
      </trkpt>
      <trkpt lat="43.15884" lon="1.0247">
        <ele>604.20001220703</ele>
        <time>2023-12-02T12:27:51Z</time>
      </trkpt>
      <trkpt lat="43.15896" lon="1.02473">
        <ele>607.20001220703</ele>
        <time>2023-12-02T12:28:08Z</time>
      </trkpt>
      <trkpt lat="43.15905" lon="1.02466">
        <ele>610.40002441406</ele>
        <time>2023-12-02T12:28:24Z</time>
      </trkpt>
      <trkpt lat="43.15914" lon="1.02443">
        <ele>612.40002441406</ele>
        <time>2023-12-02T12:28:50Z</time>
      </trkpt>
      <trkpt lat="43.15926" lon="1.02427">
        <ele>613.59997558594</ele>
        <time>2023-12-02T12:29:16Z</time>
      </trkpt>
      <trkpt lat="43.15936" lon="1.02432">
        <ele>616.40002441406</ele>
        <time>2023-12-02T12:29:40Z</time>
      </trkpt>
      <trkpt lat="43.15938" lon="1.02435">
        <ele>617.40002441406</ele>
        <time>2023-12-02T12:30:20Z</time>
      </trkpt>
      <trkpt lat="43.15937" lon="1.02428">
        <ele>617</ele>
        <time>2023-12-02T12:30:40Z</time>
      </trkpt>
      <trkpt lat="43.15943" lon="1.02425">
        <ele>617.20001220703</ele>
        <time>2023-12-02T12:31:09Z</time>
      </trkpt>
      <trkpt lat="43.1594" lon="1.02429">
        <ele>617</ele>
        <time>2023-12-02T12:31:37Z</time>
      </trkpt>
      <trkpt lat="43.15939" lon="1.02432">
        <ele>617.40002441406</ele>
        <time>2023-12-02T12:32:01Z</time>
      </trkpt>
      <trkpt lat="43.15937" lon="1.0243">
        <ele>616.59997558594</ele>
        <time>2023-12-02T12:32:21Z</time>
      </trkpt>
      <trkpt lat="43.1594" lon="1.02427">
        <ele>616</ele>
        <time>2023-12-02T12:33:26Z</time>
      </trkpt>
      <trkpt lat="43.1594" lon="1.02427">
        <ele>616.40002441406</ele>
        <time>2023-12-02T12:34:00Z</time>
      </trkpt>
      <trkpt lat="43.15941" lon="1.02421">
        <ele>616.40002441406</ele>
        <time>2023-12-02T12:34:33Z</time>
      </trkpt>
      <trkpt lat="43.15942" lon="1.02411">
        <ele>616</ele>
        <time>2023-12-02T12:34:52Z</time>
      </trkpt>
      <trkpt lat="43.15951" lon="1.02394">
        <ele>614</ele>
        <time>2023-12-02T12:35:09Z</time>
      </trkpt>
      <trkpt lat="43.15957" lon="1.0239">
        <ele>613.79998779297</ele>
        <time>2023-12-02T12:35:14Z</time>
      </trkpt>
      <trkpt lat="43.15966" lon="1.02379">
        <ele>613.20001220703</ele>
        <time>2023-12-02T12:35:31Z</time>
      </trkpt>
      <trkpt lat="43.15968" lon="1.02363">
        <ele>611.20001220703</ele>
        <time>2023-12-02T12:35:53Z</time>
      </trkpt>
      <trkpt lat="43.1597" lon="1.02353">
        <ele>608.79998779297</ele>
        <time>2023-12-02T12:36:25Z</time>
      </trkpt>
      <trkpt lat="43.1597" lon="1.02352">
        <ele>608.20001220703</ele>
        <time>2023-12-02T12:36:52Z</time>
      </trkpt>
      <trkpt lat="43.15973" lon="1.02352">
        <ele>608.20001220703</ele>
        <time>2023-12-02T12:37:30Z</time>
      </trkpt>
      <trkpt lat="43.15975" lon="1.02351">
        <ele>608</ele>
        <time>2023-12-02T12:37:45Z</time>
      </trkpt>
      <trkpt lat="43.15976" lon="1.02351">
        <ele>608.20001220703</ele>
        <time>2023-12-02T12:38:15Z</time>
      </trkpt>
      <trkpt lat="43.15975" lon="1.02352">
        <ele>608.40002441406</ele>
        <time>2023-12-02T12:38:39Z</time>
      </trkpt>
      <trkpt lat="43.15975" lon="1.0235">
        <ele>607.79998779297</ele>
        <time>2023-12-02T12:39:02Z</time>
      </trkpt>
      <trkpt lat="43.15971" lon="1.02343">
        <ele>607.59997558594</ele>
        <time>2023-12-02T12:39:30Z</time>
      </trkpt>
      <trkpt lat="43.15967" lon="1.02337">
        <ele>605.20001220703</ele>
        <time>2023-12-02T12:39:46Z</time>
      </trkpt>
      <trkpt lat="43.15966" lon="1.02329">
        <ele>602.59997558594</ele>
        <time>2023-12-02T12:40:14Z</time>
      </trkpt>
      <trkpt lat="43.15963" lon="1.02323">
        <ele>600.20001220703</ele>
        <time>2023-12-02T12:40:37Z</time>
      </trkpt>
      <trkpt lat="43.1596" lon="1.02317">
        <ele>598.20001220703</ele>
        <time>2023-12-02T12:40:59Z</time>
      </trkpt>
      <trkpt lat="43.15954" lon="1.02312">
        <ele>596</ele>
        <time>2023-12-02T12:41:24Z</time>
      </trkpt>
      <trkpt lat="43.15951" lon="1.02301">
        <ele>592.79998779297</ele>
        <time>2023-12-02T12:41:45Z</time>
      </trkpt>
      <trkpt lat="43.15945" lon="1.02296">
        <ele>589.79998779297</ele>
        <time>2023-12-02T12:42:03Z</time>
      </trkpt>
      <trkpt lat="43.1594" lon="1.02284">
        <ele>586.59997558594</ele>
        <time>2023-12-02T12:42:22Z</time>
      </trkpt>
      <trkpt lat="43.15931" lon="1.02281">
        <ele>583.40002441406</ele>
        <time>2023-12-02T12:42:38Z</time>
      </trkpt>
      <trkpt lat="43.15913" lon="1.02277">
        <ele>581.40002441406</ele>
        <time>2023-12-02T12:43:02Z</time>
      </trkpt>
      <trkpt lat="43.15897" lon="1.02279">
        <ele>578.20001220703</ele>
        <time>2023-12-02T12:43:20Z</time>
      </trkpt>
      <trkpt lat="43.15879" lon="1.02276">
        <ele>575</ele>
        <time>2023-12-02T12:43:41Z</time>
      </trkpt>
      <trkpt lat="43.15868" lon="1.02271">
        <ele>572</ele>
        <time>2023-12-02T12:43:58Z</time>
      </trkpt>
      <trkpt lat="43.15861" lon="1.0226">
        <ele>568.79998779297</ele>
        <time>2023-12-02T12:44:14Z</time>
      </trkpt>
      <trkpt lat="43.15855" lon="1.02251">
        <ele>565.79998779297</ele>
        <time>2023-12-02T12:44:27Z</time>
      </trkpt>
      <trkpt lat="43.15851" lon="1.02238">
        <ele>562.59997558594</ele>
        <time>2023-12-02T12:44:41Z</time>
      </trkpt>
      <trkpt lat="43.15841" lon="1.02228">
        <ele>559.59997558594</ele>
        <time>2023-12-02T12:44:54Z</time>
      </trkpt>
      <trkpt lat="43.15822" lon="1.02226">
        <ele>556.59997558594</ele>
        <time>2023-12-02T12:45:13Z</time>
      </trkpt>
      <trkpt lat="43.15804" lon="1.02223">
        <ele>553.59997558594</ele>
        <time>2023-12-02T12:45:36Z</time>
      </trkpt>
      <trkpt lat="43.15793" lon="1.0221">
        <ele>550.59997558594</ele>
        <time>2023-12-02T12:45:54Z</time>
      </trkpt>
      <trkpt lat="43.15783" lon="1.02206">
        <ele>548.20001220703</ele>
        <time>2023-12-02T12:46:06Z</time>
      </trkpt>
      <trkpt lat="43.15767" lon="1.02187">
        <ele>545</ele>
        <time>2023-12-02T12:46:28Z</time>
      </trkpt>
      <trkpt lat="43.15758" lon="1.02176">
        <ele>542.59997558594</ele>
        <time>2023-12-02T12:46:41Z</time>
      </trkpt>
      <trkpt lat="43.15756" lon="1.02161">
        <ele>539.59997558594</ele>
        <time>2023-12-02T12:47:00Z</time>
      </trkpt>
      <trkpt lat="43.15752" lon="1.02164">
        <ele>538.79998779297</ele>
        <time>2023-12-02T12:47:33Z</time>
      </trkpt>
      <trkpt lat="43.15755" lon="1.02161">
        <ele>539</ele>
        <time>2023-12-02T12:48:06Z</time>
      </trkpt>
      <trkpt lat="43.15756" lon="1.02162">
        <ele>539.40002441406</ele>
        <time>2023-12-02T12:48:51Z</time>
      </trkpt>
      <trkpt lat="43.15756" lon="1.02161">
        <ele>539.40002441406</ele>
        <time>2023-12-02T12:49:17Z</time>
      </trkpt>
      <trkpt lat="43.15756" lon="1.02161">
        <ele>539.20001220703</ele>
        <time>2023-12-02T12:49:49Z</time>
      </trkpt>
      <trkpt lat="43.15754" lon="1.02157">
        <ele>539.59997558594</ele>
        <time>2023-12-02T12:50:20Z</time>
      </trkpt>
      <trkpt lat="43.15753" lon="1.02148">
        <ele>539.59997558594</ele>
        <time>2023-12-02T12:51:02Z</time>
      </trkpt>
      <trkpt lat="43.15758" lon="1.02137">
        <ele>539</ele>
        <time>2023-12-02T12:51:21Z</time>
      </trkpt>
      <trkpt lat="43.15758" lon="1.02129">
        <ele>538.59997558594</ele>
        <time>2023-12-02T12:51:27Z</time>
      </trkpt>
      <trkpt lat="43.15759" lon="1.02115">
        <ele>538.20001220703</ele>
        <time>2023-12-02T12:51:39Z</time>
      </trkpt>
      <trkpt lat="43.15759" lon="1.02095">
        <ele>537.79998779297</ele>
        <time>2023-12-02T12:51:53Z</time>
      </trkpt>
      <trkpt lat="43.1576" lon="1.02091">
        <ele>537.79998779297</ele>
        <time>2023-12-02T12:51:56Z</time>
      </trkpt>
      <trkpt lat="43.15758" lon="1.02069">
        <ele>537.59997558594</ele>
        <time>2023-12-02T12:52:11Z</time>
      </trkpt>
      <trkpt lat="43.15753" lon="1.02047">
        <ele>539.20001220703</ele>
        <time>2023-12-02T12:52:28Z</time>
      </trkpt>
      <trkpt lat="43.1575" lon="1.02027">
        <ele>539.40002441406</ele>
        <time>2023-12-02T12:52:43Z</time>
      </trkpt>
      <trkpt lat="43.15751" lon="1.02005">
        <ele>539.40002441406</ele>
        <time>2023-12-02T12:52:58Z</time>
      </trkpt>
      <trkpt lat="43.15752" lon="1.01983">
        <ele>539.59997558594</ele>
        <time>2023-12-02T12:53:14Z</time>
      </trkpt>
      <trkpt lat="43.15752" lon="1.0196">
        <ele>539.40002441406</ele>
        <time>2023-12-02T12:53:30Z</time>
      </trkpt>
      <trkpt lat="43.15754" lon="1.01936">
        <ele>538.59997558594</ele>
        <time>2023-12-02T12:53:46Z</time>
      </trkpt>
      <trkpt lat="43.15756" lon="1.01913">
        <ele>537.40002441406</ele>
        <time>2023-12-02T12:54:04Z</time>
      </trkpt>
      <trkpt lat="43.15759" lon="1.01878">
        <ele>536</ele>
        <time>2023-12-02T12:54:29Z</time>
      </trkpt>
      <trkpt lat="43.15759" lon="1.01854">
        <ele>533.79998779297</ele>
        <time>2023-12-02T12:54:48Z</time>
      </trkpt>
      <trkpt lat="43.15763" lon="1.01834">
        <ele>532.20001220703</ele>
        <time>2023-12-02T12:55:06Z</time>
      </trkpt>
      <trkpt lat="43.15764" lon="1.01815">
        <ele>531.20001220703</ele>
        <time>2023-12-02T12:55:22Z</time>
      </trkpt>
      <trkpt lat="43.15762" lon="1.018">
        <ele>530.79998779297</ele>
        <time>2023-12-02T12:55:52Z</time>
      </trkpt>
      <trkpt lat="43.15754" lon="1.01805">
        <ele>530.20001220703</ele>
        <time>2023-12-02T12:56:06Z</time>
      </trkpt>
      <trkpt lat="43.15749" lon="1.01811">
        <ele>529.59997558594</ele>
        <time>2023-12-02T12:56:29Z</time>
      </trkpt>
      <trkpt lat="43.15742" lon="1.01812">
        <ele>529.40002441406</ele>
        <time>2023-12-02T12:57:10Z</time>
      </trkpt>
      <trkpt lat="43.15733" lon="1.0181">
        <ele>528.20001220703</ele>
        <time>2023-12-02T12:57:35Z</time>
      </trkpt>
      <trkpt lat="43.15721" lon="1.01797">
        <ele>526.20001220703</ele>
        <time>2023-12-02T12:57:56Z</time>
      </trkpt>
      <trkpt lat="43.15716" lon="1.01781">
        <ele>523.40002441406</ele>
        <time>2023-12-02T12:58:18Z</time>
      </trkpt>
      <trkpt lat="43.15711" lon="1.01764">
        <ele>521.20001220703</ele>
        <time>2023-12-02T12:58:39Z</time>
      </trkpt>
      <trkpt lat="43.157" lon="1.01747">
        <ele>518</ele>
        <time>2023-12-02T12:59:05Z</time>
      </trkpt>
      <trkpt lat="43.15695" lon="1.01742">
        <ele>515.40002441406</ele>
        <time>2023-12-02T12:59:42Z</time>
      </trkpt>
      <trkpt lat="43.15694" lon="1.01741">
        <ele>515.20001220703</ele>
        <time>2023-12-02T13:00:03Z</time>
      </trkpt>
      <trkpt lat="43.15685" lon="1.01733">
        <ele>514.40002441406</ele>
        <time>2023-12-02T13:00:23Z</time>
      </trkpt>
      <trkpt lat="43.15678" lon="1.01722">
        <ele>511.39999389648</ele>
        <time>2023-12-02T13:00:38Z</time>
      </trkpt>
      <trkpt lat="43.15671" lon="1.01714">
        <ele>509.39999389648</ele>
        <time>2023-12-02T13:00:48Z</time>
      </trkpt>
      <trkpt lat="43.15658" lon="1.01702">
        <ele>506.79998779297</ele>
        <time>2023-12-02T13:01:04Z</time>
      </trkpt>
      <trkpt lat="43.15649" lon="1.01693">
        <ele>503.79998779297</ele>
        <time>2023-12-02T13:01:19Z</time>
      </trkpt>
      <trkpt lat="43.15637" lon="1.01691">
        <ele>501.20001220703</ele>
        <time>2023-12-02T13:01:36Z</time>
      </trkpt>
      <trkpt lat="43.15626" lon="1.01691">
        <ele>498.20001220703</ele>
        <time>2023-12-02T13:01:52Z</time>
      </trkpt>
      <trkpt lat="43.15623" lon="1.01691">
        <ele>497.39999389648</ele>
        <time>2023-12-02T13:01:56Z</time>
      </trkpt>
      <trkpt lat="43.1561" lon="1.01687">
        <ele>494</ele>
        <time>2023-12-02T13:02:10Z</time>
      </trkpt>
      <trkpt lat="43.15598" lon="1.01683">
        <ele>491</ele>
        <time>2023-12-02T13:02:24Z</time>
      </trkpt>
      <trkpt lat="43.15584" lon="1.01684">
        <ele>487.79998779297</ele>
        <time>2023-12-02T13:02:37Z</time>
      </trkpt>
      <trkpt lat="43.15567" lon="1.01685">
        <ele>484.79998779297</ele>
        <time>2023-12-02T13:02:53Z</time>
      </trkpt>
      <trkpt lat="43.15546" lon="1.01681">
        <ele>482</ele>
        <time>2023-12-02T13:03:13Z</time>
      </trkpt>
      <trkpt lat="43.1554" lon="1.01673">
        <ele>480.39999389648</ele>
        <time>2023-12-02T13:03:21Z</time>
      </trkpt>
      <trkpt lat="43.15517" lon="1.01669">
        <ele>477.39999389648</ele>
        <time>2023-12-02T13:03:43Z</time>
      </trkpt>
      <trkpt lat="43.15501" lon="1.01673">
        <ele>474.20001220703</ele>
        <time>2023-12-02T13:04:01Z</time>
      </trkpt>
      <trkpt lat="43.15483" lon="1.01681">
        <ele>471</ele>
        <time>2023-12-02T13:04:18Z</time>
      </trkpt>
      <trkpt lat="43.15464" lon="1.01689">
        <ele>468</ele>
        <time>2023-12-02T13:04:36Z</time>
      </trkpt>
      <trkpt lat="43.15444" lon="1.01696">
        <ele>464.79998779297</ele>
        <time>2023-12-02T13:04:55Z</time>
      </trkpt>
      <trkpt lat="43.15424" lon="1.01702">
        <ele>461.79998779297</ele>
        <time>2023-12-02T13:05:15Z</time>
      </trkpt>
      <trkpt lat="43.15402" lon="1.0171">
        <ele>458.60000610352</ele>
        <time>2023-12-02T13:05:35Z</time>
      </trkpt>
      <trkpt lat="43.15379" lon="1.01709">
        <ele>455.60000610352</ele>
        <time>2023-12-02T13:05:57Z</time>
      </trkpt>
      <trkpt lat="43.1536" lon="1.01706">
        <ele>452.39999389648</ele>
        <time>2023-12-02T13:06:16Z</time>
      </trkpt>
      <trkpt lat="43.1535" lon="1.01707">
        <ele>451</ele>
        <time>2023-12-02T13:06:27Z</time>
      </trkpt>
      <trkpt lat="43.15338" lon="1.01711">
        <ele>448</ele>
        <time>2023-12-02T13:06:47Z</time>
      </trkpt>
      <trkpt lat="43.15318" lon="1.01721">
        <ele>446.60000610352</ele>
        <time>2023-12-02T13:07:05Z</time>
      </trkpt>
      <trkpt lat="43.15309" lon="1.01741">
        <ele>444.60000610352</ele>
        <time>2023-12-02T13:07:21Z</time>
      </trkpt>
      <trkpt lat="43.15291" lon="1.01769">
        <ele>442.20001220703</ele>
        <time>2023-12-02T13:07:44Z</time>
      </trkpt>
      <trkpt lat="43.15286" lon="1.01769">
        <ele>441.79998779297</ele>
        <time>2023-12-02T13:07:48Z</time>
      </trkpt>
      <trkpt lat="43.15276" lon="1.01746">
        <ele>439</ele>
        <time>2023-12-02T13:08:05Z</time>
      </trkpt>
      <trkpt lat="43.15272" lon="1.01743">
        <ele>438.79998779297</ele>
        <time>2023-12-02T13:08:09Z</time>
      </trkpt>
      <trkpt lat="43.15265" lon="1.01738">
        <ele>437</ele>
        <time>2023-12-02T13:08:26Z</time>
      </trkpt>
      <trkpt lat="43.15265" lon="1.01736">
        <ele>437</ele>
        <time>2023-12-02T13:08:45Z</time>
      </trkpt>
      <trkpt lat="43.15264" lon="1.01736">
        <ele>437</ele>
        <time>2023-12-02T13:08:52Z</time>
      </trkpt>
      <trkpt lat="43.15259" lon="1.01735">
        <ele>437</ele>
        <time>2023-12-02T13:08:58Z</time>
      </trkpt>
      <trkpt lat="43.15239" lon="1.01728">
        <ele>435.60000610352</ele>
        <time>2023-12-02T13:09:18Z</time>
      </trkpt>
      <trkpt lat="43.1523" lon="1.01725">
        <ele>433.79998779297</ele>
        <time>2023-12-02T13:09:35Z</time>
      </trkpt>
      <trkpt lat="43.15225" lon="1.0172">
        <ele>433.39999389648</ele>
        <time>2023-12-02T13:10:05Z</time>
      </trkpt>
      <trkpt lat="43.15215" lon="1.01718">
        <ele>432.20001220703</ele>
        <time>2023-12-02T13:10:30Z</time>
      </trkpt>
      <trkpt lat="43.15207" lon="1.0172">
        <ele>431.79998779297</ele>
        <time>2023-12-02T13:10:41Z</time>
      </trkpt>
      <trkpt lat="43.15199" lon="1.01727">
        <ele>430.60000610352</ele>
        <time>2023-12-02T13:11:01Z</time>
      </trkpt>
      <trkpt lat="43.15195" lon="1.01741">
        <ele>430</ele>
        <time>2023-12-02T13:11:14Z</time>
      </trkpt>
      <trkpt lat="43.15187" lon="1.0176">
        <ele>429.39999389648</ele>
        <time>2023-12-02T13:11:31Z</time>
      </trkpt>
      <trkpt lat="43.15182" lon="1.01765">
        <ele>428.79998779297</ele>
        <time>2023-12-02T13:11:47Z</time>
      </trkpt>
      <trkpt lat="43.15174" lon="1.01783">
        <ele>427.39999389648</ele>
        <time>2023-12-02T13:12:04Z</time>
      </trkpt>
      <trkpt lat="43.15161" lon="1.01782">
        <ele>424.79998779297</ele>
        <time>2023-12-02T13:12:24Z</time>
      </trkpt>
      <trkpt lat="43.15145" lon="1.01788">
        <ele>421.79998779297</ele>
        <time>2023-12-02T13:12:43Z</time>
      </trkpt>
      <trkpt lat="43.15132" lon="1.01788">
        <ele>418.79998779297</ele>
        <time>2023-12-02T13:13:01Z</time>
      </trkpt>
      <trkpt lat="43.15114" lon="1.01794">
        <ele>415.79998779297</ele>
        <time>2023-12-02T13:13:16Z</time>
      </trkpt>
      <trkpt lat="43.15102" lon="1.01794">
        <ele>412.60000610352</ele>
        <time>2023-12-02T13:13:32Z</time>
      </trkpt>
      <trkpt lat="43.15092" lon="1.01809">
        <ele>410.20001220703</ele>
        <time>2023-12-02T13:13:48Z</time>
      </trkpt>
      <trkpt lat="43.15079" lon="1.01829">
        <ele>407</ele>
        <time>2023-12-02T13:14:09Z</time>
      </trkpt>
      <trkpt lat="43.15067" lon="1.01843">
        <ele>404.60000610352</ele>
        <time>2023-12-02T13:14:26Z</time>
      </trkpt>
      <trkpt lat="43.15053" lon="1.01864">
        <ele>401.39999389648</ele>
        <time>2023-12-02T13:14:48Z</time>
      </trkpt>
      <trkpt lat="43.15038" lon="1.01895">
        <ele>398.39999389648</ele>
        <time>2023-12-02T13:15:08Z</time>
      </trkpt>
      <trkpt lat="43.15027" lon="1.01913">
        <ele>396.60000610352</ele>
        <time>2023-12-02T13:15:24Z</time>
      </trkpt>
      <trkpt lat="43.15019" lon="1.01925">
        <ele>395.20001220703</ele>
        <time>2023-12-02T13:15:37Z</time>
      </trkpt>
      <trkpt lat="43.15016" lon="1.01929">
        <ele>395</ele>
        <time>2023-12-02T13:15:40Z</time>
      </trkpt>
      <trkpt lat="43.15001" lon="1.0195">
        <ele>394</ele>
        <time>2023-12-02T13:15:59Z</time>
      </trkpt>
      <trkpt lat="43.14983" lon="1.01959">
        <ele>393.79998779297</ele>
        <time>2023-12-02T13:16:15Z</time>
      </trkpt>
      <trkpt lat="43.14968" lon="1.01971">
        <ele>393.39999389648</ele>
        <time>2023-12-02T13:16:30Z</time>
      </trkpt>
      <trkpt lat="43.14949" lon="1.01983">
        <ele>392.60000610352</ele>
        <time>2023-12-02T13:16:47Z</time>
      </trkpt>
      <trkpt lat="43.14933" lon="1.01989">
        <ele>392</ele>
        <time>2023-12-02T13:17:00Z</time>
      </trkpt>
      <trkpt lat="43.14913" lon="1.02001">
        <ele>391</ele>
        <time>2023-12-02T13:17:15Z</time>
      </trkpt>
      <trkpt lat="43.149" lon="1.02011">
        <ele>390.20001220703</ele>
        <time>2023-12-02T13:17:28Z</time>
      </trkpt>
      <trkpt lat="43.14889" lon="1.02031">
        <ele>390.39999389648</ele>
        <time>2023-12-02T13:17:43Z</time>
      </trkpt>
      <trkpt lat="43.14885" lon="1.02057">
        <ele>391.20001220703</ele>
        <time>2023-12-02T13:17:59Z</time>
      </trkpt>
      <trkpt lat="43.14886" lon="1.02083">
        <ele>392.20001220703</ele>
        <time>2023-12-02T13:18:14Z</time>
      </trkpt>
      <trkpt lat="43.14884" lon="1.02106">
        <ele>393.60000610352</ele>
        <time>2023-12-02T13:18:30Z</time>
      </trkpt>
      <trkpt lat="43.14883" lon="1.02129">
        <ele>394.79998779297</ele>
        <time>2023-12-02T13:18:46Z</time>
      </trkpt>
      <trkpt lat="43.14873" lon="1.02151">
        <ele>396</ele>
        <time>2023-12-02T13:19:02Z</time>
      </trkpt>
      <trkpt lat="43.1485" lon="1.02168">
        <ele>394.79998779297</ele>
        <time>2023-12-02T13:19:28Z</time>
      </trkpt>
      <trkpt lat="43.14843" lon="1.02187">
        <ele>393.20001220703</ele>
        <time>2023-12-02T13:19:45Z</time>
      </trkpt>
      <trkpt lat="43.14838" lon="1.02198">
        <ele>392</ele>
        <time>2023-12-02T13:19:54Z</time>
      </trkpt>
      <trkpt lat="43.14837" lon="1.02201">
        <ele>391.79998779297</ele>
        <time>2023-12-02T13:19:56Z</time>
      </trkpt>
      <trkpt lat="43.14837" lon="1.02203">
        <ele>391.60000610352</ele>
        <time>2023-12-02T13:19:57Z</time>
      </trkpt>
      <trkpt lat="43.14836" lon="1.02204">
        <ele>391.60000610352</ele>
        <time>2023-12-02T13:19:58Z</time>
      </trkpt>
      <trkpt lat="43.14836" lon="1.02205">
        <ele>391.60000610352</ele>
        <time>2023-12-02T13:19:59Z</time>
      </trkpt>
      <trkpt lat="43.14828" lon="1.02223">
        <ele>389.79998779297</ele>
        <time>2023-12-02T13:20:13Z</time>
      </trkpt>
      <trkpt lat="43.1482" lon="1.02234">
        <ele>388.79998779297</ele>
        <time>2023-12-02T13:20:23Z</time>
      </trkpt>
      <trkpt lat="43.14819" lon="1.02254">
        <ele>387.20001220703</ele>
        <time>2023-12-02T13:20:38Z</time>
      </trkpt>
      <trkpt lat="43.1482" lon="1.02259">
        <ele>386.39999389648</ele>
        <time>2023-12-02T13:20:58Z</time>
      </trkpt>
      <trkpt lat="43.14819" lon="1.02263">
        <ele>386.60000610352</ele>
        <time>2023-12-02T13:21:42Z</time>
      </trkpt>
      <trkpt lat="43.14821" lon="1.02261">
        <ele>386.79998779297</ele>
        <time>2023-12-02T13:22:02Z</time>
      </trkpt>
      <trkpt lat="43.14821" lon="1.02262">
        <ele>387</ele>
        <time>2023-12-02T13:22:21Z</time>
      </trkpt>
      <trkpt lat="43.14819" lon="1.02264">
        <ele>387</ele>
        <time>2023-12-02T13:22:24Z</time>
      </trkpt>
      <trkpt lat="43.14817" lon="1.02265">
        <ele>387</ele>
        <time>2023-12-02T13:22:26Z</time>
      </trkpt>
      <trkpt lat="43.14816" lon="1.02266">
        <ele>387</ele>
        <time>2023-12-02T13:22:27Z</time>
      </trkpt>
      <trkpt lat="43.14811" lon="1.0227">
        <ele>386.79998779297</ele>
        <time>2023-12-02T13:22:33Z</time>
      </trkpt>
      <trkpt lat="43.1481" lon="1.0227">
        <ele>386.79998779297</ele>
        <time>2023-12-02T13:22:34Z</time>
      </trkpt>
      <trkpt lat="43.14809" lon="1.02271">
        <ele>386.79998779297</ele>
        <time>2023-12-02T13:22:35Z</time>
      </trkpt>
      <trkpt lat="43.14808" lon="1.02271">
        <ele>386.60000610352</ele>
        <time>2023-12-02T13:22:36Z</time>
      </trkpt>
      <trkpt lat="43.14806" lon="1.02272">
        <ele>386.39999389648</ele>
        <time>2023-12-02T13:22:37Z</time>
      </trkpt>
      <trkpt lat="43.14782" lon="1.02274">
        <ele>384.60000610352</ele>
        <time>2023-12-02T13:22:59Z</time>
      </trkpt>
      <trkpt lat="43.1478" lon="1.02285">
        <ele>383.60000610352</ele>
        <time>2023-12-02T13:23:09Z</time>
      </trkpt>
      <trkpt lat="43.14784" lon="1.02293">
        <ele>382.79998779297</ele>
        <time>2023-12-02T13:23:16Z</time>
      </trkpt>
      <trkpt lat="43.14784" lon="1.02295">
        <ele>382.60000610352</ele>
        <time>2023-12-02T13:23:17Z</time>
      </trkpt>
      <trkpt lat="43.14796" lon="1.02323">
        <ele>379.60000610352</ele>
        <time>2023-12-02T13:23:39Z</time>
      </trkpt>
      <trkpt lat="43.14803" lon="1.02351">
        <ele>378.79998779297</ele>
        <time>2023-12-02T13:23:57Z</time>
      </trkpt>
      <trkpt lat="43.14806" lon="1.02362">
        <ele>379</ele>
        <time>2023-12-02T13:24:06Z</time>
      </trkpt>
      <trkpt lat="43.14815" lon="1.02386">
        <ele>381.20001220703</ele>
        <time>2023-12-02T13:24:26Z</time>
      </trkpt>
      <trkpt lat="43.14832" lon="1.02406">
        <ele>384</ele>
        <time>2023-12-02T13:24:46Z</time>
      </trkpt>
      <trkpt lat="43.14836" lon="1.02423">
        <ele>386.20001220703</ele>
        <time>2023-12-02T13:24:59Z</time>
      </trkpt>
      <trkpt lat="43.14836" lon="1.02427">
        <ele>386.79998779297</ele>
        <time>2023-12-02T13:25:02Z</time>
      </trkpt>
      <trkpt lat="43.14836" lon="1.02429">
        <ele>386.79998779297</ele>
        <time>2023-12-02T13:25:03Z</time>
      </trkpt>
      <trkpt lat="43.14838" lon="1.02447">
        <ele>389.20001220703</ele>
        <time>2023-12-02T13:25:17Z</time>
      </trkpt>
      <trkpt lat="43.14836" lon="1.02458">
        <ele>390.20001220703</ele>
        <time>2023-12-02T13:25:26Z</time>
      </trkpt>
      <trkpt lat="43.14835" lon="1.02459">
        <ele>390.20001220703</ele>
        <time>2023-12-02T13:25:27Z</time>
      </trkpt>
      <trkpt lat="43.14834" lon="1.0246">
        <ele>390.20001220703</ele>
        <time>2023-12-02T13:25:28Z</time>
      </trkpt>
      <trkpt lat="43.14828" lon="1.02483">
        <ele>391.39999389648</ele>
        <time>2023-12-02T13:25:48Z</time>
      </trkpt>
      <trkpt lat="43.14824" lon="1.02512">
        <ele>393.79998779297</ele>
        <time>2023-12-02T13:26:13Z</time>
      </trkpt>
      <trkpt lat="43.14811" lon="1.02536">
        <ele>396.20001220703</ele>
        <time>2023-12-02T13:26:36Z</time>
      </trkpt>
      <trkpt lat="43.14803" lon="1.02564">
        <ele>396.20001220703</ele>
        <time>2023-12-02T13:26:59Z</time>
      </trkpt>
      <trkpt lat="43.14801" lon="1.02573">
        <ele>393.60000610352</ele>
        <time>2023-12-02T13:27:18Z</time>
      </trkpt>
      <trkpt lat="43.14796" lon="1.02595">
        <ele>392.20001220703</ele>
        <time>2023-12-02T13:27:30Z</time>
      </trkpt>
      <trkpt lat="43.14787" lon="1.0262">
        <ele>389.39999389648</ele>
        <time>2023-12-02T13:27:40Z</time>
      </trkpt>
      <trkpt lat="43.14786" lon="1.02626">
        <ele>386.60000610352</ele>
        <time>2023-12-02T13:27:55Z</time>
      </trkpt>
      <trkpt lat="43.14785" lon="1.02631">
        <ele>386.60000610352</ele>
        <time>2023-12-02T13:27:58Z</time>
      </trkpt>
      <trkpt lat="43.14774" lon="1.0264">
        <ele>385.20001220703</ele>
        <time>2023-12-02T13:28:13Z</time>
      </trkpt>
      <trkpt lat="43.14774" lon="1.0264">
        <ele>384.79998779297</ele>
        <time>2023-12-02T13:28:42Z</time>
      </trkpt>
      <trkpt lat="43.14774" lon="1.02642">
        <ele>384.39999389648</ele>
        <time>2023-12-02T13:29:19Z</time>
      </trkpt>
      <trkpt lat="43.1477" lon="1.02654">
        <ele>384.39999389648</ele>
        <time>2023-12-02T13:29:45Z</time>
      </trkpt>
      <trkpt lat="43.14763" lon="1.02666">
        <ele>387</ele>
        <time>2023-12-02T13:30:06Z</time>
      </trkpt>
      <trkpt lat="43.14754" lon="1.02686">
        <ele>389.60000610352</ele>
        <time>2023-12-02T13:30:26Z</time>
      </trkpt>
      <trkpt lat="43.14753" lon="1.02693">
        <ele>390.79998779297</ele>
        <time>2023-12-02T13:30:31Z</time>
      </trkpt>
      <trkpt lat="43.14758" lon="1.02716">
        <ele>394.20001220703</ele>
        <time>2023-12-02T13:30:51Z</time>
      </trkpt>
      <trkpt lat="43.14766" lon="1.02729">
        <ele>397.39999389648</ele>
        <time>2023-12-02T13:31:06Z</time>
      </trkpt>
      <trkpt lat="43.14772" lon="1.02743">
        <ele>399.60000610352</ele>
        <time>2023-12-02T13:31:28Z</time>
      </trkpt>
      <trkpt lat="43.14772" lon="1.02757">
        <ele>402.60000610352</ele>
        <time>2023-12-02T13:31:48Z</time>
      </trkpt>
      <trkpt lat="43.14775" lon="1.02747">
        <ele>401.60000610352</ele>
        <time>2023-12-02T13:32:05Z</time>
      </trkpt>
      <trkpt lat="43.14773" lon="1.02735">
        <ele>399.79998779297</ele>
        <time>2023-12-02T13:32:17Z</time>
      </trkpt>
      <trkpt lat="43.14764" lon="1.02724">
        <ele>398.20001220703</ele>
        <time>2023-12-02T13:32:35Z</time>
      </trkpt>
      <trkpt lat="43.14757" lon="1.02709">
        <ele>396.20001220703</ele>
        <time>2023-12-02T13:32:47Z</time>
      </trkpt>
      <trkpt lat="43.14754" lon="1.02689">
        <ele>392.79998779297</ele>
        <time>2023-12-02T13:32:59Z</time>
      </trkpt>
      <trkpt lat="43.14757" lon="1.02676">
        <ele>389.79998779297</ele>
        <time>2023-12-02T13:33:13Z</time>
      </trkpt>
      <trkpt lat="43.14762" lon="1.02666">
        <ele>388</ele>
        <time>2023-12-02T13:33:41Z</time>
      </trkpt>
      <trkpt lat="43.14767" lon="1.02653">
        <ele>386</ele>
        <time>2023-12-02T13:34:03Z</time>
      </trkpt>
      <trkpt lat="43.14769" lon="1.02648">
        <ele>384</ele>
        <time>2023-12-02T13:34:25Z</time>
      </trkpt>
      <trkpt lat="43.14762" lon="1.02661">
        <ele>384</ele>
        <time>2023-12-02T13:34:58Z</time>
      </trkpt>
      <trkpt lat="43.14758" lon="1.02671">
        <ele>387</ele>
        <time>2023-12-02T13:35:09Z</time>
      </trkpt>
      <trkpt lat="43.14757" lon="1.02686">
        <ele>390.20001220703</ele>
        <time>2023-12-02T13:35:29Z</time>
      </trkpt>
      <trkpt lat="43.14754" lon="1.02693">
        <ele>391.20001220703</ele>
        <time>2023-12-02T13:36:17Z</time>
      </trkpt>
      <trkpt lat="43.14748" lon="1.02695">
        <ele>391.20001220703</ele>
        <time>2023-12-02T13:37:03Z</time>
      </trkpt>
      <trkpt lat="43.14753" lon="1.02704">
        <ele>392.60000610352</ele>
        <time>2023-12-02T13:37:24Z</time>
      </trkpt>
      <trkpt lat="43.14761" lon="1.02714">
        <ele>394.20001220703</ele>
        <time>2023-12-02T13:37:42Z</time>
      </trkpt>
      <trkpt lat="43.14764" lon="1.02727">
        <ele>396.60000610352</ele>
        <time>2023-12-02T13:37:58Z</time>
      </trkpt>
      <trkpt lat="43.14773" lon="1.0274">
        <ele>399</ele>
        <time>2023-12-02T13:38:20Z</time>
      </trkpt>
      <trkpt lat="43.14773" lon="1.02753">
        <ele>400</ele>
        <time>2023-12-02T13:38:33Z</time>
      </trkpt>
      <trkpt lat="43.1477" lon="1.02761">
        <ele>402.60000610352</ele>
        <time>2023-12-02T13:38:49Z</time>
      </trkpt>
      <trkpt lat="43.14752" lon="1.0276">
        <ele>403</ele>
        <time>2023-12-02T13:39:12Z</time>
      </trkpt>
      <trkpt lat="43.14745" lon="1.02759">
        <ele>404</ele>
        <time>2023-12-02T13:39:33Z</time>
      </trkpt>
      <trkpt lat="43.14744" lon="1.02759">
        <ele>404</ele>
        <time>2023-12-02T13:39:37Z</time>
      </trkpt>
      <trkpt lat="43.14734" lon="1.02768">
        <ele>406.20001220703</ele>
        <time>2023-12-02T13:40:00Z</time>
      </trkpt>
      <trkpt lat="43.14731" lon="1.02759">
        <ele>406.60000610352</ele>
        <time>2023-12-02T13:40:58Z</time>
      </trkpt>
      <trkpt lat="43.14724" lon="1.02763">
        <ele>406.79998779297</ele>
        <time>2023-12-02T13:41:58Z</time>
      </trkpt>
      <trkpt lat="43.14713" lon="1.02764">
        <ele>407.79998779297</ele>
        <time>2023-12-02T13:42:13Z</time>
      </trkpt>
      <trkpt lat="43.14694" lon="1.02758">
        <ele>410.39999389648</ele>
        <time>2023-12-02T13:42:37Z</time>
      </trkpt>
      <trkpt lat="43.14678" lon="1.02752">
        <ele>412.39999389648</ele>
        <time>2023-12-02T13:43:00Z</time>
      </trkpt>
      <trkpt lat="43.14664" lon="1.02744">
        <ele>413.39999389648</ele>
        <time>2023-12-02T13:43:16Z</time>
      </trkpt>
      <trkpt lat="43.14646" lon="1.0274">
        <ele>415</ele>
        <time>2023-12-02T13:43:34Z</time>
      </trkpt>
      <trkpt lat="43.14624" lon="1.02742">
        <ele>417</ele>
        <time>2023-12-02T13:43:58Z</time>
      </trkpt>
      <trkpt lat="43.14603" lon="1.02745">
        <ele>418</ele>
        <time>2023-12-02T13:44:17Z</time>
      </trkpt>
      <trkpt lat="43.14577" lon="1.02755">
        <ele>419</ele>
        <time>2023-12-02T13:44:44Z</time>
      </trkpt>
      <trkpt lat="43.1457" lon="1.02756">
        <ele>419.20001220703</ele>
        <time>2023-12-02T13:44:51Z</time>
      </trkpt>
      <trkpt lat="43.14552" lon="1.02759">
        <ele>419.60000610352</ele>
        <time>2023-12-02T13:45:10Z</time>
      </trkpt>
      <trkpt lat="43.14541" lon="1.02764">
        <ele>419.60000610352</ele>
        <time>2023-12-02T13:45:22Z</time>
      </trkpt>
      <trkpt lat="43.14533" lon="1.02762">
        <ele>419.60000610352</ele>
        <time>2023-12-02T13:45:29Z</time>
      </trkpt>
      <trkpt lat="43.14522" lon="1.02764">
        <ele>418.79998779297</ele>
        <time>2023-12-02T13:45:37Z</time>
      </trkpt>
      <trkpt lat="43.14501" lon="1.02771">
        <ele>418.20001220703</ele>
        <time>2023-12-02T13:45:54Z</time>
      </trkpt>
      <trkpt lat="43.14487" lon="1.02784">
        <ele>418</ele>
        <time>2023-12-02T13:46:10Z</time>
      </trkpt>
      <trkpt lat="43.14473" lon="1.02794">
        <ele>417.39999389648</ele>
        <time>2023-12-02T13:46:23Z</time>
      </trkpt>
      <trkpt lat="43.14465" lon="1.02805">
        <ele>416.60000610352</ele>
        <time>2023-12-02T13:46:38Z</time>
      </trkpt>
      <trkpt lat="43.14452" lon="1.02821">
        <ele>415.39999389648</ele>
        <time>2023-12-02T13:47:04Z</time>
      </trkpt>
      <trkpt lat="43.14441" lon="1.02839">
        <ele>414</ele>
        <time>2023-12-02T13:47:24Z</time>
      </trkpt>
      <trkpt lat="43.14428" lon="1.02856">
        <ele>412.60000610352</ele>
        <time>2023-12-02T13:47:44Z</time>
      </trkpt>
      <trkpt lat="43.14419" lon="1.02874">
        <ele>410</ele>
        <time>2023-12-02T13:48:04Z</time>
      </trkpt>
      <trkpt lat="43.14408" lon="1.02892">
        <ele>408.39999389648</ele>
        <time>2023-12-02T13:48:24Z</time>
      </trkpt>
      <trkpt lat="43.14397" lon="1.02914">
        <ele>407.39999389648</ele>
        <time>2023-12-02T13:48:47Z</time>
      </trkpt>
      <trkpt lat="43.14392" lon="1.02936">
        <ele>406.39999389648</ele>
        <time>2023-12-02T13:49:07Z</time>
      </trkpt>
      <trkpt lat="43.14384" lon="1.02955">
        <ele>405.39999389648</ele>
        <time>2023-12-02T13:49:24Z</time>
      </trkpt>
      <trkpt lat="43.14379" lon="1.02979">
        <ele>403.79998779297</ele>
        <time>2023-12-02T13:49:45Z</time>
      </trkpt>
      <trkpt lat="43.14374" lon="1.03007">
        <ele>403</ele>
        <time>2023-12-02T13:50:08Z</time>
      </trkpt>
      <trkpt lat="43.14366" lon="1.03024">
        <ele>402</ele>
        <time>2023-12-02T13:50:28Z</time>
      </trkpt>
      <trkpt lat="43.14353" lon="1.03044">
        <ele>399.79998779297</ele>
        <time>2023-12-02T13:50:54Z</time>
      </trkpt>
      <trkpt lat="43.14337" lon="1.03051">
        <ele>398.79998779297</ele>
        <time>2023-12-02T13:51:14Z</time>
      </trkpt>
      <trkpt lat="43.14331" lon="1.03049">
        <ele>399.20001220703</ele>
        <time>2023-12-02T13:51:20Z</time>
      </trkpt>
      <trkpt lat="43.14316" lon="1.03031">
        <ele>400.60000610352</ele>
        <time>2023-12-02T13:51:39Z</time>
      </trkpt>
      <trkpt lat="43.14311" lon="1.03022">
        <ele>401.79998779297</ele>
        <time>2023-12-02T13:51:51Z</time>
      </trkpt>
      <trkpt lat="43.1431" lon="1.03017">
        <ele>402.20001220703</ele>
        <time>2023-12-02T13:51:55Z</time>
      </trkpt>
      <trkpt lat="43.14305" lon="1.03011">
        <ele>402.79998779297</ele>
        <time>2023-12-02T13:52:16Z</time>
      </trkpt>
      <trkpt lat="43.14304" lon="1.03014">
        <ele>402.79998779297</ele>
        <time>2023-12-02T13:52:49Z</time>
      </trkpt>
      <trkpt lat="43.14304" lon="1.03011">
        <ele>402.79998779297</ele>
        <time>2023-12-02T13:53:27Z</time>
      </trkpt>
      <trkpt lat="43.14306" lon="1.03011">
        <ele>402.79998779297</ele>
        <time>2023-12-02T13:54:46Z</time>
      </trkpt>
      <trkpt lat="43.14305" lon="1.03013">
        <ele>402.60000610352</ele>
        <time>2023-12-02T13:55:17Z</time>
      </trkpt>
      <trkpt lat="43.14306" lon="1.03012">
        <ele>402.60000610352</ele>
        <time>2023-12-02T13:55:31Z</time>
      </trkpt>
      <trkpt lat="43.14304" lon="1.03009">
        <ele>402.60000610352</ele>
        <time>2023-12-02T13:55:36Z</time>
      </trkpt>
      <trkpt lat="43.14304" lon="1.03005">
        <ele>402.60000610352</ele>
        <time>2023-12-02T13:55:52Z</time>
      </trkpt>
      <trkpt lat="43.14307" lon="1.03002">
        <ele>401</ele>
        <time>2023-12-02T13:56:07Z</time>
      </trkpt>
      <trkpt lat="43.14307" lon="1.03002">
        <ele>401.20001220703</ele>
        <time>2023-12-02T13:56:41Z</time>
      </trkpt>
      <trkpt lat="43.14306" lon="1.03002">
        <ele>401.20001220703</ele>
        <time>2023-12-02T13:57:15Z</time>
      </trkpt>
      <trkpt lat="43.14306" lon="1.03001">
        <ele>401</ele>
        <time>2023-12-02T13:57:42Z</time>
      </trkpt>
      <trkpt lat="43.14304" lon="1.03">
        <ele>401.20001220703</ele>
        <time>2023-12-02T13:57:55Z</time>
      </trkpt>
      <trkpt lat="43.14305" lon="1.02996">
        <ele>401</ele>
        <time>2023-12-02T13:58:36Z</time>
      </trkpt>
      <trkpt lat="43.14306" lon="1.03001">
        <ele>400.79998779297</ele>
        <time>2023-12-02T13:59:11Z</time>
      </trkpt>
      <trkpt lat="43.14306" lon="1.03009">
        <ele>400.60000610352</ele>
        <time>2023-12-02T13:59:39Z</time>
      </trkpt>
      <trkpt lat="43.14306" lon="1.03009">
        <ele>401.39999389648</ele>
        <time>2023-12-02T14:00:08Z</time>
      </trkpt>
      <trkpt lat="43.14304" lon="1.03005">
        <ele>401.60000610352</ele>
        <time>2023-12-02T14:00:36Z</time>
      </trkpt>
      <trkpt lat="43.143" lon="1.03007">
        <ele>401.79998779297</ele>
        <time>2023-12-02T14:00:51Z</time>
      </trkpt>
      <trkpt lat="43.14303" lon="1.03006">
        <ele>401.79998779297</ele>
        <time>2023-12-02T14:01:26Z</time>
      </trkpt>
      <trkpt lat="43.14303" lon="1.0301">
        <ele>402</ele>
        <time>2023-12-02T14:02:18Z</time>
      </trkpt>
      <trkpt lat="43.14285" lon="1.03024">
        <ele>400.60000610352</ele>
        <time>2023-12-02T14:02:44Z</time>
      </trkpt>
      <trkpt lat="43.14271" lon="1.03038">
        <ele>398.79998779297</ele>
        <time>2023-12-02T14:03:02Z</time>
      </trkpt>
      <trkpt lat="43.14265" lon="1.03065">
        <ele>396.39999389648</ele>
        <time>2023-12-02T14:03:21Z</time>
      </trkpt>
      <trkpt lat="43.14265" lon="1.03066">
        <ele>396.39999389648</ele>
        <time>2023-12-02T14:03:22Z</time>
      </trkpt>
      <trkpt lat="43.14261" lon="1.03077">
        <ele>395.39999389648</ele>
        <time>2023-12-02T14:03:38Z</time>
      </trkpt>
      <trkpt lat="43.1424" lon="1.0309">
        <ele>395</ele>
        <time>2023-12-02T14:03:55Z</time>
      </trkpt>
      <trkpt lat="43.14228" lon="1.03099">
        <ele>393.79998779297</ele>
        <time>2023-12-02T14:04:13Z</time>
      </trkpt>
      <trkpt lat="43.14221" lon="1.03101">
        <ele>393.79998779297</ele>
        <time>2023-12-02T14:04:22Z</time>
      </trkpt>
      <trkpt lat="43.14217" lon="1.03095">
        <ele>393.79998779297</ele>
        <time>2023-12-02T14:04:42Z</time>
      </trkpt>
      <trkpt lat="43.14208" lon="1.03095">
        <ele>394</ele>
        <time>2023-12-02T14:05:07Z</time>
      </trkpt>
      <trkpt lat="43.14204" lon="1.03082">
        <ele>394</ele>
        <time>2023-12-02T14:05:36Z</time>
      </trkpt>
      <trkpt lat="43.142" lon="1.03069">
        <ele>393.79998779297</ele>
        <time>2023-12-02T14:06:00Z</time>
      </trkpt>
      <trkpt lat="43.14192" lon="1.03052">
        <ele>393.79998779297</ele>
        <time>2023-12-02T14:06:18Z</time>
      </trkpt>
      <trkpt lat="43.14187" lon="1.03031">
        <ele>394</ele>
        <time>2023-12-02T14:06:41Z</time>
      </trkpt>
      <trkpt lat="43.1418" lon="1.03009">
        <ele>394.39999389648</ele>
        <time>2023-12-02T14:07:06Z</time>
      </trkpt>
      <trkpt lat="43.14173" lon="1.02981">
        <ele>396</ele>
        <time>2023-12-02T14:07:31Z</time>
      </trkpt>
      <trkpt lat="43.14169" lon="1.02968">
        <ele>396.39999389648</ele>
        <time>2023-12-02T14:07:44Z</time>
      </trkpt>
      <trkpt lat="43.14161" lon="1.02949">
        <ele>396.60000610352</ele>
        <time>2023-12-02T14:08:00Z</time>
      </trkpt>
      <trkpt lat="43.14153" lon="1.0292">
        <ele>397.20001220703</ele>
        <time>2023-12-02T14:08:23Z</time>
      </trkpt>
      <trkpt lat="43.14149" lon="1.0291">
        <ele>397.60000610352</ele>
        <time>2023-12-02T14:08:32Z</time>
      </trkpt>
      <trkpt lat="43.14148" lon="1.02907">
        <ele>397.60000610352</ele>
        <time>2023-12-02T14:08:34Z</time>
      </trkpt>
      <trkpt lat="43.14141" lon="1.02888">
        <ele>398.20001220703</ele>
        <time>2023-12-02T14:08:51Z</time>
      </trkpt>
      <trkpt lat="43.14133" lon="1.02868">
        <ele>398.60000610352</ele>
        <time>2023-12-02T14:09:08Z</time>
      </trkpt>
      <trkpt lat="43.14125" lon="1.02847">
        <ele>399.20001220703</ele>
        <time>2023-12-02T14:09:26Z</time>
      </trkpt>
      <trkpt lat="43.14115" lon="1.02824">
        <ele>398</ele>
        <time>2023-12-02T14:09:45Z</time>
      </trkpt>
      <trkpt lat="43.1411" lon="1.02814">
        <ele>397.20001220703</ele>
        <time>2023-12-02T14:10:01Z</time>
      </trkpt>
      <trkpt lat="43.14105" lon="1.02811">
        <ele>396.79998779297</ele>
        <time>2023-12-02T14:10:19Z</time>
      </trkpt>
      <trkpt lat="43.14103" lon="1.02812">
        <ele>396.39999389648</ele>
        <time>2023-12-02T14:10:45Z</time>
      </trkpt>
      <trkpt lat="43.14104" lon="1.02812">
        <ele>396.60000610352</ele>
        <time>2023-12-02T14:11:15Z</time>
      </trkpt>
      <trkpt lat="43.14105" lon="1.02811">
        <ele>396.20001220703</ele>
        <time>2023-12-02T14:12:06Z</time>
      </trkpt>
      <trkpt lat="43.14105" lon="1.02808">
        <ele>396</ele>
        <time>2023-12-02T14:12:39Z</time>
      </trkpt>
      <trkpt lat="43.14104" lon="1.02811">
        <ele>395.79998779297</ele>
        <time>2023-12-02T14:13:04Z</time>
      </trkpt>
      <trkpt lat="43.14103" lon="1.0282">
        <ele>396</ele>
        <time>2023-12-02T14:13:24Z</time>
      </trkpt>
      <trkpt lat="43.14102" lon="1.02822">
        <ele>396</ele>
        <time>2023-12-02T14:13:25Z</time>
      </trkpt>
      <trkpt lat="43.14101" lon="1.02828">
        <ele>396.20001220703</ele>
        <time>2023-12-02T14:13:29Z</time>
      </trkpt>
      <trkpt lat="43.14102" lon="1.02831">
        <ele>396.39999389648</ele>
        <time>2023-12-02T14:13:31Z</time>
      </trkpt>
      <trkpt lat="43.14108" lon="1.0285">
        <ele>398.39999389648</ele>
        <time>2023-12-02T14:13:47Z</time>
      </trkpt>
      <trkpt lat="43.1411" lon="1.02864">
        <ele>400.20001220703</ele>
        <time>2023-12-02T14:14:00Z</time>
      </trkpt>
      <trkpt lat="43.1411" lon="1.02883">
        <ele>402.20001220703</ele>
        <time>2023-12-02T14:14:15Z</time>
      </trkpt>
      <trkpt lat="43.14112" lon="1.02905">
        <ele>404.79998779297</ele>
        <time>2023-12-02T14:14:32Z</time>
      </trkpt>
      <trkpt lat="43.14113" lon="1.02909">
        <ele>405.39999389648</ele>
        <time>2023-12-02T14:14:35Z</time>
      </trkpt>
      <trkpt lat="43.14116" lon="1.02932">
        <ele>408</ele>
        <time>2023-12-02T14:14:53Z</time>
      </trkpt>
      <trkpt lat="43.14118" lon="1.0295">
        <ele>410.20001220703</ele>
        <time>2023-12-02T14:15:09Z</time>
      </trkpt>
      <trkpt lat="43.1412" lon="1.02974">
        <ele>412.79998779297</ele>
        <time>2023-12-02T14:15:32Z</time>
      </trkpt>
      <trkpt lat="43.14124" lon="1.02998">
        <ele>416</ele>
        <time>2023-12-02T14:15:58Z</time>
      </trkpt>
      <trkpt lat="43.14126" lon="1.03017">
        <ele>418.20001220703</ele>
        <time>2023-12-02T14:16:15Z</time>
      </trkpt>
      <trkpt lat="43.14127" lon="1.03028">
        <ele>420.20001220703</ele>
        <time>2023-12-02T14:16:33Z</time>
      </trkpt>
      <trkpt lat="43.14127" lon="1.03031">
        <ele>421</ele>
        <time>2023-12-02T14:17:00Z</time>
      </trkpt>
      <trkpt lat="43.14127" lon="1.03031">
        <ele>421.20001220703</ele>
        <time>2023-12-02T14:17:17Z</time>
      </trkpt>
      <trkpt lat="43.14128" lon="1.03032">
        <ele>421.20001220703</ele>
        <time>2023-12-02T14:17:37Z</time>
      </trkpt>
      <trkpt lat="43.14127" lon="1.03034">
        <ele>421.20001220703</ele>
        <time>2023-12-02T14:18:14Z</time>
      </trkpt>
      <trkpt lat="43.14127" lon="1.03039">
        <ele>421.20001220703</ele>
        <time>2023-12-02T14:18:19Z</time>
      </trkpt>
      <trkpt lat="43.14128" lon="1.03042">
        <ele>421.20001220703</ele>
        <time>2023-12-02T14:18:22Z</time>
      </trkpt>
      <trkpt lat="43.14131" lon="1.0306">
        <ele>422.60000610352</ele>
        <time>2023-12-02T14:18:40Z</time>
      </trkpt>
      <trkpt lat="43.14133" lon="1.03074">
        <ele>424.39999389648</ele>
        <time>2023-12-02T14:18:55Z</time>
      </trkpt>
      <trkpt lat="43.14135" lon="1.0309">
        <ele>426</ele>
        <time>2023-12-02T14:19:09Z</time>
      </trkpt>
      <trkpt lat="43.14138" lon="1.03111">
        <ele>428.20001220703</ele>
        <time>2023-12-02T14:19:28Z</time>
      </trkpt>
      <trkpt lat="43.14139" lon="1.0313">
        <ele>430</ele>
        <time>2023-12-02T14:19:43Z</time>
      </trkpt>
      <trkpt lat="43.14141" lon="1.03147">
        <ele>432</ele>
        <time>2023-12-02T14:20:02Z</time>
      </trkpt>
      <trkpt lat="43.14142" lon="1.03161">
        <ele>433.20001220703</ele>
        <time>2023-12-02T14:20:27Z</time>
      </trkpt>
      <trkpt lat="43.14146" lon="1.03178">
        <ele>435</ele>
        <time>2023-12-02T14:20:45Z</time>
      </trkpt>
      <trkpt lat="43.14149" lon="1.03197">
        <ele>436.39999389648</ele>
        <time>2023-12-02T14:21:01Z</time>
      </trkpt>
      <trkpt lat="43.1415" lon="1.03215">
        <ele>438</ele>
        <time>2023-12-02T14:21:16Z</time>
      </trkpt>
      <trkpt lat="43.14149" lon="1.03233">
        <ele>439.20001220703</ele>
        <time>2023-12-02T14:21:34Z</time>
      </trkpt>
      <trkpt lat="43.14149" lon="1.03258">
        <ele>440.20001220703</ele>
        <time>2023-12-02T14:21:55Z</time>
      </trkpt>
      <trkpt lat="43.14149" lon="1.03275">
        <ele>440.60000610352</ele>
        <time>2023-12-02T14:22:11Z</time>
      </trkpt>
      <trkpt lat="43.14147" lon="1.03276">
        <ele>441</ele>
        <time>2023-12-02T14:22:31Z</time>
      </trkpt>
      <trkpt lat="43.14146" lon="1.03276">
        <ele>441</ele>
        <time>2023-12-02T14:23:51Z</time>
      </trkpt>
      <trkpt lat="43.14148" lon="1.03276">
        <ele>440.79998779297</ele>
        <time>2023-12-02T14:24:53Z</time>
      </trkpt>
      <trkpt lat="43.14146" lon="1.03277">
        <ele>440.79998779297</ele>
        <time>2023-12-02T14:25:45Z</time>
      </trkpt>
      <trkpt lat="43.14147" lon="1.03281">
        <ele>440.79998779297</ele>
        <time>2023-12-02T14:26:33Z</time>
      </trkpt>
      <trkpt lat="43.14148" lon="1.03283">
        <ele>440.79998779297</ele>
        <time>2023-12-02T14:26:35Z</time>
      </trkpt>
      <trkpt lat="43.14146" lon="1.03288">
        <ele>440.79998779297</ele>
        <time>2023-12-02T14:26:55Z</time>
      </trkpt>
      <trkpt lat="43.14146" lon="1.03286">
        <ele>440.60000610352</ele>
        <time>2023-12-02T14:27:44Z</time>
      </trkpt>
      <trkpt lat="43.14146" lon="1.03287">
        <ele>440.39999389648</ele>
        <time>2023-12-02T14:28:01Z</time>
      </trkpt>
      <trkpt lat="43.14146" lon="1.03281">
        <ele>440.20001220703</ele>
        <time>2023-12-02T14:28:16Z</time>
      </trkpt>
      <trkpt lat="43.14149" lon="1.03281">
        <ele>440.20001220703</ele>
        <time>2023-12-02T14:28:51Z</time>
      </trkpt>
      <trkpt lat="43.14148" lon="1.03283">
        <ele>440.20001220703</ele>
        <time>2023-12-02T14:29:31Z</time>
      </trkpt>
      <trkpt lat="43.14148" lon="1.03282">
        <ele>440</ele>
        <time>2023-12-02T14:29:47Z</time>
      </trkpt>
      <trkpt lat="43.14141" lon="1.03285">
        <ele>439.79998779297</ele>
        <time>2023-12-02T14:30:11Z</time>
      </trkpt>
      <trkpt lat="43.14131" lon="1.03286">
        <ele>438.39999389648</ele>
        <time>2023-12-02T14:30:26Z</time>
      </trkpt>
      <trkpt lat="43.14122" lon="1.03289">
        <ele>435.20001220703</ele>
        <time>2023-12-02T14:30:44Z</time>
      </trkpt>
      <trkpt lat="43.14111" lon="1.03278">
        <ele>432.20001220703</ele>
        <time>2023-12-02T14:31:03Z</time>
      </trkpt>
      <trkpt lat="43.14109" lon="1.03277">
        <ele>431.60000610352</ele>
        <time>2023-12-02T14:31:05Z</time>
      </trkpt>
      <trkpt lat="43.14102" lon="1.03269">
        <ele>429.79998779297</ele>
        <time>2023-12-02T14:31:23Z</time>
      </trkpt>
      <trkpt lat="43.14092" lon="1.03268">
        <ele>426.60000610352</ele>
        <time>2023-12-02T14:31:38Z</time>
      </trkpt>
      <trkpt lat="43.14091" lon="1.0326">
        <ele>423.39999389648</ele>
        <time>2023-12-02T14:31:48Z</time>
      </trkpt>
      <trkpt lat="43.14089" lon="1.03259">
        <ele>420.39999389648</ele>
        <time>2023-12-02T14:32:03Z</time>
      </trkpt>
      <trkpt lat="43.14086" lon="1.03264">
        <ele>417.39999389648</ele>
        <time>2023-12-02T14:32:20Z</time>
      </trkpt>
      <trkpt lat="43.14102" lon="1.03263">
        <ele>414.79998779297</ele>
        <time>2023-12-02T14:32:53Z</time>
      </trkpt>
      <trkpt lat="43.14081" lon="1.0328">
        <ele>410.60000610352</ele>
        <time>2023-12-02T14:36:28Z</time>
      </trkpt>
      <trkpt lat="43.14086" lon="1.03274">
        <ele>410.39999389648</ele>
        <time>2023-12-02T14:36:44Z</time>
      </trkpt>
      <trkpt lat="43.14124" lon="1.03215">
        <ele>413.60000610352</ele>
        <time>2023-12-02T14:37:03Z</time>
      </trkpt>
      <trkpt lat="43.14123" lon="1.03217">
        <ele>413.60000610352</ele>
        <time>2023-12-02T14:37:05Z</time>
      </trkpt>
      <trkpt lat="43.14105" lon="1.0323">
        <ele>415.79998779297</ele>
        <time>2023-12-02T14:37:40Z</time>
      </trkpt>
      <trkpt lat="43.14099" lon="1.03234">
        <ele>416.20001220703</ele>
        <time>2023-12-02T14:38:07Z</time>
      </trkpt>
      <trkpt lat="43.14097" lon="1.03224">
        <ele>419.39999389648</ele>
        <time>2023-12-02T14:38:30Z</time>
      </trkpt>
      <trkpt lat="43.14095" lon="1.03214">
        <ele>422.39999389648</ele>
        <time>2023-12-02T14:38:47Z</time>
      </trkpt>
      <trkpt lat="43.14085" lon="1.03205">
        <ele>423.20001220703</ele>
        <time>2023-12-02T14:39:04Z</time>
      </trkpt>
      <trkpt lat="43.14082" lon="1.03202">
        <ele>423.20001220703</ele>
        <time>2023-12-02T14:39:08Z</time>
      </trkpt>
      <trkpt lat="43.14078" lon="1.03192">
        <ele>422.60000610352</ele>
        <time>2023-12-02T14:39:17Z</time>
      </trkpt>
      <trkpt lat="43.14072" lon="1.03167">
        <ele>419.39999389648</ele>
        <time>2023-12-02T14:39:38Z</time>
      </trkpt>
      <trkpt lat="43.14071" lon="1.03149">
        <ele>418</ele>
        <time>2023-12-02T14:39:58Z</time>
      </trkpt>
      <trkpt lat="43.14072" lon="1.03133">
        <ele>416.39999389648</ele>
        <time>2023-12-02T14:40:17Z</time>
      </trkpt>
      <trkpt lat="43.14074" lon="1.0312">
        <ele>416</ele>
        <time>2023-12-02T14:40:46Z</time>
      </trkpt>
      <trkpt lat="43.14073" lon="1.03118">
        <ele>415.20001220703</ele>
        <time>2023-12-02T14:41:12Z</time>
      </trkpt>
      <trkpt lat="43.14073" lon="1.03108">
        <ele>414.79998779297</ele>
        <time>2023-12-02T14:42:13Z</time>
      </trkpt>
      <trkpt lat="43.14073" lon="1.03092">
        <ele>412.60000610352</ele>
        <time>2023-12-02T14:42:33Z</time>
      </trkpt>
      <trkpt lat="43.14077" lon="1.03063">
        <ele>410</ele>
        <time>2023-12-02T14:42:53Z</time>
      </trkpt>
      <trkpt lat="43.14083" lon="1.03023">
        <ele>408</ele>
        <time>2023-12-02T14:43:19Z</time>
      </trkpt>
      <trkpt lat="43.14096" lon="1.0301">
        <ele>407.39999389648</ele>
        <time>2023-12-02T14:43:32Z</time>
      </trkpt>
      <trkpt lat="43.14097" lon="1.03008">
        <ele>407.39999389648</ele>
        <time>2023-12-02T14:43:34Z</time>
      </trkpt>
      <trkpt lat="43.14098" lon="1.02998">
        <ele>407.79998779297</ele>
        <time>2023-12-02T14:43:40Z</time>
      </trkpt>
      <trkpt lat="43.14099" lon="1.02964">
        <ele>406.20001220703</ele>
        <time>2023-12-02T14:43:57Z</time>
      </trkpt>
      <trkpt lat="43.14092" lon="1.02929">
        <ele>403</ele>
        <time>2023-12-02T14:44:14Z</time>
      </trkpt>
      <trkpt lat="43.14089" lon="1.02918">
        <ele>400.79998779297</ele>
        <time>2023-12-02T14:44:20Z</time>
      </trkpt>
      <trkpt lat="43.14091" lon="1.02886">
        <ele>397.60000610352</ele>
        <time>2023-12-02T14:44:36Z</time>
      </trkpt>
      <trkpt lat="43.14092" lon="1.02852">
        <ele>395.20001220703</ele>
        <time>2023-12-02T14:44:53Z</time>
      </trkpt>
      <trkpt lat="43.14093" lon="1.02819">
        <ele>392</ele>
        <time>2023-12-02T14:45:10Z</time>
      </trkpt>
      <trkpt lat="43.14094" lon="1.02817">
        <ele>391</ele>
        <time>2023-12-02T14:45:32Z</time>
      </trkpt>
      <trkpt lat="43.14096" lon="1.02814">
        <ele>391.20001220703</ele>
        <time>2023-12-02T14:45:49Z</time>
      </trkpt>
      <trkpt lat="43.14099" lon="1.02806">
        <ele>391.39999389648</ele>
        <time>2023-12-02T14:46:14Z</time>
      </trkpt>
      <trkpt lat="43.14105" lon="1.02796">
        <ele>391.20001220703</ele>
        <time>2023-12-02T14:46:32Z</time>
      </trkpt>
      <trkpt lat="43.14104" lon="1.0279">
        <ele>390.60000610352</ele>
        <time>2023-12-02T14:46:45Z</time>
      </trkpt>
      <trkpt lat="43.14094" lon="1.02789">
        <ele>389.60000610352</ele>
        <time>2023-12-02T14:46:58Z</time>
      </trkpt>
      <trkpt lat="43.14092" lon="1.02792">
        <ele>389.20001220703</ele>
        <time>2023-12-02T14:47:01Z</time>
      </trkpt>
      <trkpt lat="43.14077" lon="1.02805">
        <ele>386.79998779297</ele>
        <time>2023-12-02T14:47:19Z</time>
      </trkpt>
      <trkpt lat="43.14067" lon="1.02809">
        <ele>384.79998779297</ele>
        <time>2023-12-02T14:47:38Z</time>
      </trkpt>
      <trkpt lat="43.14057" lon="1.02809">
        <ele>383.39999389648</ele>
        <time>2023-12-02T14:47:50Z</time>
      </trkpt>
      <trkpt lat="43.14039" lon="1.02811">
        <ele>382.79998779297</ele>
        <time>2023-12-02T14:48:07Z</time>
      </trkpt>
      <trkpt lat="43.14037" lon="1.02811">
        <ele>382.79998779297</ele>
        <time>2023-12-02T14:48:08Z</time>
      </trkpt>
      <trkpt lat="43.14035" lon="1.02812">
        <ele>382.79998779297</ele>
        <time>2023-12-02T14:48:10Z</time>
      </trkpt>
      <trkpt lat="43.14016" lon="1.02813">
        <ele>382</ele>
        <time>2023-12-02T14:48:26Z</time>
      </trkpt>
      <trkpt lat="43.14005" lon="1.02806">
        <ele>380.79998779297</ele>
        <time>2023-12-02T14:48:42Z</time>
      </trkpt>
      <trkpt lat="43.13984" lon="1.02799">
        <ele>377.60000610352</ele>
        <time>2023-12-02T14:49:07Z</time>
      </trkpt>
      <trkpt lat="43.13966" lon="1.02797">
        <ele>374.60000610352</ele>
        <time>2023-12-02T14:49:27Z</time>
      </trkpt>
      <trkpt lat="43.13948" lon="1.02803">
        <ele>372.60000610352</ele>
        <time>2023-12-02T14:49:46Z</time>
      </trkpt>
      <trkpt lat="43.13932" lon="1.02802">
        <ele>371</ele>
        <time>2023-12-02T14:50:01Z</time>
      </trkpt>
      <trkpt lat="43.13912" lon="1.028">
        <ele>369.39999389648</ele>
        <time>2023-12-02T14:50:20Z</time>
      </trkpt>
      <trkpt lat="43.13889" lon="1.0279">
        <ele>369</ele>
        <time>2023-12-02T14:50:42Z</time>
      </trkpt>
      <trkpt lat="43.1388" lon="1.02769">
        <ele>369.60000610352</ele>
        <time>2023-12-02T14:50:59Z</time>
      </trkpt>
      <trkpt lat="43.13879" lon="1.02768">
        <ele>369.60000610352</ele>
        <time>2023-12-02T14:51:00Z</time>
      </trkpt>
      <trkpt lat="43.13881" lon="1.02744">
        <ele>369.20001220703</ele>
        <time>2023-12-02T14:51:17Z</time>
      </trkpt>
      <trkpt lat="43.1388" lon="1.02727">
        <ele>368.39999389648</ele>
        <time>2023-12-02T14:51:27Z</time>
      </trkpt>
      <trkpt lat="43.13874" lon="1.02707">
        <ele>367.20001220703</ele>
        <time>2023-12-02T14:51:43Z</time>
      </trkpt>
      <trkpt lat="43.13872" lon="1.02704">
        <ele>367</ele>
        <time>2023-12-02T14:51:46Z</time>
      </trkpt>
      <trkpt lat="43.13854" lon="1.02691">
        <ele>366.79998779297</ele>
        <time>2023-12-02T14:52:04Z</time>
      </trkpt>
      <trkpt lat="43.13838" lon="1.02678">
        <ele>366.60000610352</ele>
        <time>2023-12-02T14:52:23Z</time>
      </trkpt>
      <trkpt lat="43.1382" lon="1.02678">
        <ele>366.39999389648</ele>
        <time>2023-12-02T14:52:40Z</time>
      </trkpt>
      <trkpt lat="43.13817" lon="1.02678">
        <ele>366.39999389648</ele>
        <time>2023-12-02T14:52:43Z</time>
      </trkpt>
      <trkpt lat="43.13813" lon="1.02678">
        <ele>366.20001220703</ele>
        <time>2023-12-02T14:52:47Z</time>
      </trkpt>
      <trkpt lat="43.13798" lon="1.02679">
        <ele>365.20001220703</ele>
        <time>2023-12-02T14:53:04Z</time>
      </trkpt>
      <trkpt lat="43.13786" lon="1.0268">
        <ele>362.79998779297</ele>
        <time>2023-12-02T14:53:20Z</time>
      </trkpt>
      <trkpt lat="43.13773" lon="1.02684">
        <ele>359.60000610352</ele>
        <time>2023-12-02T14:53:36Z</time>
      </trkpt>
      <trkpt lat="43.13764" lon="1.02688">
        <ele>358</ele>
        <time>2023-12-02T14:53:46Z</time>
      </trkpt>
      <trkpt lat="43.13758" lon="1.02688">
        <ele>357</ele>
        <time>2023-12-02T14:53:52Z</time>
      </trkpt>
      <trkpt lat="43.13733" lon="1.02687">
        <ele>354</ele>
        <time>2023-12-02T14:54:13Z</time>
      </trkpt>
      <trkpt lat="43.13729" lon="1.02686">
        <ele>353.79998779297</ele>
        <time>2023-12-02T14:54:16Z</time>
      </trkpt>
      <trkpt lat="43.13723" lon="1.02684">
        <ele>353.20001220703</ele>
        <time>2023-12-02T14:54:22Z</time>
      </trkpt>
      <trkpt lat="43.13715" lon="1.02681">
        <ele>352.79998779297</ele>
        <time>2023-12-02T14:54:29Z</time>
      </trkpt>
      <trkpt lat="43.1371" lon="1.02681">
        <ele>352.39999389648</ele>
        <time>2023-12-02T14:54:33Z</time>
      </trkpt>
      <trkpt lat="43.13701" lon="1.02677">
        <ele>352.20001220703</ele>
        <time>2023-12-02T14:54:43Z</time>
      </trkpt>
      <trkpt lat="43.13689" lon="1.02671">
        <ele>351.60000610352</ele>
        <time>2023-12-02T14:54:55Z</time>
      </trkpt>
      <trkpt lat="43.13688" lon="1.0267">
        <ele>351.60000610352</ele>
        <time>2023-12-02T14:54:56Z</time>
      </trkpt>
      <trkpt lat="43.13682" lon="1.02658">
        <ele>351.20001220703</ele>
        <time>2023-12-02T14:55:04Z</time>
      </trkpt>
      <trkpt lat="43.13682" lon="1.02654">
        <ele>350.79998779297</ele>
        <time>2023-12-02T14:55:07Z</time>
      </trkpt>
      <trkpt lat="43.13681" lon="1.02647">
        <ele>350</ele>
        <time>2023-12-02T14:55:12Z</time>
      </trkpt>
      <trkpt lat="43.1367" lon="1.02637">
        <ele>347.60000610352</ele>
        <time>2023-12-02T14:55:28Z</time>
      </trkpt>
      <trkpt lat="43.13663" lon="1.02637">
        <ele>346.20001220703</ele>
        <time>2023-12-02T14:55:35Z</time>
      </trkpt>
      <trkpt lat="43.13642" lon="1.02631">
        <ele>344</ele>
        <time>2023-12-02T14:55:55Z</time>
      </trkpt>
      <trkpt lat="43.13625" lon="1.02629">
        <ele>343.20001220703</ele>
        <time>2023-12-02T14:56:10Z</time>
      </trkpt>
      <trkpt lat="43.13612" lon="1.02625">
        <ele>343.39999389648</ele>
        <time>2023-12-02T14:56:22Z</time>
      </trkpt>
      <trkpt lat="43.13599" lon="1.0262">
        <ele>343.60000610352</ele>
        <time>2023-12-02T14:56:39Z</time>
      </trkpt>
      <trkpt lat="43.13571" lon="1.02617">
        <ele>341.39999389648</ele>
        <time>2023-12-02T14:57:10Z</time>
      </trkpt>
      <trkpt lat="43.1355" lon="1.02606">
        <ele>339</ele>
        <time>2023-12-02T14:57:34Z</time>
      </trkpt>
      <trkpt lat="43.13534" lon="1.02599">
        <ele>338.79998779297</ele>
        <time>2023-12-02T14:57:52Z</time>
      </trkpt>
      <trkpt lat="43.13524" lon="1.02593">
        <ele>339</ele>
        <time>2023-12-02T14:58:04Z</time>
      </trkpt>
      <trkpt lat="43.1351" lon="1.02581">
        <ele>339.60000610352</ele>
        <time>2023-12-02T14:58:21Z</time>
      </trkpt>
      <trkpt lat="43.13501" lon="1.02573">
        <ele>341.60000610352</ele>
        <time>2023-12-02T14:58:43Z</time>
      </trkpt>
      <trkpt lat="43.13498" lon="1.02566">
        <ele>341.79998779297</ele>
        <time>2023-12-02T14:59:22Z</time>
      </trkpt>
      <trkpt lat="43.13478" lon="1.02565">
        <ele>344.79998779297</ele>
        <time>2023-12-02T14:59:39Z</time>
      </trkpt>
      <trkpt lat="43.13476" lon="1.02564">
        <ele>345.39999389648</ele>
        <time>2023-12-02T14:59:41Z</time>
      </trkpt>
      <trkpt lat="43.13458" lon="1.02561">
        <ele>348.60000610352</ele>
        <time>2023-12-02T14:59:58Z</time>
      </trkpt>
      <trkpt lat="43.13439" lon="1.02558">
        <ele>346.79998779297</ele>
        <time>2023-12-02T15:00:24Z</time>
      </trkpt>
      <trkpt lat="43.13414" lon="1.02555">
        <ele>345</ele>
        <time>2023-12-02T15:00:48Z</time>
      </trkpt>
      <trkpt lat="43.13399" lon="1.02551">
        <ele>345.20001220703</ele>
        <time>2023-12-02T15:01:07Z</time>
      </trkpt>
      <trkpt lat="43.13393" lon="1.02548">
        <ele>345.20001220703</ele>
        <time>2023-12-02T15:01:15Z</time>
      </trkpt>
      <trkpt lat="43.13378" lon="1.02543">
        <ele>346.60000610352</ele>
        <time>2023-12-02T15:01:34Z</time>
      </trkpt>
      <trkpt lat="43.13375" lon="1.0254">
        <ele>347.20001220703</ele>
        <time>2023-12-02T15:01:53Z</time>
      </trkpt>
      <trkpt lat="43.13375" lon="1.02541">
        <ele>347.20001220703</ele>
        <time>2023-12-02T15:02:15Z</time>
      </trkpt>
      <trkpt lat="43.13374" lon="1.0254">
        <ele>347.60000610352</ele>
        <time>2023-12-02T15:02:35Z</time>
      </trkpt>
      <trkpt lat="43.13371" lon="1.02536">
        <ele>347.79998779297</ele>
        <time>2023-12-02T15:03:04Z</time>
      </trkpt>
      <trkpt lat="43.1337" lon="1.0253">
        <ele>347.79998779297</ele>
        <time>2023-12-02T15:03:38Z</time>
      </trkpt>
      <trkpt lat="43.13369" lon="1.02522">
        <ele>347.79998779297</ele>
        <time>2023-12-02T15:03:48Z</time>
      </trkpt>
      <trkpt lat="43.13371" lon="1.02496">
        <ele>347.60000610352</ele>
        <time>2023-12-02T15:04:07Z</time>
      </trkpt>
      <trkpt lat="43.13371" lon="1.02489">
        <ele>347.79998779297</ele>
        <time>2023-12-02T15:04:11Z</time>
      </trkpt>
      <trkpt lat="43.13373" lon="1.02466">
        <ele>348.20001220703</ele>
        <time>2023-12-02T15:04:28Z</time>
      </trkpt>
      <trkpt lat="43.13375" lon="1.0245">
        <ele>347.39999389648</ele>
        <time>2023-12-02T15:04:41Z</time>
      </trkpt>
      <trkpt lat="43.13379" lon="1.02429">
        <ele>346.20001220703</ele>
        <time>2023-12-02T15:04:58Z</time>
      </trkpt>
      <trkpt lat="43.13383" lon="1.02404">
        <ele>344.79998779297</ele>
        <time>2023-12-02T15:05:15Z</time>
      </trkpt>
      <trkpt lat="43.13386" lon="1.02381">
        <ele>343.60000610352</ele>
        <time>2023-12-02T15:05:31Z</time>
      </trkpt>
      <trkpt lat="43.13381" lon="1.02356">
        <ele>341.79998779297</ele>
        <time>2023-12-02T15:05:50Z</time>
      </trkpt>
      <trkpt lat="43.13376" lon="1.0234">
        <ele>340.79998779297</ele>
        <time>2023-12-02T15:06:04Z</time>
      </trkpt>
      <trkpt lat="43.13361" lon="1.02304">
        <ele>338.60000610352</ele>
        <time>2023-12-02T15:06:30Z</time>
      </trkpt>
      <trkpt lat="43.1335" lon="1.02281">
        <ele>337.60000610352</ele>
        <time>2023-12-02T15:06:48Z</time>
      </trkpt>
      <trkpt lat="43.13348" lon="1.02277">
        <ele>337.39999389648</ele>
        <time>2023-12-02T15:06:51Z</time>
      </trkpt>
      <trkpt lat="43.13345" lon="1.02253">
        <ele>335.79998779297</ele>
        <time>2023-12-02T15:07:09Z</time>
      </trkpt>
      <trkpt lat="43.13348" lon="1.02231">
        <ele>334.39999389648</ele>
        <time>2023-12-02T15:07:25Z</time>
      </trkpt>
      <trkpt lat="43.1335" lon="1.02229">
        <ele>334.39999389648</ele>
        <time>2023-12-02T15:07:26Z</time>
      </trkpt>
      <trkpt lat="43.13363" lon="1.02214">
        <ele>332.79998779297</ele>
        <time>2023-12-02T15:07:44Z</time>
      </trkpt>
      <trkpt lat="43.13366" lon="1.02212">
        <ele>332.20001220703</ele>
        <time>2023-12-02T15:07:58Z</time>
      </trkpt>
      <trkpt lat="43.13372" lon="1.02204">
        <ele>331.79998779297</ele>
        <time>2023-12-02T15:08:16Z</time>
      </trkpt>
      <trkpt lat="43.13378" lon="1.02203">
        <ele>331.60000610352</ele>
        <time>2023-12-02T15:08:24Z</time>
      </trkpt>
      <trkpt lat="43.13406" lon="1.02206">
        <ele>329.60000610352</ele>
        <time>2023-12-02T15:08:50Z</time>
      </trkpt>
      <trkpt lat="43.13407" lon="1.02207">
        <ele>329.60000610352</ele>
        <time>2023-12-02T15:08:51Z</time>
      </trkpt>
      <trkpt lat="43.1342" lon="1.02214">
        <ele>328.20001220703</ele>
        <time>2023-12-02T15:09:07Z</time>
      </trkpt>
      <trkpt lat="43.13425" lon="1.02224">
        <ele>327.20001220703</ele>
        <time>2023-12-02T15:09:28Z</time>
      </trkpt>
      <trkpt lat="43.13424" lon="1.0223">
        <ele>327.60000610352</ele>
        <time>2023-12-02T15:09:53Z</time>
      </trkpt>
      <trkpt lat="43.13424" lon="1.0223">
        <ele>327.39999389648</ele>
        <time>2023-12-02T15:09:59Z</time>
      </trkpt>
    </trkseg>
  </trk>
</gpx>